Provisional Data: Young Woman's Creek near North Bend, PA


Please select a monitoring station.
Please select start date.
Please select start date.

Toggle Unit: C/F Toggle Unit: C/F
Sample Time Temperature (C) Temperature (F) Specific Conductivity (mS/cm) pH   Turbidity (NTU+) DO (mg/L)
12/4/2020 12:00:00 AM 4.19 39.542 0.038 7.01 2.29 12.88
12/4/2020 12:15:00 AM 4.18 39.524 0.038 7.01 2.37 12.88
12/4/2020 12:30:00 AM 4.17 39.506 0.038 7.01 2.32 12.88
12/4/2020 12:45:00 AM 4.17 39.506 0.038 7.01 2.29 12.88
12/4/2020 1:00:00 AM 4.15 39.47 0.038 7.01 2.34 12.89
12/4/2020 1:15:00 AM 4.14 39.452 0.038 6.88 2.33 12.89
12/4/2020 1:30:00 AM 4.12 39.416 0.038 6.93 2.29 12.89
12/4/2020 1:45:00 AM 4.11 39.398 0.038 6.95 2.34 12.89
12/4/2020 2:00:00 AM 4.1 39.38 0.038 7.01 2.3 12.9
12/4/2020 2:15:00 AM 4.1 39.38 0.038 7.01 2.26 12.9
12/4/2020 2:30:00 AM 4.09 39.362 0.038 7.02 2.32 12.9
12/4/2020 2:45:00 AM 4.09 39.362 0.038 7.01 2.28 12.9
12/4/2020 3:00:00 AM 4.08 39.344 0.038 7.02 2.3 12.91
12/4/2020 3:15:00 AM 4.08 39.344 0.038 7.02 2.32 12.91
12/4/2020 3:30:00 AM 4.08 39.344 0.038 7.01 2.29 12.9
12/4/2020 3:45:00 AM 4.09 39.362 0.038 7.02 2.28 12.9
12/4/2020 4:00:00 AM 4.09 39.362 0.038 7.02 2.29 12.9
12/4/2020 4:15:00 AM 4.1 39.38 0.038 7.02 2.27 12.9
12/4/2020 4:30:00 AM 4.1 39.38 0.038 6.86 2.26 12.89
12/4/2020 4:45:00 AM 4.1 39.38 0.038 7.01 2.26 12.89
12/4/2020 5:00:00 AM 4.11 39.398 0.038 7.01 2.32 12.89
12/4/2020 5:15:00 AM 4.11 39.398 0.038 7.01 2.26 12.88
12/4/2020 5:30:00 AM 4.1 39.38 0.038 7.02 2.29 12.89
12/4/2020 5:45:00 AM 4.1 39.38 0.038 7.02 2.3 12.89
12/4/2020 6:00:00 AM 4.1 39.38 0.038 7 2.27 12.88
12/4/2020 6:15:00 AM 4.1 39.38 0.038 7.02 2.29 12.89
12/4/2020 6:30:00 AM 4.1 39.38 0.038 7.01 2.31 12.89
12/4/2020 6:45:00 AM 4.1 39.38 0.038 7.01 2.35 12.88
12/4/2020 7:00:00 AM 4.1 39.38 0.038 7.01 2.26 12.89
12/4/2020 7:15:00 AM 4.1 39.38 0.038 7.02 2.28 12.89
12/4/2020 7:30:00 AM 4.1 39.38 0.038 7.03 2.33 12.9
12/4/2020 7:45:00 AM 4.1 39.38 0.038 7.02 2.3 12.91
12/4/2020 8:00:00 AM 4.1 39.38 0.038 7.03 2.26 12.93
12/4/2020 8:15:00 AM 4.1 39.38 0.038 7.04 2.22 12.95
12/4/2020 8:30:00 AM 4.11 39.398 0.038 7.05 2.3 12.97
12/4/2020 8:45:00 AM 4.11 39.398 0.038 7.04 2.26 12.99
12/4/2020 9:00:00 AM 4.11 39.398 0.038 7.05 2.2 12.99
12/4/2020 9:15:00 AM 4.1 39.38 0.038 7.05 2.25 13
12/4/2020 9:30:00 AM 4.1 39.38 0.038 7.05 2.27 13
12/4/2020 9:45:00 AM 4.1 39.38 0.038 7.05 2.21 13.01
12/4/2020 10:00:00 AM 4.12 39.416 0.038 7.06 2.23 13.03
12/4/2020 10:15:00 AM 4.14 39.452 0.038 7.06 2.23 13.03
12/4/2020 10:30:00 AM 4.18 39.524 0.038 7.07 2.24 13.04
12/4/2020 10:45:00 AM 4.24 39.632 0.038 6.99 2.27 13.04
12/4/2020 11:00:00 AM 4.29 39.722 0.037 7.02 2.22 13.03
12/4/2020 11:15:00 AM 4.35 39.83 0.037 7.09 2.2 13.02
12/4/2020 11:30:00 AM 4.42 39.956 0.037 7.1 2.21 13.01
12/4/2020 11:45:00 AM 4.49 40.082 0.037 7.11 2.23 12.99
12/4/2020 12:00:00 PM 4.56 40.208 0.037 7.12 2.25 12.97
12/4/2020 12:15:00 PM 4.58 40.244 0.037 7.12 2.26 12.95
12/4/2020 12:30:00 PM 4.68 40.424 0.037 7.14 2.24 12.93
12/4/2020 12:45:00 PM 4.75 40.55 0.037 6.97 2.25 12.91
12/4/2020 1:00:00 PM 4.82 40.676 0.037 7.12 2.24 12.88
12/4/2020 1:15:00 PM 4.87 40.766 0.037 6.99 2.25 12.85
12/4/2020 1:30:00 PM 4.93 40.874 0.037 7.12 2.33 12.83
12/4/2020 1:45:00 PM 4.99 40.982 0.037 7.06 2.21 12.8
12/4/2020 2:00:00 PM 5.02 41.036 0.037 7.11 2.22 12.77
12/4/2020 2:15:00 PM 5.05 41.09 0.037 6.96 2.24 12.76
12/4/2020 2:30:00 PM 5.08 41.144 0.037 7.08 2.27 12.74
12/4/2020 2:45:00 PM 5.1 41.18 0.037 7.03 2.22 12.71
12/4/2020 3:00:00 PM 5.13 41.234 0.037 7 2.32 12.68
12/4/2020 3:15:00 PM 5.15 41.27 0.037 7.08 2.26 12.65
12/4/2020 3:30:00 PM 5.19 41.342 0.037 6.94 2.27 12.62
12/4/2020 3:45:00 PM 5.24 41.432 0.037 7.07 2.25 12.61
12/4/2020 4:00:00 PM 5.28 41.504 0.037 7.06 2.25 12.57
12/4/2020 4:15:00 PM 5.31 41.558 0.037 7.05 2.28 12.54
12/4/2020 4:30:00 PM 5.32 41.576 0.037 6.97 2.3 12.51
12/4/2020 4:45:00 PM 5.32 41.576 0.037 7.03 2.28 12.49
12/4/2020 5:00:00 PM 5.32 41.576 0.037 7.03 2.29 12.46
12/4/2020 5:15:00 PM 5.32 41.576 0.037 6.89 2.32 12.44
12/4/2020 5:30:00 PM 5.31 41.558 0.037 7.01 2.31 12.44
12/4/2020 5:45:00 PM 5.29 41.522 0.037 7 2.3 12.43
12/4/2020 6:00:00 PM 5.27 41.486 0.037 7 2.28 12.43
12/4/2020 6:15:00 PM 5.25 41.45 0.037 6.99 2.36 12.43
12/4/2020 6:30:00 PM 5.22 41.396 0.037 7 2.35 12.44
12/4/2020 6:45:00 PM 5.19 41.342 0.037 6.98 2.34 12.45
12/4/2020 7:00:00 PM 5.16 41.288 0.037 7 2.34 12.45
12/4/2020 7:15:00 PM 5.14 41.252 0.037 6.85 2.29 12.46
12/4/2020 7:30:00 PM 5.11 41.198 0.037 6.99 2.34 12.48
12/4/2020 7:45:00 PM 5.08 41.144 0.037 6.99 2.31 12.48
12/4/2020 8:00:00 PM 5.06 41.108 0.037 6.98 2.34 12.49
12/4/2020 8:15:00 PM 5.03 41.054 0.037 6.99 2.31 12.5
12/4/2020 8:30:00 PM 5.02 41.036 0.038 7 2.27 12.51
12/4/2020 8:45:00 PM 5 41 0.038 6.99 2.33 12.53
12/4/2020 9:00:00 PM 4.98 40.964 0.038 6.99 2.33 12.53
12/4/2020 9:15:00 PM 4.97 40.946 0.038 6.99 2.31 12.54
12/4/2020 9:30:00 PM 4.95 40.91 0.038 6.99 2.33 12.55
12/4/2020 9:45:00 PM 4.92 40.856 0.038 6.84 2.3 12.56
12/4/2020 10:00:00 PM 4.9 40.82 0.038 6.98 2.35 12.55
12/4/2020 10:15:00 PM 4.87 40.766 0.038 6.99 2.38 12.57
12/4/2020 10:30:00 PM 4.86 40.748 0.038 6.98 2.36 12.58
12/4/2020 10:45:00 PM 4.83 40.694 0.038 6.99 2.33 12.59
12/4/2020 11:00:00 PM 4.81 40.658 0.038 7 2.29 12.59
12/4/2020 11:15:00 PM 4.79 40.622 0.038 6.99 2.26 12.59
12/4/2020 11:30:00 PM 4.77 40.586 0.038 7 2.29 12.6
12/4/2020 11:45:00 PM 4.75 40.55 0.038 7.01 2.27 12.6
12/5/2020 12:00:00 AM 4.73 40.514 0.038 7.01 2.28 12.61
12/5/2020 12:15:00 AM 4.71 40.478 0.038 6.99 2.3 12.61
12/5/2020 12:30:00 AM 4.69 40.442 0.038 6.99 2.29 12.62
12/5/2020 12:45:00 AM 4.67 40.406 0.038 6.99 2.25 12.63
12/5/2020 1:00:00 AM 4.65 40.37 0.038 6.99 2.26 12.63
12/5/2020 1:15:00 AM 4.64 40.352 0.038 6.98 2.29 12.63
12/5/2020 1:30:00 AM 4.63 40.334 0.038 6.93 2.26 12.64
12/5/2020 1:45:00 AM 4.62 40.316 0.038 6.97 2.32 12.64
12/5/2020 2:00:00 AM 4.61 40.298 0.038 6.99 2.3 12.64
12/5/2020 2:15:00 AM 4.61 40.298 0.038 6.99 2.28 12.64
12/5/2020 2:30:00 AM 4.6 40.28 0.038 6.98 2.25 12.64
12/5/2020 2:45:00 AM 4.59 40.262 0.038 6.97 2.25 12.64
12/5/2020 3:00:00 AM 4.59 40.262 0.038 6.98 2.28 12.64
12/5/2020 3:15:00 AM 4.59 40.262 0.038 6.99 2.28 12.64
12/5/2020 3:30:00 AM 4.58 40.244 0.038 6.99 2.26 12.65
12/5/2020 3:45:00 AM 4.58 40.244 0.038 6.98 2.27 12.64
12/5/2020 4:00:00 AM 4.58 40.244 0.038 7 2.27 12.65
12/5/2020 4:15:00 AM 4.58 40.244 0.038 7 2.24 12.64
12/5/2020 4:30:00 AM 4.58 40.244 0.038 7 2.23 12.64
12/5/2020 4:45:00 AM 4.58 40.244 0.038 7.01 2.26 12.64
12/5/2020 5:00:00 AM 4.58 40.244 0.038 7 2.29 12.64
12/5/2020 5:15:00 AM 4.59 40.262 0.038 7 2.24 12.64
12/5/2020 5:30:00 AM 4.59 40.262 0.038 6.99 2.25 12.64
12/5/2020 5:45:00 AM 4.6 40.28 0.038 6.99 2.25 12.64
12/5/2020 6:00:00 AM 4.6 40.28 0.038 6.99 2.28 12.64
12/5/2020 6:15:00 AM 4.61 40.298 0.038 6.99 2.25 12.64
12/5/2020 6:30:00 AM 4.61 40.298 0.038 6.99 2.26 12.64
12/5/2020 6:45:00 AM 4.62 40.316 0.038 6.99 2.26 12.65
12/5/2020 7:00:00 AM 4.62 40.316 0.038 7 2.28 12.64
12/5/2020 7:15:00 AM 4.63 40.334 0.038 6.88 2.23 12.64
12/5/2020 7:30:00 AM 4.63 40.334 0.038 7 2.24 12.65
12/5/2020 7:45:00 AM 4.64 40.352 0.038 7 2.24 12.65
12/5/2020 8:00:00 AM 4.64 40.352 0.038 7.02 2.23 12.66
12/5/2020 8:15:00 AM 4.66 40.388 0.038 7.03 2.26 12.68
12/5/2020 8:30:00 AM 4.67 40.406 0.038 7.03 2.23 12.7
12/5/2020 8:45:00 AM 4.69 40.442 0.038 7.04 2.22 12.74
12/5/2020 9:00:00 AM 4.72 40.496 0.038 7.05 2.27 12.76
12/5/2020 9:15:00 AM 4.75 40.55 0.037 7.06 2.22 12.78
12/5/2020 9:30:00 AM 4.79 40.622 0.037 7.08 2.17 12.79
12/5/2020 9:45:00 AM 4.82 40.676 0.037 6.96 2.25 12.79
12/5/2020 10:00:00 AM 4.85 40.73 0.037 7.02 2.19 12.79
12/5/2020 10:15:00 AM 4.87 40.766 0.037 7.05 2.2 12.78
12/5/2020 10:30:00 AM 4.89 40.802 0.037 7.08 2.23 12.76
12/5/2020 10:45:00 AM 4.9 40.82 0.037 6.95 2.22 12.74
12/5/2020 11:00:00 AM 4.93 40.874 0.037 7.08 2.24 12.76
12/5/2020 11:15:00 AM 4.96 40.928 0.037 7.1 2.26 12.76
12/5/2020 11:30:00 AM 4.98 40.964 0.037 7.11 2.33 12.75
12/5/2020 11:45:00 AM 4.98 40.964 0.037 6.96 2.18 12.73
12/5/2020 12:00:00 PM 5.02 41.036 0.037 7.11 2.26 12.74
12/5/2020 12:15:00 PM 5.03 41.054 0.037 7.1 2.23 12.74
12/5/2020 12:30:00 PM 5.06 41.108 0.037 7.11 2.25 12.74
12/5/2020 12:45:00 PM 5.08 41.144 0.037 7.11 2.21 12.73
12/5/2020 1:00:00 PM 5.1 41.18 0.037 7.09 2.28 12.7
12/5/2020 1:15:00 PM 5.11 41.198 0.037 7.08 2.21 12.67
12/5/2020 1:30:00 PM 5.12 41.216 0.037 7.07 2.25 12.66
12/5/2020 1:45:00 PM 5.12 41.216 0.037 7.07 2.23 12.64
12/5/2020 2:00:00 PM 5.14 41.252 0.037 7.07 2.19 12.63
12/5/2020 2:15:00 PM 5.15 41.27 0.037 7.07 2.22 12.64
12/5/2020 2:30:00 PM 5.16 41.288 0.037 7.08 2.22 12.64
12/5/2020 2:45:00 PM 5.17 41.306 0.037 7.09 2.21 12.64
12/5/2020 3:00:00 PM 5.18 41.324 0.037 7.08 2.24 12.62
12/5/2020 3:15:00 PM 5.19 41.342 0.037 7.08 2.37 12.62
12/5/2020 3:30:00 PM 5.2 41.36 0.037 7.09 2.22 12.62
12/5/2020 3:45:00 PM 5.2 41.36 0.037 7.08 2.3 12.6
12/5/2020 4:00:00 PM 5.2 41.36 0.037 7.08 2.29 12.59
12/5/2020 4:15:00 PM 5.19 41.342 0.037 7.06 2.28 12.57
12/5/2020 4:30:00 PM 5.18 41.324 0.037 7.04 2.3 12.55
12/5/2020 4:45:00 PM 5.16 41.288 0.037 7.04 2.27 12.53
12/5/2020 5:00:00 PM 5.15 41.27 0.037 6.89 2.24 12.52
12/5/2020 5:15:00 PM 5.13 41.234 0.037 7.03 2.3 12.51
12/5/2020 5:30:00 PM 5.11 41.198 0.037 7.01 2.29 12.51
12/5/2020 5:45:00 PM 5.1 41.18 0.037 6.93 2.28 12.5
12/5/2020 6:00:00 PM 5.09 41.162 0.037 7.01 2.28 12.5
12/5/2020 6:15:00 PM 5.08 41.144 0.037 6.91 2.32 12.5
12/5/2020 6:30:00 PM 5.06 41.108 0.037 7.01 2.28 12.51
12/5/2020 6:45:00 PM 5.05 41.09 0.037 7.02 2.27 12.51
12/5/2020 7:00:00 PM 5.04 41.072 0.037 7.02 2.32 12.51
12/5/2020 7:15:00 PM 5.02 41.036 0.037 7.02 2.3 12.52
12/5/2020 7:30:00 PM 5 41 0.037 6.91 2.29 12.53
12/5/2020 7:45:00 PM 4.98 40.964 0.037 7.01 2.25 12.54
12/5/2020 8:00:00 PM 4.96 40.928 0.037 7 2.3 12.54
12/5/2020 8:15:00 PM 4.94 40.892 0.037 6.88 2.29 12.56
12/5/2020 8:30:00 PM 4.92 40.856 0.037 7 2.26 12.56
12/5/2020 8:45:00 PM 4.9 40.82 0.037 7.01 2.3 12.57
12/5/2020 9:00:00 PM 4.88 40.784 0.037 6.85 2.29 12.57
12/5/2020 9:15:00 PM 4.86 40.748 0.037 7.03 2.23 12.58
12/5/2020 9:30:00 PM 4.83 40.694 0.038 7.01 2.31 12.59
12/5/2020 9:45:00 PM 4.79 40.622 0.038 7.01 2.31 12.59
12/5/2020 10:00:00 PM 4.77 40.586 0.038 7.01 2.28 12.61
12/5/2020 10:15:00 PM 4.74 40.532 0.038 7.03 2.31 12.62
12/5/2020 10:30:00 PM 4.72 40.496 0.038 7.02 2.26 12.62
12/5/2020 10:45:00 PM 4.69 40.442 0.038 7.03 2.25 12.64
12/5/2020 11:00:00 PM 4.66 40.388 0.038 7.01 2.24 12.64
12/5/2020 11:15:00 PM 4.63 40.334 0.038 7.01 2.26 12.66
12/5/2020 11:30:00 PM 4.59 40.262 0.038 7 2.28 12.66
12/5/2020 11:45:00 PM 4.56 40.208 0.038 7.01 2.26 12.68
12/6/2020 12:00:00 AM 4.53 40.154 0.038 7 2.28 12.69
12/6/2020 12:15:00 AM 4.5 40.1 0.038 7 2.22 12.69
12/6/2020 12:30:00 AM 4.47 40.046 0.038 7.01 2.25 12.7
12/6/2020 12:45:00 AM 4.45 40.01 0.038 7.01 2.28 12.71
12/6/2020 1:00:00 AM 4.42 39.956 0.038 7 2.26 12.72
12/6/2020 1:15:00 AM 4.4 39.92 0.038 7.01 2.23 12.73
12/6/2020 1:30:00 AM 4.37 39.866 0.038 6.88 2.24 12.74
12/6/2020 1:45:00 AM 4.33 39.794 0.038 7.01 2.24 12.76
12/6/2020 2:00:00 AM 4.29 39.722 0.038 7.02 2.22 12.77
12/6/2020 2:15:00 AM 4.25 39.65 0.038 6.91 2.23 12.78
12/6/2020 2:30:00 AM 4.21 39.578 0.038 6.95 2.23 12.79
12/6/2020 2:45:00 AM 4.18 39.524 0.038 7.01 2.29 12.81
12/6/2020 3:00:00 AM 4.16 39.488 0.038 6.93 2.25 12.82
12/6/2020 3:15:00 AM 4.14 39.452 0.038 7.01 2.21 12.83
12/6/2020 3:30:00 AM 4.13 39.434 0.038 6.91 2.26 12.84
12/6/2020 3:45:00 AM 4.11 39.398 0.038 7.02 2.23 12.85
12/6/2020 4:00:00 AM 4.1 39.38 0.038 7.01 2.22 12.86
12/6/2020 4:15:00 AM 4.09 39.362 0.038 7.02 2.23 12.85
12/6/2020 4:30:00 AM 4.08 39.344 0.038 7.02 2.27 12.86
12/6/2020 4:45:00 AM 4.07 39.326 0.038 6.86 2.27 12.86
12/6/2020 5:00:00 AM 4.06 39.308 0.038 7.01 2.27 12.87
12/6/2020 5:15:00 AM 4.04 39.272 0.038 7.01 2.21 12.87
12/6/2020 5:30:00 AM 4.02 39.236 0.038 7.01 2.2 12.88
12/6/2020 5:45:00 AM 4 39.2 0.038 7.02 2.21 12.89
12/6/2020 6:00:00 AM 3.98 39.164 0.038 7.02 2.27 12.9
12/6/2020 6:15:00 AM 3.96 39.128 0.038 7.01 2.24 12.91
12/6/2020 6:30:00 AM 3.94 39.092 0.038 7.03 2.2 12.91
12/6/2020 6:45:00 AM 3.91 39.038 0.038 7.03 2.23 12.92
12/6/2020 7:00:00 AM 3.89 39.002 0.038 7.03 2.21 12.93
12/6/2020 7:15:00 AM 3.87 38.966 0.038 7.05 2.24 12.94
12/6/2020 7:30:00 AM 3.85 38.93 0.038 7.03 2.22 12.95
12/6/2020 7:45:00 AM 3.82 38.876 0.038 7.05 2.19 12.97
12/6/2020 8:00:00 AM 3.79 38.822 0.038 6.89 2.22 13
12/6/2020 8:15:00 AM 3.77 38.786 0.038 7.01 2.18 13.03
12/6/2020 8:30:00 AM 3.75 38.75 0.038 7.04 2.23 13.07
12/6/2020 8:45:00 AM 3.72 38.696 0.038 7.08 2.18 13.09
12/6/2020 9:00:00 AM 3.7 38.66 0.038 7.05 2.23 13.12
12/6/2020 9:15:00 AM 3.69 38.642 0.037 7.08 2.21 13.15
12/6/2020 9:30:00 AM 3.69 38.642 0.037 7.08 2.2 13.17
12/6/2020 9:45:00 AM 3.68 38.624 0.037 7.08 2.18 13.19
12/6/2020 10:00:00 AM 3.7 38.66 0.037 7.1 2.22 13.22
12/6/2020 10:15:00 AM 3.69 38.642 0.037 6.99 2.21 13.23
12/6/2020 10:30:00 AM 3.74 38.732 0.037 7.11 2.18 13.25
12/6/2020 10:45:00 AM 3.73 38.714 0.037 7.13 2.19 13.25
12/6/2020 11:00:00 AM 3.72 38.696 0.037 7.14 2.2 13.25
12/6/2020 11:15:00 AM 3.75 38.75 0.037 7.14 2.22 13.26
12/6/2020 11:30:00 AM 3.8 38.84 0.037 7 2.18 13.25
12/6/2020 11:45:00 AM 3.87 38.966 0.037 7.17 2.15 13.24
12/6/2020 12:00:00 PM 3.88 38.984 0.037 7.13 2.18 13.21
12/6/2020 12:15:00 PM 3.93 39.074 0.037 7.15 2.17 13.21
12/6/2020 12:30:00 PM 3.96 39.128 0.037 7.16 2.17 13.18
12/6/2020 12:45:00 PM 3.95 39.11 0.037 7.09 2.2 13.16
12/6/2020 1:00:00 PM 4.05 39.29 0.037 7.15 2.19 13.15
12/6/2020 1:15:00 PM 4.03 39.254 0.037 7.14 2.22 13.13
12/6/2020 1:30:00 PM 4.04 39.272 0.037 7.15 2.22 13.13
12/6/2020 1:45:00 PM 4.01 39.218 0.037 7.13 2.2 13.12
12/6/2020 2:00:00 PM 4 39.2 0.037 7.14 2.24 13.13
12/6/2020 2:15:00 PM 3.98 39.164 0.037 7.13 2.18 13.11
12/6/2020 2:30:00 PM 3.98 39.164 0.037 7.13 2.22 13.1
12/6/2020 2:45:00 PM 3.99 39.182 0.037 7.12 2.22 13.08
12/6/2020 3:00:00 PM 4 39.2 0.037 7.11 2.16 13.07
12/6/2020 3:15:00 PM 3.98 39.164 0.037 7.11 2.2 13.07
12/6/2020 3:30:00 PM 3.96 39.128 0.037 6.96 2.17 13.06
12/6/2020 3:45:00 PM 3.93 39.074 0.037 7.12 2.21 13.06
12/6/2020 4:00:00 PM 3.91 39.038 0.037 7.1 2.25 13.04
12/6/2020 4:15:00 PM 3.89 39.002 0.037 7.09 2.23 13.02
12/6/2020 4:30:00 PM 3.87 38.966 0.037 7.1 2.23 13.01
12/6/2020 4:45:00 PM 3.85 38.93 0.037 6.94 2.21 12.99
12/6/2020 5:00:00 PM 3.84 38.912 0.037 7.08 2.21 12.97
12/6/2020 5:15:00 PM 3.82 38.876 0.037 7.05 2.26 12.96
12/6/2020 5:30:00 PM 3.79 38.822 0.037 7.07 2.26 12.96
12/6/2020 5:45:00 PM 3.77 38.786 0.037 7.05 2.22 12.96
12/6/2020 6:00:00 PM 3.75 38.75 0.037 7.03 2.28 12.96
12/6/2020 6:15:00 PM 3.73 38.714 0.037 7.05 2.23 12.97
12/6/2020 6:30:00 PM 3.71 38.678 0.037 7.04 2.22 12.97
12/6/2020 6:45:00 PM 3.68 38.624 0.037 7.04 2.18 12.98
12/6/2020 7:00:00 PM 3.66 38.588 0.037 7.05 2.21 12.99
12/6/2020 7:15:00 PM 3.63 38.534 0.037 6.98 2.25 13
12/6/2020 7:30:00 PM 3.6 38.48 0.037 6.95 2.2 13.02
12/6/2020 7:45:00 PM 3.56 38.408 0.037 7 2.23 13.03
12/6/2020 8:00:00 PM 3.53 38.354 0.037 7.02 2.26 13.05
12/6/2020 8:15:00 PM 3.51 38.318 0.037 7.03 2.24 13.06
12/6/2020 8:30:00 PM 3.48 38.264 0.037 7.04 2.23 13.07
12/6/2020 8:45:00 PM 3.44 38.192 0.037 7.01 2.24 13.09
12/6/2020 9:00:00 PM 3.41 38.138 0.037 6.96 2.28 13.1
12/6/2020 9:15:00 PM 3.38 38.084 0.038 7.05 2.21 13.11
12/6/2020 9:30:00 PM 3.34 38.012 0.038 7.05 2.2 13.13
12/6/2020 9:45:00 PM 3.31 37.958 0.038 7.05 2.23 13.13
12/6/2020 10:00:00 PM 3.27 37.886 0.038 7.05 2.22 13.15
12/6/2020 10:15:00 PM 3.24 37.832 0.038 7.06 2.21 13.16
12/6/2020 10:30:00 PM 3.2 37.76 0.038 7.06 2.23 13.17
12/6/2020 10:45:00 PM 3.16 37.688 0.038 6.94 2.18 13.18
12/6/2020 11:00:00 PM 3.13 37.634 0.038 7.06 2.22 13.19
12/6/2020 11:15:00 PM 3.11 37.598 0.038 7.04 2.16 13.21
12/6/2020 11:30:00 PM 3.08 37.544 0.038 7.05 2.21 13.22
12/6/2020 11:45:00 PM 3.06 37.508 0.038 7.06 2.17 13.23
12/7/2020 12:00:00 AM 3.03 37.454 0.038 6.9 2.19 13.24
12/7/2020 12:15:00 AM 3 37.4 0.038 7.02 2.25 13.25
12/7/2020 12:30:00 AM 2.97 37.346 0.038 7.04 2.21 13.25
12/7/2020 12:45:00 AM 2.95 37.31 0.038 6.91 2.23 13.26
12/7/2020 1:00:00 AM 2.92 37.256 0.038 7.04 2.17 13.27
12/7/2020 1:15:00 AM 2.91 37.238 0.038 7.05 2.19 13.28
12/7/2020 1:30:00 AM 2.9 37.22 0.038 7.04 2.17 13.29
12/7/2020 1:45:00 AM 2.88 37.184 0.038 7.06 2.21 13.29
12/7/2020 2:00:00 AM 2.87 37.166 0.038 7.05 2.2 13.29
12/7/2020 2:15:00 AM 2.86 37.148 0.038 7.05 2.18 13.3
12/7/2020 2:30:00 AM 2.85 37.13 0.038 7.04 2.17 13.3
12/7/2020 2:45:00 AM 2.83 37.094 0.038 7.05 2.18 13.3
12/7/2020 3:00:00 AM 2.82 37.076 0.038 7.05 2.15 13.3
12/7/2020 3:15:00 AM 2.81 37.058 0.038 7.07 2.15 13.31
12/7/2020 3:30:00 AM 2.8 37.04 0.038 7.06 2.16 13.31
12/7/2020 3:45:00 AM 2.79 37.022 0.038 7.06 2.17 13.32
12/7/2020 4:00:00 AM 2.79 37.022 0.038 7.05 2.14 13.31
12/7/2020 4:15:00 AM 2.78 37.004 0.038 7.06 2.17 13.32
12/7/2020 4:30:00 AM 2.77 36.986 0.038 7.05 2.2 13.32
12/7/2020 4:45:00 AM 2.76 36.968 0.038 7.06 2.15 13.32
12/7/2020 5:00:00 AM 2.76 36.968 0.038 7.06 2.14 13.33
12/7/2020 5:15:00 AM 2.76 36.968 0.038 7.05 2.18 13.33
12/7/2020 5:30:00 AM 2.76 36.968 0.038 7.04 2.12 13.32
12/7/2020 5:45:00 AM 2.75 36.95 0.038 7.05 2.18 13.33
12/7/2020 6:00:00 AM 2.75 36.95 0.038 7.04 2.2 13.32
12/7/2020 6:15:00 AM 2.73 36.914 0.038 7.03 2.2 13.32
12/7/2020 6:30:00 AM 2.72 36.896 0.038 6.9 2.16 13.33
12/7/2020 6:45:00 AM 2.71 36.878 0.038 7.01 2.21 13.34
12/7/2020 7:00:00 AM 2.71 36.878 0.038 7.05 2.17 13.33
12/7/2020 7:15:00 AM 2.7 36.86 0.038 7.05 2.17 13.34
12/7/2020 7:30:00 AM 2.7 36.86 0.038 7.05 2.15 13.34
12/7/2020 7:45:00 AM 2.7 36.86 0.038 7.05 2.18 13.37
12/7/2020 8:00:00 AM 2.71 36.878 0.038 7.07 2.14 13.41
12/7/2020 8:15:00 AM 2.71 36.878 0.038 6.93 2.17 13.44
12/7/2020 8:30:00 AM 2.72 36.896 0.038 7.08 2.16 13.45
12/7/2020 8:45:00 AM 2.73 36.914 0.038 7.1 2.13 13.47
12/7/2020 9:00:00 AM 2.74 36.932 0.038 7.05 2.15 13.49
12/7/2020 9:15:00 AM 2.76 36.968 0.038 7.03 2.14 13.5
12/7/2020 9:30:00 AM 2.79 37.022 0.037 7.11 2.21 13.52
12/7/2020 9:45:00 AM 2.82 37.076 0.037 7.12 2.16 13.53
12/7/2020 10:00:00 AM 2.86 37.148 0.037 7.12 2.12 13.54
12/7/2020 10:15:00 AM 2.9 37.22 0.037 7.13 2.15 13.53
12/7/2020 10:30:00 AM 2.93 37.274 0.037 7.14 2.19 13.53
12/7/2020 10:45:00 AM 2.96 37.328 0.037 7.15 2.18 13.53
12/7/2020 11:00:00 AM 3 37.4 0.037 7.14 2.11 13.52
12/7/2020 11:15:00 AM 3.05 37.49 0.037 7.14 2.16 13.51
12/7/2020 11:30:00 AM 3.08 37.544 0.037 7.16 2.13 13.49
12/7/2020 11:45:00 AM 3.09 37.562 0.037 7.07 2.15 13.47
12/7/2020 12:00:00 PM 3.13 37.634 0.037 7.15 2.17 13.45
12/7/2020 12:15:00 PM 3.15 37.67 0.037 7.15 2.13 13.44
12/7/2020 12:30:00 PM 3.19 37.742 0.037 7.15 2.16 13.42
12/7/2020 12:45:00 PM 3.22 37.796 0.037 7.15 2.11 13.41
12/7/2020 1:00:00 PM 3.29 37.922 0.037 7.14 2.14 13.4
12/7/2020 1:15:00 PM 3.35 38.03 0.037 7.15 2.19 13.38
12/7/2020 1:30:00 PM 3.4 38.12 0.037 7.16 2.17 13.37
12/7/2020 1:45:00 PM 3.42 38.156 0.037 7.16 2.14 13.34
12/7/2020 2:00:00 PM 3.44 38.192 0.037 7.15 2.13 13.32
12/7/2020 2:15:00 PM 3.46 38.228 0.037 7.15 2.16 13.3
12/7/2020 2:30:00 PM 3.48 38.264 0.037 7.14 2.13 13.28
12/7/2020 2:45:00 PM 3.51 38.318 0.037 7.15 2.16 13.26
12/7/2020 3:00:00 PM 3.52 38.336 0.037 7.14 2.17 13.24
12/7/2020 3:15:00 PM 3.52 38.336 0.037 7.07 2.13 13.24
12/7/2020 3:30:00 PM 3.54 38.372 0.037 7.12 2.15 13.22
12/7/2020 3:45:00 PM 3.53 38.354 0.037 7.06 2.1 13.21
12/7/2020 4:00:00 PM 3.53 38.354 0.037 7.15 2.17 13.19
12/7/2020 4:15:00 PM 3.53 38.354 0.037 6.97 2.22 13.16
12/7/2020 4:30:00 PM 3.53 38.354 0.037 7.04 2.19 13.12
12/7/2020 4:45:00 PM 3.52 38.336 0.037 7.05 2.18 13.09
12/7/2020 5:00:00 PM 3.51 38.318 0.037 7.05 2.19 13.07
12/7/2020 5:15:00 PM 3.5 38.3 0.037 7.06 2.18 13.06
12/7/2020 5:30:00 PM 3.49 38.282 0.037 6.95 2.19 13.05
12/7/2020 5:45:00 PM 3.47 38.246 0.037 7.05 2.19 13.04
12/7/2020 6:00:00 PM 3.46 38.228 0.037 7.04 2.2 13.04
12/7/2020 6:15:00 PM 3.45 38.21 0.037 7.04 2.2 13.03
12/7/2020 6:30:00 PM 3.45 38.21 0.037 7.03 2.18 13.03
12/7/2020 6:45:00 PM 3.45 38.21 0.037 6.9 2.21 13.03
12/7/2020 7:00:00 PM 3.43 38.174 0.037 6.97 2.16 13.03
12/7/2020 7:15:00 PM 3.42 38.156 0.037 7.03 2.21 13.04
12/7/2020 7:30:00 PM 3.42 38.156 0.037 7 2.2 13.03
12/7/2020 7:45:00 PM 3.4 38.12 0.037 7.03 2.25 13.04
12/7/2020 8:00:00 PM 3.38 38.084 0.037 7.04 2.2 13.05
12/7/2020 8:15:00 PM 3.34 38.012 0.037 7.03 2.18 13.06
12/7/2020 8:30:00 PM 3.31 37.958 0.037 6.9 2.16 13.08
12/7/2020 8:45:00 PM 3.28 37.904 0.037 7.03 2.2 13.09
12/7/2020 9:00:00 PM 3.24 37.832 0.037 7.04 2.16 13.1
12/7/2020 9:15:00 PM 3.21 37.778 0.037 7.05 2.18 13.11
12/7/2020 9:30:00 PM 3.17 37.706 0.037 6.98 2.2 13.12
12/7/2020 9:45:00 PM 3.13 37.634 0.038 7.03 2.2 13.14
12/7/2020 10:00:00 PM 3.08 37.544 0.038 7.03 2.19 13.15
12/7/2020 10:15:00 PM 3.04 37.472 0.038 7.01 2.15 13.18
12/7/2020 10:30:00 PM 3.01 37.418 0.038 7.02 2.17 13.2
12/7/2020 10:45:00 PM 2.98 37.364 0.038 7.02 2.17 13.21
12/7/2020 11:00:00 PM 2.96 37.328 0.038 7.03 2.25 13.22
12/7/2020 11:15:00 PM 2.94 37.292 0.038 7.02 2.19 13.22
12/7/2020 11:30:00 PM 2.92 37.256 0.038 7.03 2.22 13.23
12/7/2020 11:45:00 PM 2.9 37.22 0.038 7.04 2.2 13.24
12/8/2020 12:00:00 AM 2.88 37.184 0.038 6.99 2.2 13.25
12/8/2020 12:15:00 AM 2.88 37.184 0.038 7.05 2.22 13.26
12/8/2020 12:30:00 AM 2.87 37.166 0.038 7.06 2.15 13.26
12/8/2020 12:45:00 AM 2.86 37.148 0.038 7.02 2.2 13.26
12/8/2020 1:00:00 AM 2.85 37.13 0.038 6.9 2.17 13.27
12/8/2020 1:15:00 AM 2.84 37.112 0.038 7.05 2.14 13.26
12/8/2020 1:30:00 AM 2.83 37.094 0.038 6.9 2.18 13.27
12/8/2020 1:45:00 AM 2.81 37.058 0.038 7.04 2.16 13.27
12/8/2020 2:00:00 AM 2.78 37.004 0.038 7.04 2.18 13.29
12/8/2020 2:15:00 AM 2.76 36.968 0.038 7.03 2.17 13.3
12/8/2020 2:30:00 AM 2.73 36.914 0.038 7.04 2.21 13.31
12/8/2020 2:45:00 AM 2.7 36.86 0.038 7.04 2.18 13.31
12/8/2020 3:00:00 AM 2.67 36.806 0.038 6.9 2.15 13.33
12/8/2020 3:15:00 AM 2.64 36.752 0.038 7.03 2.18 13.34
12/8/2020 3:30:00 AM 2.6 36.68 0.038 7.04 2.21 13.35
12/8/2020 3:45:00 AM 2.57 36.626 0.038 7.03 2.16 13.36
12/8/2020 4:00:00 AM 2.55 36.59 0.038 7.04 2.16 13.37
12/8/2020 4:15:00 AM 2.53 36.554 0.038 6.89 2.12 13.38
12/8/2020 4:30:00 AM 2.5 36.5 0.038 6.98 2.15 13.39
12/8/2020 4:45:00 AM 2.47 36.446 0.038 7.03 2.18 13.4
12/8/2020 5:00:00 AM 2.44 36.392 0.038 7.02 2.19 13.42
12/8/2020 5:15:00 AM 2.41 36.338 0.038 7.05 2.14 13.43
12/8/2020 5:30:00 AM 2.39 36.302 0.038 7.05 2.16 13.44
12/8/2020 5:45:00 AM 2.36 36.248 0.038 7.02 2.2 13.44
12/8/2020 6:00:00 AM 2.33 36.194 0.038 7.02 2.15 13.46
12/8/2020 6:15:00 AM 2.3 36.14 0.038 7.05 2.18 13.47
12/8/2020 6:30:00 AM 2.26 36.068 0.038 7.03 2.14 13.49
12/8/2020 6:45:00 AM 2.23 36.014 0.038 7.02 2.17 13.5
12/8/2020 7:00:00 AM 2.19 35.942 0.038 7.03 2.17 13.52
12/8/2020 7:15:00 AM 2.16 35.888 0.038 7.03 2.18 13.53
12/8/2020 7:30:00 AM 2.12 35.816 0.038 7.03 2.21 13.55
12/8/2020 7:45:00 AM 2.09 35.762 0.038 6.96 2.17 13.58
12/8/2020 8:00:00 AM 2.06 35.708 0.038 7.04 2.17 13.61
12/8/2020 8:15:00 AM 2.03 35.654 0.038 7.04 2.17 13.65
12/8/2020 8:30:00 AM 1.99 35.582 0.038 7.04 2.14 13.68
12/8/2020 8:45:00 AM 1.96 35.528 0.038 7.04 2.13 13.71
12/8/2020 9:00:00 AM 1.94 35.492 0.038 7.04 2.14 13.74
12/8/2020 9:15:00 AM 1.91 35.438 0.038 7.05 2.17 13.77
12/8/2020 9:30:00 AM 1.89 35.402 0.038 6.91 2.16 13.79
12/8/2020 9:45:00 AM 1.87 35.366 0.038 7.07 2.11 13.82
12/8/2020 10:00:00 AM 1.88 35.384 0.038 6.93 2.13 13.84
12/8/2020 10:15:00 AM 1.9 35.42 0.038 7.02 2.14 13.85
12/8/2020 10:30:00 AM 1.92 35.456 0.038 7.09 2.16 13.87
12/8/2020 10:45:00 AM 1.95 35.51 0.038 7.09 2.12 13.87
12/8/2020 11:00:00 AM 2.01 35.618 0.038 7.1 2.14 13.87
12/8/2020 11:15:00 AM 2.07 35.726 0.037 7.11 2.16 13.87
12/8/2020 11:30:00 AM 2.12 35.816 0.037 6.98 2.12 13.86
12/8/2020 11:45:00 AM 2.19 35.942 0.037 7.12 2.14 13.84
12/8/2020 12:00:00 PM 2.26 36.068 0.037 7.13 2.12 13.83
12/8/2020 12:15:00 PM 2.32 36.176 0.037 7.14 2.1 13.81
12/8/2020 12:30:00 PM 2.4 36.32 0.037 7.12 2.19 13.77
12/8/2020 12:45:00 PM 2.5 36.5 0.037 7.13 2.16 13.74
12/8/2020 1:00:00 PM 2.56 36.608 0.037 7.14 2.12 13.71
12/8/2020 1:15:00 PM 2.61 36.698 0.037 7.16 2.09 13.67
12/8/2020 1:30:00 PM 2.66 36.788 0.037 7.11 2.13 13.65
12/8/2020 1:45:00 PM 2.71 36.878 0.037 7.14 2.11 13.62
12/8/2020 2:00:00 PM 2.76 36.968 0.037 7.01 2.1 13.59
12/8/2020 2:15:00 PM 2.78 37.004 0.037 7.07 2.12 13.57
12/8/2020 2:30:00 PM 2.8 37.04 0.037 7.12 2.1 13.54
12/8/2020 2:45:00 PM 2.8 37.04 0.037 7.11 2.16 13.53
12/8/2020 3:00:00 PM 2.79 37.022 0.037 6.94 2.14 13.51
12/8/2020 3:15:00 PM 2.78 37.004 0.037 7.11 2.11 13.49
12/8/2020 3:30:00 PM 2.77 36.986 0.037 7.01 2.14 13.49
12/8/2020 3:45:00 PM 2.76 36.968 0.037 7.09 2.11 13.48
12/8/2020 4:00:00 PM 2.76 36.968 0.037 7.08 2.13 13.46
12/8/2020 4:15:00 PM 2.75 36.95 0.037 7.08 2.11 13.45
12/8/2020 4:30:00 PM 2.75 36.95 0.037 7.07 2.14 13.42
12/8/2020 4:45:00 PM 2.75 36.95 0.037 7.05 2.13 13.41
12/8/2020 5:00:00 PM 2.75 36.95 0.037 7.05 2.15 13.39
12/8/2020 5:15:00 PM 2.74 36.932 0.037 7.05 2.18 13.37
12/8/2020 5:30:00 PM 2.73 36.914 0.037 7.03 2.14 13.36
12/8/2020 5:45:00 PM 2.72 36.896 0.037 7.03 2.14 13.35
12/8/2020 6:00:00 PM 2.71 36.878 0.037 7.02 2.18 13.35
12/8/2020 6:15:00 PM 2.71 36.878 0.037 7.02 2.19 13.35
12/8/2020 6:30:00 PM 2.7 36.86 0.037 7.01 2.14 13.34
12/8/2020 6:45:00 PM 2.7 36.86 0.037 7.02 2.15 13.34
12/8/2020 7:00:00 PM 2.7 36.86 0.037 7.02 2.15 13.34
12/8/2020 7:15:00 PM 2.69 36.842 0.037 7.02 2.16 13.35
12/8/2020 7:30:00 PM 2.69 36.842 0.037 7.01 2.15 13.34
12/8/2020 7:45:00 PM 2.69 36.842 0.037 7.02 2.18 13.34
12/8/2020 8:00:00 PM 2.7 36.86 0.037 7.04 2.13 13.35
12/8/2020 8:15:00 PM 2.7 36.86 0.037 7.01 2.16 13.35
12/8/2020 8:30:00 PM 2.7 36.86 0.037 7.03 2.16 13.35
12/8/2020 8:45:00 PM 2.7 36.86 0.037 7.02 2.15 13.36
12/8/2020 9:00:00 PM 2.69 36.842 0.037 7.01 2.14 13.36
12/8/2020 9:15:00 PM 2.68 36.824 0.038 7.02 2.2 13.37
12/8/2020 9:30:00 PM 2.67 36.806 0.038 7.02 2.17 13.37
12/8/2020 9:45:00 PM 2.66 36.788 0.038 6.86 2.13 13.38
12/8/2020 10:00:00 PM 2.66 36.788 0.038 7.02 2.13 13.38
12/8/2020 10:15:00 PM 2.65 36.77 0.038 7.01 2.17 13.38
12/8/2020 10:30:00 PM 2.65 36.77 0.038 7.02 2.15 13.38
12/8/2020 10:45:00 PM 2.65 36.77 0.038 7.02 2.2 13.39
12/8/2020 11:00:00 PM 2.65 36.77 0.038 7.04 2.16 13.39
12/8/2020 11:15:00 PM 2.64 36.752 0.038 7.04 2.15 13.4
12/8/2020 11:30:00 PM 2.63 36.734 0.038 6.96 2.11 13.39
12/8/2020 11:45:00 PM 2.63 36.734 0.038 7.04 2.14 13.39
12/9/2020 12:00:00 AM 2.63 36.734 0.038 7.03 2.14 13.4
12/9/2020 12:15:00 AM 2.64 36.752 0.038 7.04 2.13 13.39
12/9/2020 12:30:00 AM 2.64 36.752 0.038 6.93 2.14 13.39
12/9/2020 12:45:00 AM 2.64 36.752 0.038 7.03 2.14 13.38
12/9/2020 1:00:00 AM 2.65 36.77 0.038 7.03 2.13 13.38
12/9/2020 1:15:00 AM 2.65 36.77 0.038 7.02 2.19 13.38
12/9/2020 1:30:00 AM 2.65 36.77 0.038 7.04 2.1 13.37
12/9/2020 1:45:00 AM 2.65 36.77 0.038 7.04 2.14 13.37
12/9/2020 2:00:00 AM 2.65 36.77 0.038 7.03 2.11 13.37
12/9/2020 2:15:00 AM 2.66 36.788 0.038 7.03 2.17 13.36
12/9/2020 2:30:00 AM 2.66 36.788 0.038 6.89 2.14 13.35
12/9/2020 2:45:00 AM 2.66 36.788 0.038 6.97 2.16 13.35
12/9/2020 3:00:00 AM 2.67 36.806 0.038 7.04 2.13 13.35
12/9/2020 3:15:00 AM 2.67 36.806 0.038 6.92 2.16 13.34
12/9/2020 3:30:00 AM 2.68 36.824 0.038 7.04 2.14 13.34
12/9/2020 3:45:00 AM 2.68 36.824 0.038 7.05 2.15 13.34
12/9/2020 4:00:00 AM 2.68 36.824 0.038 6.94 2.14 13.34
12/9/2020 4:15:00 AM 2.69 36.842 0.038 7.03 2.15 13.33
12/9/2020 4:30:00 AM 2.69 36.842 0.038 6.93 2.13 13.33
12/9/2020 4:45:00 AM 2.69 36.842 0.038 7.03 2.16 13.33
12/9/2020 5:00:00 AM 2.69 36.842 0.038 7.02 2.15 13.33
12/9/2020 5:15:00 AM 2.69 36.842 0.038 7.02 2.12 13.32
12/9/2020 5:30:00 AM 2.7 36.86 0.038 7.02 2.13 13.32
12/9/2020 5:45:00 AM 2.7 36.86 0.038 7.03 2.26 13.32
12/9/2020 6:00:00 AM 2.71 36.878 0.038 7.04 2.1 13.31
12/9/2020 6:15:00 AM 2.71 36.878 0.038 7.03 2.13 13.31
12/9/2020 6:30:00 AM 2.72 36.896 0.038 7.03 2.13 13.31
12/9/2020 6:45:00 AM 2.72 36.896 0.038 6.92 2.14 13.31
12/9/2020 7:00:00 AM 2.72 36.896 0.038 7.05 2.11 13.31
12/9/2020 7:15:00 AM 2.73 36.914 0.038 7.04 2.15 13.31
12/9/2020 7:30:00 AM 2.73 36.914 0.038 7.05 2.15 13.31
12/9/2020 7:45:00 AM 2.72 36.896 0.038 7.04 2.1 13.31
12/9/2020 8:00:00 AM 2.72 36.896 0.038 7.05 2.13 13.32
12/9/2020 8:15:00 AM 2.72 36.896 0.038 7.03 2.14 13.34
12/9/2020 8:30:00 AM 2.73 36.914 0.038 6.91 2.11 13.34
12/9/2020 8:45:00 AM 2.74 36.932 0.038 7.04 2.14 13.36
12/9/2020 9:00:00 AM 2.74 36.932 0.038 7.04 2.12 13.36
12/9/2020 9:15:00 AM 2.75 36.95 0.038 7.05 2.16 13.37
12/9/2020 9:30:00 AM 2.75 36.95 0.038 7.06 2.13 13.39
12/9/2020 9:45:00 AM 2.77 36.986 0.038 7.06 2.12 13.42
12/9/2020 10:00:00 AM 2.79 37.022 0.038 7.08 2.09 13.44
12/9/2020 10:15:00 AM 2.81 37.058 0.038 6.98 2.09 13.46
12/9/2020 10:30:00 AM 2.83 37.094 0.038 7.09 2.13 13.45
12/9/2020 10:45:00 AM 2.84 37.112 0.038 7.09 2.1 13.47
12/9/2020 11:00:00 AM 2.86 37.148 0.038 7.09 2.07 13.46
12/9/2020 11:15:00 AM 2.88 37.184 0.037 7.1 2.08 13.46
12/9/2020 11:30:00 AM 2.9 37.22 0.037 7.02 2.09 13.45
12/9/2020 11:45:00 AM 2.92 37.256 0.037 7.11 2.1 13.44
12/9/2020 12:00:00 PM 2.94 37.292 0.037 7.1 2.08 13.42
12/9/2020 12:15:00 PM 2.96 37.328 0.037 7.04 2.13 13.42
12/9/2020 12:30:00 PM 2.99 37.382 0.037 7.1 2.08 13.41
12/9/2020 12:45:00 PM 3 37.4 0.037 7.1 2.13 13.4
12/9/2020 1:00:00 PM 3.02 37.436 0.037 7.1 2.1 13.39
12/9/2020 1:15:00 PM 3.04 37.472 0.037 7.1 2.08 13.37
12/9/2020 1:30:00 PM 3.05 37.49 0.037 7.1 2.09 13.36
12/9/2020 1:45:00 PM 3.07 37.526 0.037 7.09 2.08 13.34
12/9/2020 2:00:00 PM 3.08 37.544 0.037 7.08 2.12 13.32
12/9/2020 2:15:00 PM 3.1 37.58 0.037 7.08 2.09 13.31
12/9/2020 2:30:00 PM 3.11 37.598 0.037 7.07 2.08 13.28
12/9/2020 2:45:00 PM 3.12 37.616 0.037 7.06 2.12 13.26
12/9/2020 3:00:00 PM 3.13 37.634 0.037 7.06 2.11 13.25
12/9/2020 3:15:00 PM 3.15 37.67 0.037 7.04 2.15 13.23
12/9/2020 3:30:00 PM 3.16 37.688 0.037 7.06 2.08 13.23
12/9/2020 3:45:00 PM 3.17 37.706 0.037 6.94 2.14 13.21
12/9/2020 4:00:00 PM 3.18 37.724 0.037 7.05 2.13 13.2
12/9/2020 4:15:00 PM 3.2 37.76 0.037 7.03 2.13 13.19
12/9/2020 4:30:00 PM 3.21 37.778 0.037 7.03 2.15 13.16
12/9/2020 4:45:00 PM 3.23 37.814 0.037 7.03 2.16 13.15
12/9/2020 5:00:00 PM 3.24 37.832 0.037 7.03 2.12 13.14
12/9/2020 5:15:00 PM 3.26 37.868 0.037 7.04 2.18 13.13
12/9/2020 5:30:00 PM 3.27 37.886 0.037 6.96 2.12 13.12
12/9/2020 5:45:00 PM 3.29 37.922 0.037 7.03 2.23 13.12
12/9/2020 6:00:00 PM 3.3 37.94 0.037 7.02 2.15 13.1
12/9/2020 6:15:00 PM 3.31 37.958 0.037 7.02 2.14 13.1
12/9/2020 6:30:00 PM 3.32 37.976 0.037 7.02 2.17 13.1
12/9/2020 6:45:00 PM 3.33 37.994 0.037 7.01 2.12 13.09
12/9/2020 7:00:00 PM 3.34 38.012 0.037 7.01 2.17 13.09
12/9/2020 7:15:00 PM 3.35 38.03 0.038 7 2.16 13.09
12/9/2020 7:30:00 PM 3.36 38.048 0.038 7.02 2.19 13.09
12/9/2020 7:45:00 PM 3.37 38.066 0.038 7.02 2.15 13.08
12/9/2020 8:00:00 PM 3.38 38.084 0.038 7.01 2.14 13.09
12/9/2020 8:15:00 PM 3.39 38.102 0.038 7.01 2.11 13.08
12/9/2020 8:30:00 PM 3.4 38.12 0.038 7.01 2.14 13.08
12/9/2020 8:45:00 PM 3.42 38.156 0.038 7.02 2.18 13.08
12/9/2020 9:00:00 PM 3.42 38.156 0.038 7.01 2.12 13.08
12/9/2020 9:15:00 PM 3.43 38.174 0.038 7.01 2.2 13.07
12/9/2020 9:30:00 PM 3.44 38.192 0.038 7 2.18 13.07
12/9/2020 9:45:00 PM 3.45 38.21 0.038 7.01 2.16 13.07
12/9/2020 10:00:00 PM 3.46 38.228 0.038 7.02 2.17 13.07
12/9/2020 10:15:00 PM 3.47 38.246 0.038 7.01 2.16 13.07
12/9/2020 10:30:00 PM 3.48 38.264 0.038 6.98 2.17 13.06
12/9/2020 10:45:00 PM 3.49 38.282 0.038 7.01 2.17 13.06
12/9/2020 11:00:00 PM 3.5 38.3 0.038 7.01 2.14 13.06
12/9/2020 11:15:00 PM 3.52 38.336 0.038 7.02 2.13 13.06
12/9/2020 11:30:00 PM 3.52 38.336 0.038 7.02 2.13 13.05
12/9/2020 11:45:00 PM 3.53 38.354 0.038 7.02 2.23 13.05
12/10/2020 12:00:00 AM 3.54 38.372 0.038 7.03 2.18 13.05
12/10/2020 12:15:00 AM 3.55 38.39 0.038 7.02 2.15 13.05
12/10/2020 12:30:00 AM 3.55 38.39 0.038 7.02 2.14 13.05
12/10/2020 12:45:00 AM 3.56 38.408 0.038 7.03 2.12 13.04
12/10/2020 1:00:00 AM 3.57 38.426 0.038 7 2.13 13.05
12/10/2020 1:15:00 AM 3.58 38.444 0.038 7.01 2.12 13.04
12/10/2020 1:30:00 AM 3.59 38.462 0.038 7 2.15 13.04
12/10/2020 1:45:00 AM 3.59 38.462 0.038 7 2.13 13.05
12/10/2020 2:00:00 AM 3.6 38.48 0.038 7.01 2.14 13.04
12/10/2020 2:15:00 AM 3.6 38.48 0.038 7.01 2.15 13.04
12/10/2020 2:30:00 AM 3.6 38.48 0.038 7.01 2.13 13.04
12/10/2020 2:45:00 AM 3.6 38.48 0.038 7.01 2.15 13.05
12/10/2020 3:00:00 AM 3.61 38.498 0.038 7 2.11 13.05
12/10/2020 3:15:00 AM 3.6 38.48 0.038 7.01 2.19 13.05
12/10/2020 3:30:00 AM 3.6 38.48 0.038 6.89 2.15 13.05
12/10/2020 3:45:00 AM 3.61 38.498 0.038 7.01 2.15 13.05
12/10/2020 4:00:00 AM 3.61 38.498 0.038 7.02 2.17 13.05
12/10/2020 4:15:00 AM 3.61 38.498 0.038 7 2.11 13.05
12/10/2020 4:30:00 AM 3.6 38.48 0.038 7.02 2.14 13.06
12/10/2020 4:45:00 AM 3.6 38.48 0.038 7.03 2.09 13.06
12/10/2020 5:00:00 AM 3.6 38.48 0.038 7.02 2.14 13.07
12/10/2020 5:15:00 AM 3.59 38.462 0.038 6.97 2.16 13.07
12/10/2020 5:30:00 AM 3.59 38.462 0.038 7.01 2.11 13.07
12/10/2020 5:45:00 AM 3.59 38.462 0.038 7.02 2.14 13.08
12/10/2020 6:00:00 AM 3.59 38.462 0.038 7.03 2.14 13.08
12/10/2020 6:15:00 AM 3.6 38.48 0.038 7.02 2.14 13.08
12/10/2020 6:30:00 AM 3.6 38.48 0.038 6.93 2.21 13.08
12/10/2020 6:45:00 AM 3.6 38.48 0.038 7.02 2.14 13.08
12/10/2020 7:00:00 AM 3.6 38.48 0.038 7.01 2.14 13.09
12/10/2020 7:15:00 AM 3.6 38.48 0.038 7.01 2.12 13.09
12/10/2020 7:30:00 AM 3.61 38.498 0.038 6.98 2.15 13.09
12/10/2020 7:45:00 AM 3.61 38.498 0.038 7.02 2.1 13.1
12/10/2020 8:00:00 AM 3.62 38.516 0.038 7.02 2.08 13.12
12/10/2020 8:15:00 AM 3.62 38.516 0.038 7.02 2.1 13.15
12/10/2020 8:30:00 AM 3.64 38.552 0.038 7.03 2.09 13.17
12/10/2020 8:45:00 AM 3.65 38.57 0.038 7.04 2.1 13.21
12/10/2020 9:00:00 AM 3.67 38.606 0.038 6.94 2.11 13.23
12/10/2020 9:15:00 AM 3.7 38.66 0.038 7.07 2.13 13.26
12/10/2020 9:30:00 AM 3.73 38.714 0.038 7.09 2.1 13.28
12/10/2020 9:45:00 AM 3.77 38.786 0.038 7.09 2.1 13.3
12/10/2020 10:00:00 AM 3.81 38.858 0.038 7.09 2.11 13.29
12/10/2020 10:15:00 AM 3.86 38.948 0.038 7.11 2.11 13.31
12/10/2020 10:30:00 AM 3.9 39.02 0.037 7.11 2.11 13.31
12/10/2020 10:45:00 AM 3.95 39.11 0.037 7.12 2.09 13.31
12/10/2020 11:00:00 AM 4 39.2 0.037 7.13 2.1 13.31
12/10/2020 11:15:00 AM 4.06 39.308 0.037 7.14 2.11 13.29
12/10/2020 11:30:00 AM 4.11 39.398 0.037 7.16 2.13 13.28
12/10/2020 11:45:00 AM 4.16 39.488 0.037 7.16 2.12 13.27
12/10/2020 12:00:00 PM 4.21 39.578 0.037 7.16 2.14 13.25
12/10/2020 12:15:00 PM 4.27 39.686 0.037 7.17 2.09 13.24
12/10/2020 12:30:00 PM 4.32 39.776 0.037 7.17 2.09 13.22
12/10/2020 12:45:00 PM 4.39 39.902 0.037 7.16 2.08 13.2
12/10/2020 1:00:00 PM 4.44 39.992 0.037 7.16 2.18 13.18
12/10/2020 1:15:00 PM 4.49 40.082 0.037 7.16 2.12 13.16
12/10/2020 1:30:00 PM 4.54 40.172 0.037 7.16 2.13 13.14
12/10/2020 1:45:00 PM 4.58 40.244 0.037 7.06 2.15 13.12
12/10/2020 2:00:00 PM 4.63 40.334 0.037 7.16 2.13 13.1
12/10/2020 2:15:00 PM 4.65 40.37 0.037 7.16 2.12 13.06
12/10/2020 2:30:00 PM 4.67 40.406 0.037 7.15 2.14 13.04
12/10/2020 2:45:00 PM 4.67 40.406 0.037 7.14 2.13 13.01
12/10/2020 3:00:00 PM 4.66 40.388 0.037 7.12 2.14 12.99
12/10/2020 3:15:00 PM 4.65 40.37 0.037 7.11 2.16 12.97
12/10/2020 3:30:00 PM 4.63 40.334 0.037 7.1 2.11 12.95
12/10/2020 3:45:00 PM 4.62 40.316 0.037 6.99 2.1 12.93
12/10/2020 4:00:00 PM 4.6 40.28 0.037 7.08 2.15 12.92
12/10/2020 4:15:00 PM 4.58 40.244 0.037 7.07 2.18 12.91
12/10/2020 4:30:00 PM 4.55 40.19 0.037 7.07 2.18 12.89
12/10/2020 4:45:00 PM 4.53 40.154 0.037 7.06 2.14 12.87
12/10/2020 5:00:00 PM 4.5 40.1 0.037 7.04 2.19 12.85
12/10/2020 5:15:00 PM 4.46 40.028 0.037 7.03 2.19 12.84
12/10/2020 5:30:00 PM 4.42 39.956 0.037 6.93 2.2 12.84
12/10/2020 5:45:00 PM 4.38 39.884 0.037 6.99 2.24 12.84
12/10/2020 6:00:00 PM 4.34 39.812 0.037 7.02 2.15 12.85
12/10/2020 6:15:00 PM 4.3 39.74 0.037 7.02 2.2 12.86
12/10/2020 6:30:00 PM 4.27 39.686 0.037 7.01 2.21 12.87
12/10/2020 6:45:00 PM 4.23 39.614 0.037 7.02 2.17 12.88
12/10/2020 7:00:00 PM 4.19 39.542 0.037 7.01 2.21 12.88
12/10/2020 7:15:00 PM 4.15 39.47 0.037 7.03 2.23 12.9
12/10/2020 7:30:00 PM 4.11 39.398 0.037 6.91 2.14 12.91
12/10/2020 7:45:00 PM 4.07 39.326 0.037 6.97 2.17 12.93
12/10/2020 8:00:00 PM 4.03 39.254 0.037 6.97 2.27 12.94
12/10/2020 8:15:00 PM 3.99 39.182 0.037 6.96 2.18 12.96
12/10/2020 8:30:00 PM 3.94 39.092 0.037 6.96 2.19 12.97
12/10/2020 8:45:00 PM 3.9 39.02 0.037 7.01 2.17 12.99
12/10/2020 9:00:00 PM 3.86 38.948 0.038 7.01 2.17 13.01
12/10/2020 9:15:00 PM 3.81 38.858 0.038 7.02 2.21 13.02
12/10/2020 9:30:00 PM 3.77 38.786 0.038 7.02 2.19 13.04
12/10/2020 9:45:00 PM 3.71 38.678 0.038 7.01 2.14 13.06
12/10/2020 10:00:00 PM 3.66 38.588 0.038 7.02 2.19 13.08
12/10/2020 10:15:00 PM 3.61 38.498 0.038 7 2.18 13.1
12/10/2020 10:30:00 PM 3.57 38.426 0.038 7.02 2.19 13.12
12/10/2020 10:45:00 PM 3.52 38.336 0.038 7.01 2.14 13.14
12/10/2020 11:00:00 PM 3.47 38.246 0.038 6.87 2.2 13.16
12/10/2020 11:15:00 PM 3.42 38.156 0.038 6.97 2.17 13.17
12/10/2020 11:30:00 PM 3.37 38.066 0.038 7.02 2.18 13.19
12/10/2020 11:45:00 PM 3.32 37.976 0.038 7.01 2.16 13.21
12/11/2020 12:00:00 AM 3.28 37.904 0.038 7.01 2.19 13.23
12/11/2020 12:15:00 AM 3.23 37.814 0.038 7.03 2.14 13.24
12/11/2020 12:30:00 AM 3.18 37.724 0.038 7.03 2.18 13.25
12/11/2020 12:45:00 AM 3.14 37.652 0.038 7.03 2.16 13.27
12/11/2020 1:00:00 AM 3.09 37.562 0.038 7.03 2.22 13.28
12/11/2020 1:15:00 AM 3.05 37.49 0.038 7.01 2.25 13.31
12/11/2020 1:30:00 AM 3.01 37.418 0.038 6.89 2.24 13.32
12/11/2020 1:45:00 AM 2.97 37.346 0.038 7.02 2.19 13.34
12/11/2020 2:00:00 AM 2.93 37.274 0.038 7.02 2.17 13.36
12/11/2020 2:15:00 AM 2.89 37.202 0.038 7.02 2.19 13.37
12/11/2020 2:30:00 AM 2.85 37.13 0.038 7.01 2.2 13.39
12/11/2020 2:45:00 AM 2.81 37.058 0.038 7.01 2.13 13.4
12/11/2020 3:00:00 AM 2.78 37.004 0.038 7.02 2.16 13.41
12/11/2020 3:15:00 AM 2.74 36.932 0.038 7.03 2.12 13.43
12/11/2020 3:30:00 AM 2.71 36.878 0.038 7.03 2.12 13.44
12/11/2020 3:45:00 AM 2.67 36.806 0.038 7.02 2.13 13.45
12/11/2020 4:00:00 AM 2.64 36.752 0.038 7.02 2.17 13.47
12/11/2020 4:15:00 AM 2.6 36.68 0.038 7.03 2.16 13.48
12/11/2020 4:30:00 AM 2.57 36.626 0.038 7.02 2.17 13.48
12/11/2020 4:45:00 AM 2.54 36.572 0.038 7.02 2.13 13.49
12/11/2020 5:00:00 AM 2.5 36.5 0.038 6.89 2.18 13.51
12/11/2020 5:15:00 AM 2.47 36.446 0.038 7.02 2.16 13.52
12/11/2020 5:30:00 AM 2.44 36.392 0.038 7.03 2.17 13.54
12/11/2020 5:45:00 AM 2.41 36.338 0.038 7.03 2.13 13.56
12/11/2020 6:00:00 AM 2.39 36.302 0.038 7.04 2.17 13.57
12/11/2020 6:15:00 AM 2.36 36.248 0.038 6.86 2.14 13.58
12/11/2020 6:30:00 AM 2.33 36.194 0.038 7.02 2.17 13.59
12/11/2020 6:45:00 AM 2.3 36.14 0.038 7.02 2.16 13.6
12/11/2020 7:00:00 AM 2.27 36.086 0.038 6.95 2.16 13.61
12/11/2020 7:15:00 AM 2.24 36.032 0.038 7.03 2.09 13.62
12/11/2020 7:30:00 AM 2.22 35.996 0.038 7.04 2.13 13.64
12/11/2020 7:45:00 AM 2.2 35.96 0.038 7.04 2.12 13.67
12/11/2020 8:00:00 AM 2.18 35.924 0.038 7.04 2.13 13.71
12/11/2020 8:15:00 AM 2.16 35.888 0.038 7.05 2.13 13.75
12/11/2020 8:30:00 AM 2.15 35.87 0.038 7.05 2.12 13.79
12/11/2020 8:45:00 AM 2.15 35.87 0.038 7.05 2.15 13.83
12/11/2020 9:00:00 AM 2.15 35.87 0.038 7.06 2.1 13.85
12/11/2020 9:15:00 AM 2.15 35.87 0.038 7.07 2.14 13.88
12/11/2020 9:30:00 AM 2.16 35.888 0.038 7.09 2.14 13.9
12/11/2020 9:45:00 AM 2.19 35.942 0.038 7.09 2.2 13.92
12/11/2020 10:00:00 AM 2.23 36.014 0.038 7.11 2.14 13.93
12/11/2020 10:15:00 AM 2.28 36.104 0.038 7.12 2.12 13.93
12/11/2020 10:30:00 AM 2.34 36.212 0.038 7.13 2.14 13.92
12/11/2020 10:45:00 AM 2.39 36.302 0.038 7.13 2.08 13.91
12/11/2020 11:00:00 AM 2.45 36.41 0.038 7.01 2.12 13.88
12/11/2020 11:15:00 AM 2.5 36.5 0.038 7.13 2.09 13.86
12/11/2020 11:30:00 AM 2.58 36.644 0.038 7.13 2.12 13.84
12/11/2020 11:45:00 AM 2.67 36.806 0.038 7.14 2.13 13.82
12/11/2020 12:00:00 PM 2.77 36.986 0.038 7.14 2.09 13.79
12/11/2020 12:15:00 PM 2.86 37.148 0.038 7.14 2.13 13.76
12/11/2020 12:30:00 PM 2.93 37.274 0.038 7.14 2.12 13.72
12/11/2020 12:45:00 PM 3.02 37.436 0.037 7.15 2.11 13.7
12/11/2020 1:00:00 PM 3.11 37.598 0.037 7.16 2.1 13.65
12/11/2020 1:15:00 PM 3.17 37.706 0.037 7.15 2.1 13.62
12/11/2020 1:30:00 PM 3.24 37.832 0.037 7.15 2.11 13.59
12/11/2020 1:45:00 PM 3.3 37.94 0.037 7.15 2.13 13.56
12/11/2020 2:00:00 PM 3.38 38.084 0.037 7.16 2.1 13.52
12/11/2020 2:15:00 PM 3.47 38.246 0.037 7.16 2.09 13.49
12/11/2020 2:30:00 PM 3.53 38.354 0.037 7.17 2.14 13.45
12/11/2020 2:45:00 PM 3.58 38.444 0.037 7.16 2.11 13.4
12/11/2020 3:00:00 PM 3.62 38.516 0.037 7.14 2.13 13.37
12/11/2020 3:15:00 PM 3.65 38.57 0.037 7.14 2.13 13.34
12/11/2020 3:30:00 PM 3.67 38.606 0.037 7.12 2.13 13.31
12/11/2020 3:45:00 PM 3.69 38.642 0.037 7.11 2.11 13.27
12/11/2020 4:00:00 PM 3.71 38.678 0.037 7.11 2.07 13.23
12/11/2020 4:15:00 PM 3.73 38.714 0.037 7.08 2.16 13.2
12/11/2020 4:30:00 PM 3.75 38.75 0.037 7.08 2.12 13.16
12/11/2020 4:45:00 PM 3.77 38.786 0.037 7.06 2.17 13.12
12/11/2020 5:00:00 PM 3.77 38.786 0.037 7.05 2.1 13.09
12/11/2020 5:15:00 PM 3.78 38.804 0.037 6.97 2.12 13.06
12/11/2020 5:30:00 PM 3.78 38.804 0.037 7.04 2.21 13.04
12/11/2020 5:45:00 PM 3.78 38.804 0.037 7.02 2.16 13.03
12/11/2020 6:00:00 PM 3.78 38.804 0.037 7.03 2.13 13.02
12/11/2020 6:15:00 PM 3.78 38.804 0.037 7.02 2.21 13.02
12/11/2020 6:30:00 PM 3.77 38.786 0.037 7.02 2.19 13.02
12/11/2020 6:45:00 PM 3.76 38.768 0.037 6.87 2.19 13.01
12/11/2020 7:00:00 PM 3.76 38.768 0.037 7.01 2.15 13.01
12/11/2020 7:15:00 PM 3.76 38.768 0.037 7.01 2.15 13.01
12/11/2020 7:30:00 PM 3.76 38.768 0.037 7 2.13 13.01
12/11/2020 7:45:00 PM 3.76 38.768 0.038 7.02 2.14 13.01
12/11/2020 8:00:00 PM 3.76 38.768 0.038 7.02 2.15 13.01
12/11/2020 8:15:00 PM 3.74 38.732 0.038 7.03 2.18 13.02
12/11/2020 8:30:00 PM 3.73 38.714 0.038 7.02 2.14 13.02
12/11/2020 8:45:00 PM 3.71 38.678 0.038 7.02 2.15 13.03
12/11/2020 9:00:00 PM 3.69 38.642 0.038 7.01 2.19 13.04
12/11/2020 9:15:00 PM 3.67 38.606 0.038 7 2.2 13.04
12/11/2020 9:30:00 PM 3.64 38.552 0.038 7.02 2.13 13.06
12/11/2020 9:45:00 PM 3.62 38.516 0.038 7.01 2.15 13.07
12/11/2020 10:00:00 PM 3.59 38.462 0.038 7 2.16 13.08
12/11/2020 10:15:00 PM 3.56 38.408 0.038 7.02 2.13 13.09
12/11/2020 10:30:00 PM 3.52 38.336 0.038 7.02 2.16 13.1
12/11/2020 10:45:00 PM 3.49 38.282 0.038 7.01 2.17 13.12
12/11/2020 11:00:00 PM 3.46 38.228 0.038 6.93 2.16 13.13
12/11/2020 11:15:00 PM 3.43 38.174 0.038 7 2.15 13.14
12/11/2020 11:30:00 PM 3.4 38.12 0.038 7 2.14 13.15
12/11/2020 11:45:00 PM 3.37 38.066 0.038 7.01 2.17 13.16
12/12/2020 12:00:00 AM 3.35 38.03 0.038 7.02 2.13 13.17
12/12/2020 12:15:00 AM 3.33 37.994 0.038 7 2.18 13.18
12/12/2020 12:30:00 AM 3.3 37.94 0.038 7.01 2.13 13.2
12/12/2020 12:45:00 AM 3.27 37.886 0.038 7.01 2.18 13.21
12/12/2020 1:00:00 AM 3.25 37.85 0.038 7.02 2.16 13.21
12/12/2020 1:15:00 AM 3.23 37.814 0.038 7 2.15 13.22
12/12/2020 1:30:00 AM 3.21 37.778 0.038 7.01 2.16 13.23
12/12/2020 1:45:00 AM 3.19 37.742 0.038 7.01 2.15 13.24
12/12/2020 2:00:00 AM 3.18 37.724 0.038 7.02 2.19 13.24
12/12/2020 2:15:00 AM 3.16 37.688 0.038 7.01 2.15 13.25
12/12/2020 2:30:00 AM 3.14 37.652 0.038 7.01 2.19 13.25
12/12/2020 2:45:00 AM 3.11 37.598 0.038 7.02 2.2 13.26
12/12/2020 3:00:00 AM 3.09 37.562 0.038 7.01 2.19 13.28
12/12/2020 3:15:00 AM 3.08 37.544 0.038 6.95 2.16 13.28
12/12/2020 3:30:00 AM 3.05 37.49 0.038 7.02 2.15 13.29
12/12/2020 3:45:00 AM 3.03 37.454 0.038 7.03 2.14 13.31
12/12/2020 4:00:00 AM 3 37.4 0.038 7.02 2.15 13.3
12/12/2020 4:15:00 AM 2.98 37.364 0.038 7.01 2.15 13.32
12/12/2020 4:30:00 AM 2.96 37.328 0.038 7.02 2.18 13.32
12/12/2020 4:45:00 AM 2.95 37.31 0.038 7.02 2.25 13.33
12/12/2020 5:00:00 AM 2.94 37.292 0.038 7.01 2.13 13.33
12/12/2020 5:15:00 AM 2.94 37.292 0.038 7.02 2.12 13.33
12/12/2020 5:30:00 AM 2.93 37.274 0.038 6.97 2.17 13.34
12/12/2020 5:45:00 AM 2.93 37.274 0.038 7 2.11 13.34
12/12/2020 6:00:00 AM 2.92 37.256 0.038 7.02 2.15 13.34
12/12/2020 6:15:00 AM 2.92 37.256 0.038 7.01 2.17 13.35
12/12/2020 6:30:00 AM 2.92 37.256 0.038 7.01 2.12 13.35
12/12/2020 6:45:00 AM 2.91 37.238 0.038 7 2.1 13.34
12/12/2020 7:00:00 AM 2.91 37.238 0.038 6.99 2.12 13.34
12/12/2020 7:15:00 AM 2.91 37.238 0.038 6.99 2.12 13.34
12/12/2020 7:30:00 AM 2.92 37.256 0.038 7.01 2.16 13.34
12/12/2020 7:45:00 AM 2.92 37.256 0.038 7 2.15 13.36
12/12/2020 8:00:00 AM 2.93 37.274 0.038 7.01 2.14 13.37
12/12/2020 8:15:00 AM 2.94 37.292 0.038 7.02 2.16 13.4
12/12/2020 8:30:00 AM 2.95 37.31 0.038 7.03 2.2 13.42
12/12/2020 8:45:00 AM 2.97 37.346 0.038 7.05 2.14 13.46
12/12/2020 9:00:00 AM 2.99 37.382 0.038 7.05 2.16 13.46
12/12/2020 9:15:00 AM 3.01 37.418 0.038 6.95 2.11 13.49
12/12/2020 9:30:00 AM 3.05 37.49 0.038 7.1 2.13 13.52
12/12/2020 9:45:00 AM 3.1 37.58 0.038 7.1 2.12 13.52
12/12/2020 10:00:00 AM 3.13 37.634 0.038 7.11 2.11 13.52
12/12/2020 10:15:00 AM 3.16 37.688 0.038 7.11 2.12 13.53
12/12/2020 10:30:00 AM 3.24 37.832 0.038 7.11 2.09 13.53
12/12/2020 10:45:00 AM 3.31 37.958 0.038 7.12 2.14 13.52
12/12/2020 11:00:00 AM 3.37 38.066 0.038 7.12 2.15 13.5
12/12/2020 11:15:00 AM 3.45 38.21 0.038 7.14 2.09 13.48
12/12/2020 11:30:00 AM 3.54 38.372 0.038 7.16 2.09 13.46
12/12/2020 11:45:00 AM 3.64 38.552 0.038 7.16 2.13 13.43
12/12/2020 12:00:00 PM 3.75 38.75 0.038 7.17 2.09 13.4
12/12/2020 12:15:00 PM 3.86 38.948 0.038 7.17 2.09 13.37
12/12/2020 12:30:00 PM 3.99 39.182 0.038 7.05 2.1 13.32
12/12/2020 12:45:00 PM 4.11 39.398 0.037 7.18 2.11 13.27
12/12/2020 1:00:00 PM 4.17 39.506 0.037 7.18 2.09 13.22
12/12/2020 1:15:00 PM 4.23 39.614 0.037 7.18 2.07 13.19
12/12/2020 1:30:00 PM 4.32 39.776 0.037 7.18 2.09 13.15
12/12/2020 1:45:00 PM 4.38 39.884 0.037 7.19 2.09 13.11
12/12/2020 2:00:00 PM 4.45 40.01 0.037 7.18 2.1 13.06
12/12/2020 2:15:00 PM 4.5 40.1 0.037 7.17 2.11 13.03
12/12/2020 2:30:00 PM 4.56 40.208 0.037 7.16 2.11 12.99
12/12/2020 2:45:00 PM 4.61 40.298 0.037 7.16 2.1 12.93
12/12/2020 3:00:00 PM 4.66 40.388 0.037 7.15 2.11 12.9
12/12/2020 3:15:00 PM 4.71 40.478 0.037 7.14 2.09 12.85
12/12/2020 3:30:00 PM 4.76 40.568 0.037 7.14 2.1 12.82
12/12/2020 3:45:00 PM 4.81 40.658 0.037 7.14 2.1 12.79
12/12/2020 4:00:00 PM 4.85 40.73 0.037 7.13 2.13 12.74
12/12/2020 4:15:00 PM 4.89 40.802 0.037 7 2.14 12.7
12/12/2020 4:30:00 PM 4.92 40.856 0.037 7.1 2.14 12.66
12/12/2020 4:45:00 PM 4.94 40.892 0.037 7.09 2.15 12.62
12/12/2020 5:00:00 PM 4.96 40.928 0.037 7.08 2.13 12.59
12/12/2020 5:15:00 PM 4.98 40.964 0.037 7 2.13 12.56
12/12/2020 5:30:00 PM 5.01 41.018 0.037 7.06 2.16 12.54
12/12/2020 5:45:00 PM 5.04 41.072 0.037 7.06 2.18 12.51
12/12/2020 6:00:00 PM 5.07 41.126 0.037 7.06 2.19 12.49
12/12/2020 6:15:00 PM 5.1 41.18 0.037 6.94 2.16 12.48
12/12/2020 6:30:00 PM 5.13 41.234 0.037 7 2.16 12.47
12/12/2020 6:45:00 PM 5.15 41.27 0.037 7.05 2.16 12.45
12/12/2020 7:00:00 PM 5.18 41.324 0.037 7.05 2.18 12.45
12/12/2020 7:15:00 PM 5.21 41.378 0.037 7.05 2.16 12.43
12/12/2020 7:30:00 PM 5.23 41.414 0.038 6.93 2.2 12.42
12/12/2020 7:45:00 PM 5.26 41.468 0.038 7.04 2.17 12.41
12/12/2020 8:00:00 PM 5.28 41.504 0.038 7.04 2.18 12.4
12/12/2020 8:15:00 PM 5.3 41.54 0.038 7.03 2.24 12.4
12/12/2020 8:30:00 PM 5.32 41.576 0.038 7.04 2.19 12.39
12/12/2020 8:45:00 PM 5.33 41.594 0.038 7.04 2.19 12.38
12/12/2020 9:00:00 PM 5.34 41.612 0.038 7.04 2.16 12.38
12/12/2020 9:15:00 PM 5.35 41.63 0.038 7.04 2.17 12.37
12/12/2020 9:30:00 PM 5.36 41.648 0.038 7.04 2.21 12.37
12/12/2020 9:45:00 PM 5.35 41.63 0.038 7.03 2.17 12.37
12/12/2020 10:00:00 PM 5.35 41.63 0.038 7.03 2.16 12.36
12/12/2020 10:15:00 PM 5.34 41.612 0.038 7.03 2.2 12.37
12/12/2020 10:30:00 PM 5.34 41.612 0.038 7.04 2.2 12.37
12/12/2020 10:45:00 PM 5.34 41.612 0.038 7.02 2.2 12.37
12/12/2020 11:00:00 PM 5.34 41.612 0.038 7.02 2.2 12.37
12/12/2020 11:15:00 PM 5.35 41.63 0.038 7.02 2.18 12.37
12/12/2020 11:30:00 PM 5.34 41.612 0.038 7.02 2.19 12.37
12/12/2020 11:45:00 PM 5.34 41.612 0.038 6.88 2.18 12.37
12/13/2020 12:00:00 AM 5.33 41.594 0.038 7.03 2.18 12.37
12/13/2020 12:15:00 AM 5.32 41.576 0.038 7.01 2.17 12.37
12/13/2020 12:30:00 AM 5.32 41.576 0.038 7.03 2.19 12.37
12/13/2020 12:45:00 AM 5.31 41.558 0.038 7.02 2.17 12.38
12/13/2020 1:00:00 AM 5.31 41.558 0.038 7.02 2.17 12.37
12/13/2020 1:15:00 AM 5.31 41.558 0.038 7.02 2.21 12.37
12/13/2020 1:30:00 AM 5.31 41.558 0.038 7.02 2.16 12.38
12/13/2020 1:45:00 AM 5.3 41.54 0.038 7.01 2.21 12.37
12/13/2020 2:00:00 AM 5.3 41.54 0.038 7.02 2.26 12.38
12/13/2020 2:15:00 AM 5.29 41.522 0.038 7.01 2.21 12.38
12/13/2020 2:30:00 AM 5.29 41.522 0.038 6.89 2.21 12.39
12/13/2020 2:45:00 AM 5.29 41.522 0.038 7.02 2.22 12.38
12/13/2020 3:00:00 AM 5.29 41.522 0.038 7.02 2.18 12.39
12/13/2020 3:15:00 AM 5.28 41.504 0.038 7.03 2.21 12.39
12/13/2020 3:30:00 AM 5.28 41.504 0.038 6.93 2.17 12.39
12/13/2020 3:45:00 AM 5.28 41.504 0.038 7.03 2.15 12.39
12/13/2020 4:00:00 AM 5.27 41.486 0.038 6.95 2.21 12.39
12/13/2020 4:15:00 AM 5.26 41.468 0.038 7.02 2.14 12.39
12/13/2020 4:30:00 AM 5.25 41.45 0.038 7.03 2.21 12.4
12/13/2020 4:45:00 AM 5.25 41.45 0.038 7.03 2.15 12.4
12/13/2020 5:00:00 AM 5.24 41.432 0.038 7.04 2.2 12.4
12/13/2020 5:15:00 AM 5.21 41.378 0.038 7.03 2.18 12.41
12/13/2020 5:30:00 AM 5.19 41.342 0.038 7.03 2.17 12.42
12/13/2020 5:45:00 AM 5.17 41.306 0.038 7.03 2.17 12.43
12/13/2020 6:00:00 AM 5.15 41.27 0.039 7.04 2.13 12.44
12/13/2020 6:15:00 AM 5.15 41.27 0.039 7.03 2.21 12.44
12/13/2020 6:30:00 AM 5.14 41.252 0.039 7.05 2.22 12.45
12/13/2020 6:45:00 AM 5.15 41.27 0.038 7.05 2.2 12.46
12/13/2020 7:00:00 AM 5.15 41.27 0.038 7.06 2.16 12.47
12/13/2020 7:15:00 AM 5.16 41.288 0.038 7.06 2.18 12.47
12/13/2020 7:30:00 AM 5.16 41.288 0.038 7.07 2.15 12.48
12/13/2020 7:45:00 AM 5.16 41.288 0.038 7.07 2.16 12.48
12/13/2020 8:00:00 AM 5.17 41.306 0.038 7.06 2.15 12.5
12/13/2020 8:15:00 AM 5.17 41.306 0.038 7.08 2.14 12.51
12/13/2020 8:30:00 AM 5.18 41.324 0.038 7.08 2.16 12.53
12/13/2020 8:45:00 AM 5.2 41.36 0.038 7.1 2.17 12.56
12/13/2020 9:00:00 AM 5.21 41.378 0.038 7.08 2.21 12.56
12/13/2020 9:15:00 AM 5.22 41.396 0.038 6.99 2.14 12.56
12/13/2020 9:30:00 AM 5.24 41.432 0.038 7.1 2.17 12.58
12/13/2020 9:45:00 AM 5.25 41.45 0.038 6.99 2.18 12.59
12/13/2020 10:00:00 AM 5.27 41.486 0.038 7.12 2.24 12.63
12/13/2020 10:15:00 AM 5.28 41.504 0.038 7.13 2.15 12.64
12/13/2020 10:30:00 AM 5.31 41.558 0.038 7.14 2.19 12.67
12/13/2020 10:45:00 AM 5.34 41.612 0.038 7.15 2.14 12.69
12/13/2020 11:00:00 AM 5.36 41.648 0.038 7.16 2.16 12.7
12/13/2020 11:15:00 AM 5.38 41.684 0.038 7.17 2.18 12.71
12/13/2020 11:30:00 AM 5.4 41.72 0.038 7.17 2.17 12.69
12/13/2020 11:45:00 AM 5.41 41.738 0.038 7.16 2.23 12.69
12/13/2020 12:00:00 PM 5.44 41.792 0.038 7.18 2.16 12.71
12/13/2020 12:15:00 PM 5.48 41.864 0.038 7.19 2.19 12.73
12/13/2020 12:30:00 PM 5.54 41.972 0.038 7.2 2.16 12.74
12/13/2020 12:45:00 PM 5.59 42.062 0.038 7.21 2.17 12.74
12/13/2020 1:00:00 PM 5.6 42.08 0.038 7.2 2.17 12.71
12/13/2020 1:15:00 PM 5.67 42.206 0.037 7.22 2.16 12.72
12/13/2020 1:30:00 PM 5.71 42.278 0.037 7.22 2.16 12.69
12/13/2020 1:45:00 PM 5.73 42.314 0.037 7.23 2.17 12.69
12/13/2020 2:00:00 PM 5.75 42.35 0.037 7.23 2.19 12.69
12/13/2020 2:15:00 PM 5.76 42.368 0.037 7.22 2.14 12.68
12/13/2020 2:30:00 PM 5.78 42.404 0.037 7.23 2.16 12.67
12/13/2020 2:45:00 PM 5.79 42.422 0.037 7.22 2.16 12.64
12/13/2020 3:00:00 PM 5.81 42.458 0.037 7.22 2.2 12.63
12/13/2020 3:15:00 PM 5.83 42.494 0.037 7.22 2.22 12.62
12/13/2020 3:30:00 PM 5.84 42.512 0.037 7.21 2.19 12.61
12/13/2020 3:45:00 PM 5.85 42.53 0.037 7.1 2.24 12.58
12/13/2020 4:00:00 PM 5.84 42.512 0.037 7.19 2.14 12.53
12/13/2020 4:15:00 PM 5.81 42.458 0.037 7.17 2.17 12.48
12/13/2020 4:30:00 PM 5.8 42.44 0.037 7.17 2.2 12.45
12/13/2020 4:45:00 PM 5.79 42.422 0.037 7.14 2.23 12.41
12/13/2020 5:00:00 PM 5.78 42.404 0.037 7.12 2.21 12.39
12/13/2020 5:15:00 PM 5.77 42.386 0.037 7.11 2.27 12.36
12/13/2020 5:30:00 PM 5.75 42.35 0.037 7.03 2.25 12.36
12/13/2020 5:45:00 PM 5.74 42.332 0.037 7.09 2.22 12.35
12/13/2020 6:00:00 PM 5.73 42.314 0.037 7.1 2.25 12.34
12/13/2020 6:15:00 PM 5.72 42.296 0.037 7.09 2.21 12.34
12/13/2020 6:30:00 PM 5.71 42.278 0.037 7.08 2.28 12.34
12/13/2020 6:45:00 PM 5.7 42.26 0.038 7.08 2.24 12.34
12/13/2020 7:00:00 PM 5.68 42.224 0.038 7.08 2.24 12.35
12/13/2020 7:15:00 PM 5.66 42.188 0.038 7.08 2.24 12.35
12/13/2020 7:30:00 PM 5.65 42.17 0.038 7.06 2.32 12.36
12/13/2020 7:45:00 PM 5.63 42.134 0.038 7.07 2.27 12.36
12/13/2020 8:00:00 PM 5.61 42.098 0.038 7.07 2.21 12.37
12/13/2020 8:15:00 PM 5.59 42.062 0.038 7.07 2.2 12.38
12/13/2020 8:30:00 PM 5.57 42.026 0.038 7.08 2.27 12.38
12/13/2020 8:45:00 PM 5.55 41.99 0.038 7.08 2.24 12.39
12/13/2020 9:00:00 PM 5.54 41.972 0.038 7.06 2.21 12.39
12/13/2020 9:15:00 PM 5.51 41.918 0.038 6.95 2.24 12.4
12/13/2020 9:30:00 PM 5.47 41.846 0.038 7.07 2.39 12.4
12/13/2020 9:45:00 PM 5.43 41.774 0.038 7.06 2.21 12.41
12/13/2020 10:00:00 PM 5.41 41.738 0.038 7.06 2.21 12.42
12/13/2020 10:15:00 PM 5.38 41.684 0.038 7.06 2.24 12.43
12/13/2020 10:30:00 PM 5.35 41.63 0.038 7.06 2.22 12.44
12/13/2020 10:45:00 PM 5.32 41.576 0.038 7.06 2.25 12.45
12/13/2020 11:00:00 PM 5.28 41.504 0.038 7.06 2.27 12.46
12/13/2020 11:15:00 PM 5.24 41.432 0.038 6.93 2.24 12.48
12/13/2020 11:30:00 PM 5.21 41.378 0.038 7.06 2.24 12.49
12/13/2020 11:45:00 PM 5.18 41.324 0.038 7.02 2.22 12.5
12/14/2020 12:00:00 AM 5.15 41.27 0.038 7.06 2.19 12.51
12/14/2020 12:15:00 AM 5.12 41.216 0.038 7.05 2.18 12.51
12/14/2020 12:30:00 AM 5.09 41.162 0.038 6.95 2.22 12.52
12/14/2020 12:45:00 AM 5.06 41.108 0.038 7.06 2.2 12.53
12/14/2020 1:00:00 AM 5.03 41.054 0.038 7.07 2.17 12.54
12/14/2020 1:15:00 AM 5 41 0.039 7.07 2.2 12.55
12/14/2020 1:30:00 AM 4.98 40.964 0.039 7.07 2.22 12.56
12/14/2020 1:45:00 AM 4.96 40.928 0.039 7.06 2.2 12.57
12/14/2020 2:00:00 AM 4.93 40.874 0.039 6.96 2.18 12.58
12/14/2020 2:15:00 AM 4.91 40.838 0.039 7.06 2.2 12.58
12/14/2020 2:30:00 AM 4.89 40.802 0.039 7.07 2.17 12.59
12/14/2020 2:45:00 AM 4.86 40.748 0.039 7.02 2.21 12.59
12/14/2020 3:00:00 AM 4.84 40.712 0.039 7.07 2.21 12.59
12/14/2020 3:15:00 AM 4.82 40.676 0.039 7.09 2.2 12.6
12/14/2020 3:30:00 AM 4.8 40.64 0.039 7.09 2.16 12.61
12/14/2020 3:45:00 AM 4.78 40.604 0.039 7.08 2.15 12.62
12/14/2020 4:00:00 AM 4.77 40.586 0.039 7.08 2.19 12.62
12/14/2020 4:15:00 AM 4.75 40.55 0.039 7.08 2.17 12.63
12/14/2020 4:30:00 AM 4.74 40.532 0.039 7.07 2.2 12.63
12/14/2020 4:45:00 AM 4.72 40.496 0.039 7.09 2.17 12.63
12/14/2020 5:00:00 AM 4.71 40.478 0.039 7.09 2.14 12.64
12/14/2020 5:15:00 AM 4.69 40.442 0.039 7.08 2.19 12.64
12/14/2020 5:30:00 AM 4.66 40.388 0.039 7.1 2.26 12.65
12/14/2020 5:45:00 AM 4.62 40.316 0.039 7.1 2.24 12.66
12/14/2020 6:00:00 AM 4.59 40.262 0.039 7.1 2.23 12.67
12/14/2020 6:15:00 AM 4.56 40.208 0.039 7.11 2.22 12.68
12/14/2020 6:30:00 AM 4.53 40.154 0.039 7.09 2.24 12.68
12/14/2020 6:45:00 AM 4.48 40.064 0.039 7.1 2.2 12.69
12/14/2020 7:00:00 AM 4.43 39.974 0.039 7.1 2.24 12.7
12/14/2020 7:15:00 AM 4.39 39.902 0.039 7.09 2.17 12.71
12/14/2020 7:30:00 AM 4.37 39.866 0.039 7.09 2.2 12.72
12/14/2020 7:45:00 AM 4.35 39.83 0.039 7.1 2.26 12.74
12/14/2020 8:00:00 AM 4.33 39.794 0.039 6.98 2.17 12.76
12/14/2020 8:15:00 AM 4.29 39.722 0.039 7.11 2.16 12.77
12/14/2020 8:30:00 AM 4.24 39.632 0.038 7.04 2.16 12.8
12/14/2020 8:45:00 AM 4.2 39.56 0.038 7.08 2.16 12.83
12/14/2020 9:00:00 AM 4.18 39.524 0.038 7.12 2.16 12.87
12/14/2020 9:15:00 AM 4.16 39.488 0.038 7.12 2.17 12.91
12/14/2020 9:30:00 AM 4.16 39.488 0.038 7.13 2.2 12.94
12/14/2020 9:45:00 AM 4.17 39.506 0.038 7.14 2.16 12.98
12/14/2020 10:00:00 AM 4.18 39.524 0.038 7.14 2.2 13.02
12/14/2020 10:15:00 AM 4.18 39.524 0.038 7.14 2.12 13.04
12/14/2020 10:30:00 AM 4.2 39.56 0.038 7.03 2.16 13.07
12/14/2020 10:45:00 AM 4.21 39.578 0.038 7.19 2.26 13.08
12/14/2020 11:00:00 AM 4.22 39.596 0.038 7.18 2.15 13.09
12/14/2020 11:15:00 AM 4.22 39.596 0.038 7.17 2.18 13.07
12/14/2020 11:30:00 AM 4.22 39.596 0.038 7.17 2.17 13.05
12/14/2020 11:45:00 AM 4.23 39.614 0.038 7.17 2.18 13.05
12/14/2020 12:00:00 PM 4.24 39.632 0.038 7.17 2.17 13.04
12/14/2020 12:15:00 PM 4.26 39.668 0.038 7.17 2.22 13.05
12/14/2020 12:30:00 PM 4.29 39.722 0.038 7.19 2.16 13.08
12/14/2020 12:45:00 PM 4.33 39.794 0.038 7.19 2.18 13.08
12/14/2020 1:00:00 PM 4.37 39.866 0.038 7.21 2.12 13.09
12/14/2020 1:15:00 PM 4.41 39.938 0.038 7.22 2.2 13.09
12/14/2020 1:30:00 PM 4.42 39.956 0.038 7.21 2.21 13.04
12/14/2020 1:45:00 PM 4.43 39.974 0.038 7.21 2.16 13.04
12/14/2020 2:00:00 PM 4.43 39.974 0.038 7.2 2.16 13.02
12/14/2020 2:15:00 PM 4.43 39.974 0.038 7.2 2.19 12.99
12/14/2020 2:30:00 PM 4.45 40.01 0.038 7.19 2.18 13.01
12/14/2020 2:45:00 PM 4.46 40.028 0.038 7.21 2.2 13.01
12/14/2020 3:00:00 PM 4.47 40.046 0.037 7.08 2.17 13
12/14/2020 3:15:00 PM 4.5 40.1 0.037 7.2 2.22 12.99
12/14/2020 3:30:00 PM 4.5 40.1 0.037 7.19 2.17 12.94
12/14/2020 3:45:00 PM 4.5 40.1 0.037 7.18 2.17 12.91
12/14/2020 4:00:00 PM 4.49 40.082 0.038 7.16 2.14 12.89
12/14/2020 4:15:00 PM 4.48 40.064 0.038 7.16 2.16 12.86
12/14/2020 4:30:00 PM 4.47 40.046 0.038 7.14 2.19 12.83
12/14/2020 4:45:00 PM 4.46 40.028 0.038 7.14 2.23 12.81
12/14/2020 5:00:00 PM 4.45 40.01 0.038 7.02 2.15 12.79
12/14/2020 5:15:00 PM 4.43 39.974 0.038 7.14 2.16 12.77
12/14/2020 5:30:00 PM 4.41 39.938 0.038 7.13 2.18 12.77
12/14/2020 5:45:00 PM 4.39 39.902 0.038 7.14 2.16 12.77
12/14/2020 6:00:00 PM 4.36 39.848 0.038 7.14 2.2 12.77
12/14/2020 6:15:00 PM 4.34 39.812 0.038 7.12 2.19 12.78
12/14/2020 6:30:00 PM 4.3 39.74 0.038 7.13 2.25 12.79
12/14/2020 6:45:00 PM 4.27 39.686 0.038 7.01 2.24 12.8
12/14/2020 7:00:00 PM 4.24 39.632 0.038 7.08 2.2 12.82
12/14/2020 7:15:00 PM 4.21 39.578 0.038 7.13 2.18 12.83
12/14/2020 7:30:00 PM 4.18 39.524 0.038 7.12 2.21 12.83
12/14/2020 7:45:00 PM 4.16 39.488 0.038 7.12 2.21 12.85
12/14/2020 8:00:00 PM 4.14 39.452 0.038 7.13 2.18 12.86
12/14/2020 8:15:00 PM 4.11 39.398 0.038 7 2.2 12.87
12/14/2020 8:30:00 PM 4.07 39.326 0.038 7.07 2.21 12.89
12/14/2020 8:45:00 PM 4.05 39.29 0.038 7.13 2.23 12.9
12/14/2020 9:00:00 PM 4 39.2 0.038 7.12 2.16 12.92
12/14/2020 9:15:00 PM 3.96 39.128 0.038 7.13 2.17 12.94
12/14/2020 9:30:00 PM 3.92 39.056 0.038 6.98 2.21 12.95
12/14/2020 9:45:00 PM 3.88 38.984 0.038 7.11 2.23 12.97
12/14/2020 10:00:00 PM 3.83 38.894 0.038 7.12 2.19 12.99
12/14/2020 10:15:00 PM 3.77 38.786 0.038 7.12 2.2 13
12/14/2020 10:30:00 PM 3.72 38.696 0.038 7.02 2.2 13.03
12/14/2020 10:45:00 PM 3.68 38.624 0.038 7.12 2.17 13.05
12/14/2020 11:00:00 PM 3.64 38.552 0.038 7.09 2.21 13.06
12/14/2020 11:15:00 PM 3.59 38.462 0.038 7.11 2.18 13.08
12/14/2020 11:30:00 PM 3.54 38.372 0.038 7.13 2.18 13.1
12/14/2020 11:45:00 PM 3.5 38.3 0.038 7.12 2.18 13.13
12/15/2020 12:00:00 AM 3.45 38.21 0.039 7.13 2.19 13.15
12/15/2020 12:15:00 AM 3.41 38.138 0.039 7.11 2.18 13.16
12/15/2020 12:30:00 AM 3.38 38.084 0.039 7.12 2.14 13.18
12/15/2020 12:45:00 AM 3.34 38.012 0.039 7.11 2.2 13.19
12/15/2020 1:00:00 AM 3.3 37.94 0.039 7.02 2.18 13.21
12/15/2020 1:15:00 AM 3.26 37.868 0.039 7.12 2.19 13.22
12/15/2020 1:30:00 AM 3.23 37.814 0.039 7.11 2.18 13.24
12/15/2020 1:45:00 AM 3.19 37.742 0.039 7.11 2.2 13.25
12/15/2020 2:00:00 AM 3.18 37.724 0.039 7.11 2.15 13.26
12/15/2020 2:15:00 AM 3.16 37.688 0.039 7.11 2.2 13.28
12/15/2020 2:30:00 AM 3.14 37.652 0.039 7.12 2.17 13.29
12/15/2020 2:45:00 AM 3.12 37.616 0.039 7.13 2.18 13.3
12/15/2020 3:00:00 AM 3.1 37.58 0.039 7.12 2.15 13.31
12/15/2020 3:15:00 AM 3.08 37.544 0.039 7.11 2.15 13.32
12/15/2020 3:30:00 AM 3.07 37.526 0.039 7.06 2.18 13.34
12/15/2020 3:45:00 AM 3.05 37.49 0.039 7.1 2.2 13.34
12/15/2020 4:00:00 AM 3.04 37.472 0.039 7.11 2.24 13.34
12/15/2020 4:15:00 AM 3.03 37.454 0.039 7.11 2.16 13.35
12/15/2020 4:30:00 AM 3.02 37.436 0.039 7.11 2.15 13.36
12/15/2020 4:45:00 AM 3 37.4 0.039 7.11 2.17 13.37
12/15/2020 5:00:00 AM 2.99 37.382 0.039 7.12 2.2 13.37
12/15/2020 5:15:00 AM 2.98 37.364 0.039 7.12 2.17 13.38
12/15/2020 5:30:00 AM 2.96 37.328 0.039 7.12 2.18 13.38
12/15/2020 5:45:00 AM 2.94 37.292 0.039 7.12 2.18 13.4
12/15/2020 6:00:00 AM 2.93 37.274 0.039 7.12 2.15 13.41
12/15/2020 6:15:00 AM 2.91 37.238 0.039 7.11 2.17 13.41
12/15/2020 6:30:00 AM 2.89 37.202 0.039 7.02 2.2 13.42
12/15/2020 6:45:00 AM 2.85 37.13 0.039 7.05 2.17 13.44
12/15/2020 7:00:00 AM 2.83 37.094 0.039 7.12 2.17 13.45
12/15/2020 7:15:00 AM 2.8 37.04 0.039 7.11 2.18 13.47
12/15/2020 7:30:00 AM 2.78 37.004 0.039 7.12 2.14 13.47
12/15/2020 7:45:00 AM 2.76 36.968 0.039 7.11 2.19 13.5
12/15/2020 8:00:00 AM 2.75 36.95 0.039 7.13 2.14 13.52
12/15/2020 8:15:00 AM 2.74 36.932 0.039 7.13 2.19 13.56
12/15/2020 8:30:00 AM 2.74 36.932 0.039 7.14 2.15 13.6
12/15/2020 8:45:00 AM 2.74 36.932 0.039 7.16 2.16 13.64
12/15/2020 9:00:00 AM 2.74 36.932 0.039 7.17 2.13 13.69
12/15/2020 9:15:00 AM 2.73 36.914 0.039 7.19 2.14 13.73
12/15/2020 9:30:00 AM 2.72 36.896 0.039 7.19 2.17 13.76
12/15/2020 9:45:00 AM 2.71 36.878 0.038 7.19 2.14 13.78
12/15/2020 10:00:00 AM 2.71 36.878 0.038 7.21 2.15 13.81
12/15/2020 10:15:00 AM 2.72 36.896 0.038 7.21 2.1 13.83
12/15/2020 10:30:00 AM 2.73 36.914 0.038 7.22 2.15 13.84
12/15/2020 10:45:00 AM 2.7 36.86 0.038 7.22 2.16 13.84
12/15/2020 11:00:00 AM 2.74 36.932 0.038 7.23 2.13 13.86
12/15/2020 11:15:00 AM 2.81 37.058 0.038 7.24 2.2 13.85
12/15/2020 11:30:00 AM 2.86 37.148 0.038 7.25 2.13 13.85
12/15/2020 11:45:00 AM 2.89 37.202 0.038 7.24 2.12 13.85
12/15/2020 12:00:00 PM 2.94 37.292 0.038 7.25 2.11 13.83
12/15/2020 12:15:00 PM 2.97 37.346 0.038 7.11 2.25 13.82
12/15/2020 12:30:00 PM 3.01 37.418 0.038 7.26 2.14 13.81
12/15/2020 12:45:00 PM 3.01 37.418 0.038 7.25 2.14 13.79
12/15/2020 1:00:00 PM 3 37.4 0.038 7.25 2.15 13.78
12/15/2020 1:15:00 PM 3.02 37.436 0.038 7.26 2.16 13.77
12/15/2020 1:30:00 PM 3.05 37.49 0.038 7.25 2.16 13.76
12/15/2020 1:45:00 PM 3.06 37.508 0.038 7.25 2.14 13.74
12/15/2020 2:00:00 PM 3.09 37.562 0.038 7.24 2.13 13.74
12/15/2020 2:15:00 PM 3.1 37.58 0.038 7.25 2.12 13.72
12/15/2020 2:30:00 PM 3.09 37.562 0.038 7.24 2.14 13.71
12/15/2020 2:45:00 PM 3.08 37.544 0.038 7.24 2.12 13.71
12/15/2020 3:00:00 PM 3.07 37.526 0.038 7.24 2.14 13.71
12/15/2020 3:15:00 PM 3.05 37.49 0.038 7.24 2.09 13.7
12/15/2020 3:30:00 PM 3.03 37.454 0.038 7.22 2.16 13.69
12/15/2020 3:45:00 PM 3.01 37.418 0.038 7.21 2.15 13.67
12/15/2020 4:00:00 PM 2.99 37.382 0.038 7.2 2.14 13.66
12/15/2020 4:15:00 PM 2.96 37.328 0.038 7.2 2.13 13.63
12/15/2020 4:30:00 PM 2.92 37.256 0.038 7.18 2.14 13.6
12/15/2020 4:45:00 PM 2.88 37.184 0.038 7.17 2.18 13.58
12/15/2020 5:00:00 PM 2.84 37.112 0.038 7.15 2.13 13.56
12/15/2020 5:15:00 PM 2.81 37.058 0.038 7.14 2.17 13.54
12/15/2020 5:30:00 PM 2.78 37.004 0.038 7.14 2.13 13.55
12/15/2020 5:45:00 PM 2.75 36.95 0.038 7.12 2.22 13.54
12/15/2020 6:00:00 PM 2.72 36.896 0.038 7.13 2.18 13.55
12/15/2020 6:15:00 PM 2.69 36.842 0.038 7 2.19 13.55
12/15/2020 6:30:00 PM 2.67 36.806 0.038 7.12 2.15 13.55
12/15/2020 6:45:00 PM 2.64 36.752 0.038 7.11 2.18 13.56
12/15/2020 7:00:00 PM 2.61 36.698 0.038 7.12 2.15 13.56
12/15/2020 7:15:00 PM 2.58 36.644 0.038 7.12 2.18 13.57
12/15/2020 7:30:00 PM 2.55 36.59 0.038 7.1 2.18 13.57
12/15/2020 7:45:00 PM 2.53 36.554 0.038 7.11 2.19 13.58
12/15/2020 8:00:00 PM 2.5 36.5 0.038 7.09 2.21 13.6
12/15/2020 8:15:00 PM 2.47 36.446 0.038 7.11 2.19 13.61
12/15/2020 8:30:00 PM 2.45 36.41 0.038 7.11 2.14 13.62
12/15/2020 8:45:00 PM 2.42 36.356 0.038 7.11 2.17 13.63
12/15/2020 9:00:00 PM 2.39 36.302 0.038 7.12 2.2 13.64
12/15/2020 9:15:00 PM 2.36 36.248 0.038 7.11 2.13 13.64
12/15/2020 9:30:00 PM 2.33 36.194 0.038 7.1 2.16 13.65
12/15/2020 9:45:00 PM 2.3 36.14 0.038 6.98 2.17 13.67
12/15/2020 10:00:00 PM 2.28 36.104 0.038 7.05 2.11 13.68
12/15/2020 10:15:00 PM 2.25 36.05 0.038 7.11 2.17 13.69
12/15/2020 10:30:00 PM 2.22 35.996 0.039 7.1 2.15 13.71
12/15/2020 10:45:00 PM 2.19 35.942 0.039 7.11 2.15 13.72
12/15/2020 11:00:00 PM 2.16 35.888 0.039 7.11 2.17 13.73
12/15/2020 11:15:00 PM 2.13 35.834 0.039 7.11 2.17 13.75
12/15/2020 11:30:00 PM 2.1 35.78 0.039 7.11 2.18 13.76
12/15/2020 11:45:00 PM 2.06 35.708 0.039 7.11 2.17 13.78
12/16/2020 12:00:00 AM 2.02 35.636 0.039 7.11 2.12 13.79
12/16/2020 12:15:00 AM 1.98 35.564 0.039 7.11 2.16 13.81
12/16/2020 12:30:00 AM 1.94 35.492 0.039 7.11 2.14 13.82
12/16/2020 12:45:00 AM 1.91 35.438 0.039 7.11 2.13 13.84
12/16/2020 1:00:00 AM 1.88 35.384 0.039 7.11 2.12 13.85
12/16/2020 1:15:00 AM 1.83 35.294 0.039 7.11 2.12 13.87
12/16/2020 1:30:00 AM 1.79 35.222 0.039 7.11 2.13 13.89
12/16/2020 1:45:00 AM 1.75 35.15 0.039 7.12 2.16 13.9
12/16/2020 2:00:00 AM 1.72 35.096 0.039 6.96 2.15 13.92
12/16/2020 2:15:00 AM 1.69 35.042 0.039 7.11 2.11 13.94
12/16/2020 2:30:00 AM 1.66 34.988 0.039 7.1 2.11 13.94
12/16/2020 2:45:00 AM 1.63 34.934 0.039 7.11 2.14 13.96
12/16/2020 3:00:00 AM 1.6 34.88 0.039 7.11 2.23 13.98
12/16/2020 3:15:00 AM 1.57 34.826 0.039 7.11 2.15 13.99
12/16/2020 3:30:00 AM 1.53 34.754 0.039 7.11 2.12 14.01
12/16/2020 3:45:00 AM 1.5 34.7 0.039 7.11 2.17 14.02
12/16/2020 4:00:00 AM 1.46 34.628 0.039 7.11 2.13 14.03
12/16/2020 4:15:00 AM 1.43 34.574 0.039 7.12 2.11 14.04
12/16/2020 4:30:00 AM 1.4 34.52 0.039 7.11 2.14 14.06
12/16/2020 4:45:00 AM 1.37 34.466 0.039 7.12 2.15 14.07
12/16/2020 5:00:00 AM 1.35 34.43 0.039 6.98 2.11 14.07
12/16/2020 5:15:00 AM 1.32 34.376 0.039 7.11 2.16 14.08
12/16/2020 5:30:00 AM 1.29 34.322 0.039 7.11 2.14 14.09
12/16/2020 5:45:00 AM 1.27 34.286 0.039 7.12 2.12 14.1
12/16/2020 6:00:00 AM 1.25 34.25 0.039 7.12 2.17 14.11
12/16/2020 6:15:00 AM 1.22 34.196 0.039 7.11 2.17 14.12
12/16/2020 6:30:00 AM 1.19 34.142 0.039 7.11 2.15 14.14
12/16/2020 6:45:00 AM 1.17 34.106 0.039 7.11 2.14 14.15
12/16/2020 7:00:00 AM 1.15 34.07 0.039 7.12 2.14 14.16
12/16/2020 7:15:00 AM 1.12 34.016 0.039 7.11 2.13 14.17
12/16/2020 7:30:00 AM 1.1 33.98 0.039 7.11 2.15 14.18
12/16/2020 7:45:00 AM 1.08 33.944 0.039 7.11 2.15 14.18
12/16/2020 8:00:00 AM 1.07 33.926 0.039 7.11 2.16 14.21
12/16/2020 8:15:00 AM 1.05 33.89 0.039 7.12 2.13 14.23
12/16/2020 8:30:00 AM 1.04 33.872 0.039 7.13 2.12 14.27
12/16/2020 8:45:00 AM 1.03 33.854 0.039 7.14 2.15 14.31
12/16/2020 9:00:00 AM 1.03 33.854 0.039 7.15 2.12 14.34
12/16/2020 9:15:00 AM 1.03 33.854 0.039 7.16 2.13 14.38
12/16/2020 9:30:00 AM 1.03 33.854 0.039 7.16 2.12 14.4
12/16/2020 9:45:00 AM 1.04 33.872 0.039 7.17 2.14 14.42
12/16/2020 10:00:00 AM 1.05 33.89 0.039 7.17 2.15 14.44
12/16/2020 10:15:00 AM 1.06 33.908 0.039 7.18 2.13 14.44
12/16/2020 10:30:00 AM 1.05 33.89 0.039 7.19 2.15 14.45
12/16/2020 10:45:00 AM 1.05 33.89 0.039 7.19 2.11 14.44
12/16/2020 11:00:00 AM 1.06 33.908 0.039 7.17 2.08 14.41
12/16/2020 11:15:00 AM 1.06 33.908 0.039 7.18 2.14 14.41
12/16/2020 11:30:00 AM 1.06 33.908 0.039 7.18 2.13 14.41
12/16/2020 11:45:00 AM 1.04 33.872 0.039 7.18 2.15 14.4
12/16/2020 12:00:00 PM 0.97 33.746 0.039 7.18 2.15 14.4
12/16/2020 12:15:00 PM 0.9 33.62 0.039 7.16 2.14 14.4
12/16/2020 12:30:00 PM 0.86 33.548 0.039 7.16 2.14 14.42
12/16/2020 12:45:00 PM 0.84 33.512 0.039 7.16 2.16 14.43
12/16/2020 1:00:00 PM 0.81 33.458 0.039 7.17 2.17 14.41
12/16/2020 1:15:00 PM 0.71 33.278 0.038 7.15 2.21 14.42
12/16/2020 1:30:00 PM 0.62 33.116 0.038 7.14 2.16 14.43
12/16/2020 1:45:00 PM 0.55 32.99 0.038 7.14 2.13 14.46
12/16/2020 2:00:00 PM 0.48 32.864 0.038 7.13 2.14 14.48
12/16/2020 2:15:00 PM 0.41 32.738 0.038 7.13 2.16 14.5
12/16/2020 2:30:00 PM 0.33 32.594 0.038 7.13 2.13 14.53
12/16/2020 2:45:00 PM 0.24 32.432 0.038 7.12 2.15 14.54
12/16/2020 3:00:00 PM 0.16 32.288 0.038 7.12 2.17 14.56
12/16/2020 3:15:00 PM 0.09 32.162 0.038 7.11 2.18 14.56
12/16/2020 3:30:00 PM 0.01 32.018 0.038 7.1 2.34 14.58
12/16/2020 3:45:00 PM -0.03 31.946 0.038 7.08 2.44 14.6
12/16/2020 4:00:00 PM -0.03 31.946 0.038 7.08 2.52 14.63
12/16/2020 4:15:00 PM -0.03 31.946 0.038 7.09 2.51 14.64
12/16/2020 4:30:00 PM -0.03 31.946 0.038 7.09 2.63 14.65
12/16/2020 4:45:00 PM -0.03 31.946 0.038 7.09 2.89 14.64
12/16/2020 5:00:00 PM -0.03 31.946 0.038 7.08 4.91 14.64
12/16/2020 5:15:00 PM -0.03 31.946 0.038 7.09 3.94 14.63
12/16/2020 5:30:00 PM -0.03 31.946 0.038 7.1 3.37 14.61
12/16/2020 5:45:00 PM -0.03 31.946 0.038 7.09 2.72 14.61
12/16/2020 6:00:00 PM -0.03 31.946 0.038 7.08 2.67 14.61
12/16/2020 6:15:00 PM -0.03 31.946 0.038 7.08 2.65 14.6
12/16/2020 6:30:00 PM -0.03 31.946 0.038 7.07 2.52 14.59
12/16/2020 6:45:00 PM -0.03 31.946 0.038 7.08 2.69 14.58
12/16/2020 7:00:00 PM -0.03 31.946 0.038 7.07 2.67 14.57
12/16/2020 7:15:00 PM -0.03 31.946 0.038 7.08 2.64 14.57
12/16/2020 7:30:00 PM -0.03 31.946 0.038 7.09 2.6 14.56
12/16/2020 7:45:00 PM -0.03 31.946 0.038 6.93 2.67 14.56
12/16/2020 8:00:00 PM -0.03 31.946 0.038 7.08 2.66 14.54
12/16/2020 8:15:00 PM -0.03 31.946 0.038 7.08 2.57 14.53
12/16/2020 8:30:00 PM -0.03 31.946 0.038 7.07 2.67 14.51
12/16/2020 8:45:00 PM -0.03 31.946 0.038 7.08 2.83 14.5
12/16/2020 9:00:00 PM -0.03 31.946 0.038 7.06 3.63 14.47
12/16/2020 9:15:00 PM -0.03 31.946 0.038 7.06 5.44 14.46
12/16/2020 9:30:00 PM -0.03 31.946 0.038 7.08 3.7 14.48
12/16/2020 9:45:00 PM -0.03 31.946 0.038 6.97 3.5 14.48
12/16/2020 10:00:00 PM -0.03 31.946 0.038 7.07 2.97 14.47
12/16/2020 10:15:00 PM -0.03 31.946 0.038 7.07 2.84 14.46
12/16/2020 10:30:00 PM -0.03 31.946 0.038 7.07 2.89 14.45
12/16/2020 10:45:00 PM -0.03 31.946 0.038 7.06 2.66 14.45
12/16/2020 11:00:00 PM -0.03 31.946 0.038 7.07 2.76 14.45
12/16/2020 11:15:00 PM -0.03 31.946 0.038 7.07 2.98 14.46
12/16/2020 11:30:00 PM -0.03 31.946 0.038 7.07 3.11 14.47
12/16/2020 11:45:00 PM -0.03 31.946 0.038 7.07 3.28 14.47
12/17/2020 12:00:00 AM -0.03 31.946 0.038 7.07 2.93 14.46
12/17/2020 12:15:00 AM -0.03 31.946 0.038 7.07 3.08 14.45
12/17/2020 12:30:00 AM -0.03 31.946 0.038 7.07 3.08 14.43
12/17/2020 12:45:00 AM -0.03 31.946 0.038 7.06 3.24 14.43
12/17/2020 1:00:00 AM -0.03 31.946 0.038 6.92 3.12 14.43
12/17/2020 1:15:00 AM -0.03 31.946 0.038 7.06 3.17 14.43
12/17/2020 1:30:00 AM -0.03 31.946 0.039 7.05 3.01 14.41
12/17/2020 1:45:00 AM -0.03 31.946 0.039 7.05 3.09 14.38
12/17/2020 2:00:00 AM -0.03 31.946 0.039 7.03 2.94 14.3
12/17/2020 2:15:00 AM -0.02 31.964 0.039 7.01 3.82 14.29
12/17/2020 2:30:00 AM -0.02 31.964 0.039 7.02 3.39 14.31
12/17/2020 2:45:00 AM -0.02 31.964 0.039 7.01 3.42 14.28
12/17/2020 3:00:00 AM -0.02 31.964 0.039 6.99 2.81 14.26
12/17/2020 3:15:00 AM -0.02 31.964 0.039 6.99 2.72 14.23
12/17/2020 3:30:00 AM -0.02 31.964 0.039 6.88 2.69 14.22
12/17/2020 3:45:00 AM -0.02 31.964 0.039 6.98 2.73 14.21
12/17/2020 4:00:00 AM -0.02 31.964 0.039 6.97 2.69 14.2
12/17/2020 4:15:00 AM -0.02 31.964 0.039 6.83 2.63 14.19
12/17/2020 4:30:00 AM -0.02 31.964 0.039 6.91 2.56 14.17
12/17/2020 4:45:00 AM -0.02 31.964 0.039 6.93 2.57 14.16
12/17/2020 5:00:00 AM -0.02 31.964 0.039 6.95 2.58 14.14
12/17/2020 5:15:00 AM -0.02 31.964 0.039 6.95 2.55 14.12
12/17/2020 5:30:00 AM -0.02 31.964 0.039 6.94 2.47 14.11
12/17/2020 5:45:00 AM -0.02 31.964 0.039 6.95 2.63 14.1
12/17/2020 6:00:00 AM -0.02 31.964 0.039 6.94 2.49 14.08
12/17/2020 6:15:00 AM -0.02 31.964 0.039 6.94 2.52 14.08
12/17/2020 6:30:00 AM -0.02 31.964 0.039 6.94 2.48 14.07
12/17/2020 6:45:00 AM -0.02 31.964 0.039 6.93 2.65 14.09
12/17/2020 7:00:00 AM -0.02 31.964 0.039 6.95 2.57 14.1
12/17/2020 7:15:00 AM -0.02 31.964 0.039 6.94 2.57 14.11
12/17/2020 7:30:00 AM -0.02 31.964 0.039 6.94 2.55 14.12
12/17/2020 7:45:00 AM -0.02 31.964 0.039 6.95 2.57 14.15
12/17/2020 8:00:00 AM -0.02 31.964 0.039 6.94 2.54 14.17
12/17/2020 8:15:00 AM -0.02 31.964 0.039 6.94 2.55 14.19
12/17/2020 8:30:00 AM -0.02 31.964 0.039 6.94 2.53 14.21
12/17/2020 8:45:00 AM -0.02 31.964 0.039 6.83 2.53 14.23
12/17/2020 9:00:00 AM -0.02 31.964 0.039 6.97 2.5 14.25
12/17/2020 9:15:00 AM -0.02 31.964 0.039 6.96 2.61 14.27
12/17/2020 9:30:00 AM -0.02 31.964 0.039 6.97 2.62 14.29
12/17/2020 9:45:00 AM -0.02 31.964 0.039 6.89 2.8 14.33
12/17/2020 10:00:00 AM -0.02 31.964 0.039 6.99 2.85 14.36
12/17/2020 10:15:00 AM -0.03 31.946 0.039 7.02 3 14.4
12/17/2020 10:30:00 AM -0.03 31.946 0.039 7.03 2.77 14.42
12/17/2020 10:45:00 AM -0.03 31.946 0.039 7.04 2.83 14.44
12/17/2020 11:00:00 AM -0.03 31.946 0.039 7.03 2.88 14.45
12/17/2020 11:15:00 AM -0.03 31.946 0.039 7.04 3.22 14.48
12/17/2020 11:30:00 AM -0.03 31.946 0.039 7.04 3.22 14.49
12/17/2020 11:45:00 AM -0.03 31.946 0.039 7.04 3.08 14.5
12/17/2020 12:00:00 PM -0.03 31.946 0.039 7.05 2.94 14.51
12/17/2020 12:15:00 PM -0.03 31.946 0.038 7.05 2.87 14.52
12/17/2020 12:30:00 PM -0.03 31.946 0.038 7.05 2.84 14.53
12/17/2020 12:45:00 PM -0.03 31.946 0.038 7.05 2.86 14.54
12/17/2020 1:00:00 PM -0.02 31.964 0.038 7.04 2.76 14.54
12/17/2020 1:15:00 PM -0.02 31.964 0.038 7.06 3.01 14.55
12/17/2020 1:30:00 PM -0.02 31.964 0.038 7.06 2.91 14.57
12/17/2020 1:45:00 PM -0.02 31.964 0.038 7.06 3.08 14.57
12/17/2020 2:00:00 PM -0.02 31.964 0.038 7.06 3.24 14.58
12/17/2020 2:15:00 PM -0.02 31.964 0.038 7.08 3.04 14.6
12/17/2020 2:30:00 PM -0.02 31.964 0.037 7.08 3.65 14.61
12/17/2020 2:45:00 PM -0.02 31.964 0.037 7.08 3.41 14.6
12/17/2020 3:00:00 PM -0.02 31.964 0.037 7.07 3.84 14.6
12/17/2020 3:15:00 PM -0.02 31.964 0.037 6.93 2.92 14.6
12/17/2020 3:30:00 PM -0.01 31.982 0.037 7.07 3.03 14.58
12/17/2020 3:45:00 PM -0.01 31.982 0.037 7.05 3.05 14.58
12/17/2020 4:00:00 PM -0.01 31.982 0.037 6.91 2.97 14.57
12/17/2020 4:15:00 PM -0.02 31.964 0.037 7.05 3 14.56
12/17/2020 4:30:00 PM -0.01 31.982 0.037 7.04 3.53 14.55
12/17/2020 4:45:00 PM -0.02 31.964 0.037 6.89 3.46 14.53
12/17/2020 5:00:00 PM -0.02 31.964 0.037 6.98 4.74 14.52
12/17/2020 5:15:00 PM -0.02 31.964 0.037 7.02 3.94 14.51
12/17/2020 5:30:00 PM -0.02 31.964 0.037 7.01 3.42 14.51
12/17/2020 5:45:00 PM -0.02 31.964 0.037 7 3.16 14.5
12/17/2020 6:00:00 PM -0.02 31.964 0.037 7.01 3.22 14.48
12/17/2020 6:15:00 PM -0.01 31.982 0.036 7 3.16 14.48
12/17/2020 6:30:00 PM -0.02 31.964 0.037 7 3.13 14.47
12/17/2020 6:45:00 PM -0.02 31.964 0.037 6.84 3.31 14.47
12/17/2020 7:00:00 PM -0.02 31.964 0.037 7 2.94 14.47
12/17/2020 7:15:00 PM -0.02 31.964 0.037 7 2.98 14.47
12/17/2020 7:30:00 PM -0.02 31.964 0.037 6.99 3.08 14.47
12/17/2020 7:45:00 PM -0.02 31.964 0.037 6.99 3.04 14.47
12/17/2020 8:00:00 PM -0.02 31.964 0.036 6.83 2.98 14.47
12/17/2020 8:15:00 PM -0.02 31.964 0.036 6.99 3.06 14.46
12/17/2020 8:30:00 PM -0.02 31.964 0.036 6.98 2.98 14.47
12/17/2020 8:45:00 PM -0.02 31.964 0.036 6.98 3.06 14.47
12/17/2020 9:00:00 PM -0.02 31.964 0.036 6.97 3.11 14.47
12/17/2020 9:15:00 PM -0.02 31.964 0.036 6.97 2.89 14.47
12/17/2020 9:30:00 PM -0.02 31.964 0.036 6.97 2.91 14.48
12/17/2020 9:45:00 PM -0.02 31.964 0.036 6.97 3.15 14.48
12/17/2020 10:00:00 PM -0.02 31.964 0.036 6.97 2.84 14.48
12/17/2020 10:15:00 PM -0.02 31.964 0.036 6.97 2.91 14.48
12/17/2020 10:30:00 PM -0.02 31.964 0.036 6.97 2.87 14.48
12/17/2020 10:45:00 PM -0.02 31.964 0.036 6.97 2.83 14.48
12/17/2020 11:00:00 PM -0.02 31.964 0.036 6.96 2.88 14.48
12/17/2020 11:15:00 PM -0.02 31.964 0.036 6.88 2.72 14.49
12/17/2020 11:30:00 PM -0.02 31.964 0.036 6.97 2.93 14.48
12/17/2020 11:45:00 PM -0.02 31.964 0.036 6.97 2.8 14.49
12/18/2020 12:00:00 AM -0.02 31.964 0.036 6.97 2.76 14.49
12/18/2020 12:15:00 AM -0.02 31.964 0.036 6.97 2.74 14.49
12/18/2020 12:30:00 AM -0.02 31.964 0.036 6.8 2.75 14.49
12/18/2020 12:45:00 AM -0.02 31.964 0.036 6.98 2.72 14.49
12/18/2020 1:00:00 AM -0.01 31.982 0.036 6.98 2.81 14.5
12/18/2020 1:15:00 AM -0.02 31.964 0.036 6.97 2.7 14.5
12/18/2020 1:30:00 AM -0.02 31.964 0.036 6.82 2.69 14.5
12/18/2020 1:45:00 AM -0.01 31.982 0.036 6.97 2.66 14.5
12/18/2020 2:00:00 AM -0.02 31.964 0.036 6.98 2.65 14.5
12/18/2020 2:15:00 AM -0.01 31.982 0.036 6.97 2.65 14.5
12/18/2020 2:30:00 AM -0.01 31.982 0.036 6.98 2.8 14.51
12/18/2020 2:45:00 AM -0.01 31.982 0.036 6.98 2.65 14.51
12/18/2020 3:00:00 AM -0.01 31.982 0.036 6.94 2.7 14.51
12/18/2020 3:15:00 AM -0.01 31.982 0.036 6.97 2.7 14.51
12/18/2020 3:30:00 AM -0.01 31.982 0.037 6.98 2.72 14.51
12/18/2020 3:45:00 AM -0.01 31.982 0.037 6.98 2.64 14.51
12/18/2020 4:00:00 AM -0.02 31.964 0.037 6.98 2.63 14.52
12/18/2020 4:15:00 AM -0.01 31.982 0.037 6.98 2.65 14.52
12/18/2020 4:30:00 AM -0.02 31.964 0.037 6.98 2.66 14.52
12/18/2020 4:45:00 AM -0.01 31.982 0.037 6.98 2.71 14.53
12/18/2020 5:00:00 AM -0.02 31.964 0.037 6.98 2.68 14.53
12/18/2020 5:15:00 AM -0.01 31.982 0.037 6.99 2.83 14.53
12/18/2020 5:30:00 AM -0.02 31.964 0.037 6.84 2.59 14.53
12/18/2020 5:45:00 AM -0.01 31.982 0.037 6.94 2.63 14.54
12/18/2020 6:00:00 AM -0.02 31.964 0.037 6.99 2.62 14.53
12/18/2020 6:15:00 AM -0.02 31.964 0.037 6.99 2.61 14.54
12/18/2020 6:30:00 AM -0.02 31.964 0.037 6.99 2.64 14.55
12/18/2020 6:45:00 AM -0.01 31.982 0.037 6.99 2.63 14.55
12/18/2020 7:00:00 AM -0.01 31.982 0.037 6.99 2.65 14.55
12/18/2020 7:15:00 AM -0.01 31.982 0.037 6.99 2.6 14.55
12/18/2020 7:30:00 AM -0.01 31.982 0.037 6.99 2.72 14.56
12/18/2020 7:45:00 AM -0.01 31.982 0.037 7 2.56 14.56
12/18/2020 8:00:00 AM -0.01 31.982 0.037 7 2.59 14.58
12/18/2020 8:15:00 AM -0.01 31.982 0.037 7 2.61 14.59
12/18/2020 8:30:00 AM -0.01 31.982 0.037 7 2.61 14.61
12/18/2020 8:45:00 AM -0.01 31.982 0.037 6.84 2.61 14.64
12/18/2020 9:00:00 AM -0.01 31.982 0.037 7.02 2.59 14.65
12/18/2020 9:15:00 AM -0.01 31.982 0.037 7.02 2.62 14.68
12/18/2020 9:30:00 AM -0.01 31.982 0.037 6.86 2.57 14.69
12/18/2020 9:45:00 AM -0.01 31.982 0.037 7.03 2.59 14.71
12/18/2020 10:00:00 AM -0.01 31.982 0.037 7.03 2.63 14.73
12/18/2020 10:15:00 AM -0.01 31.982 0.037 7.03 2.63 14.74
12/18/2020 10:30:00 AM -0.01 31.982 0.037 7.04 2.56 14.76
12/18/2020 10:45:00 AM -0.01 31.982 0.037 7.05 2.54 14.77
12/18/2020 11:00:00 AM -0.01 31.982 0.037 7.05 2.56 14.78
12/18/2020 11:15:00 AM -0.01 31.982 0.037 7.05 2.76 14.8
12/18/2020 11:30:00 AM -0.01 31.982 0.037 7.06 2.58 14.81
12/18/2020 11:45:00 AM 0 32 0.037 7.05 2.82 14.82
12/18/2020 12:00:00 PM 0.01 32.018 0.037 7.05 2.68 14.83
12/18/2020 12:15:00 PM 0.01 32.018 0.037 7.06 2.67 14.83
12/18/2020 12:30:00 PM 0.01 32.018 0.037 7.08 2.64 14.84
12/18/2020 12:45:00 PM 0.01 32.018 0.037 7.08 2.77 14.84
12/18/2020 1:00:00 PM 0.01 32.018 0.037 7.07 2.64 14.84
12/18/2020 1:15:00 PM 0.01 32.018 0.037 7.07 2.61 14.84
12/18/2020 1:30:00 PM 0.01 32.018 0.037 7.07 2.67 14.84
12/18/2020 1:45:00 PM 0.01 32.018 0.037 7.07 2.59 14.84
12/18/2020 2:00:00 PM 0.01 32.018 0.037 7.07 2.64 14.84
12/18/2020 2:15:00 PM 0 32 0.037 7.07 2.73 14.84
12/18/2020 2:30:00 PM 0 32 0.037 7.08 2.6 14.84
12/18/2020 2:45:00 PM 0 32 0.037 7.07 2.6 14.84
12/18/2020 3:00:00 PM 0 32 0.037 7.07 2.65 14.84
12/18/2020 3:15:00 PM 0 32 0.037 7.07 2.67 14.83
12/18/2020 3:30:00 PM 0 32 0.037 7.07 2.63 14.83
12/18/2020 3:45:00 PM 0 32 0.037 7.08 2.6 14.83
12/18/2020 4:00:00 PM -0.01 31.982 0.037 7.07 2.6 14.81
12/18/2020 4:15:00 PM -0.01 31.982 0.037 7.06 2.67 14.8
12/18/2020 4:30:00 PM -0.01 31.982 0.037 7.05 2.63 14.79
12/18/2020 4:45:00 PM -0.01 31.982 0.037 7.05 2.54 14.77
12/18/2020 5:00:00 PM -0.02 31.964 0.037 7.04 2.56 14.75
12/18/2020 5:15:00 PM -0.02 31.964 0.037 7.03 2.61 14.74
12/18/2020 5:30:00 PM -0.02 31.964 0.037 7.03 2.55 14.73
12/18/2020 5:45:00 PM -0.02 31.964 0.037 7.03 2.55 14.72
12/18/2020 6:00:00 PM -0.02 31.964 0.037 7.02 2.61 14.72
12/18/2020 6:15:00 PM -0.03 31.946 0.037 7.02 2.51 14.71
12/18/2020 6:30:00 PM -0.03 31.946 0.037 7.02 2.5 14.71
12/18/2020 6:45:00 PM -0.03 31.946 0.037 7.01 2.48 14.71
12/18/2020 7:00:00 PM -0.03 31.946 0.037 7.01 2.53 14.71
12/18/2020 7:15:00 PM -0.03 31.946 0.037 7 2.47 14.7
12/18/2020 7:30:00 PM -0.04 31.928 0.037 7.01 2.47 14.7
12/18/2020 7:45:00 PM -0.04 31.928 0.037 7 2.49 14.71
12/18/2020 8:00:00 PM -0.04 31.928 0.037 7 2.5 14.71
12/18/2020 8:15:00 PM -0.04 31.928 0.037 7 2.48 14.71
12/18/2020 8:30:00 PM -0.04 31.928 0.037 7 2.47 14.71
12/18/2020 8:45:00 PM -0.04 31.928 0.037 7 2.5 14.71
12/18/2020 9:00:00 PM -0.04 31.928 0.037 6.99 2.46 14.71
12/18/2020 9:15:00 PM -0.04 31.928 0.037 7 2.61 14.72
12/18/2020 9:30:00 PM -0.04 31.928 0.037 6.83 2.5 14.72
12/18/2020 9:45:00 PM -0.04 31.928 0.037 7.01 2.54 14.72
12/18/2020 10:00:00 PM -0.04 31.928 0.037 6.99 2.49 14.72
12/18/2020 10:15:00 PM -0.04 31.928 0.037 7 2.51 14.72
12/18/2020 10:30:00 PM -0.04 31.928 0.038 7 2.52 14.73
12/18/2020 10:45:00 PM -0.04 31.928 0.038 7 2.66 14.73
12/18/2020 11:00:00 PM -0.04 31.928 0.038 6.99 2.56 14.72
12/18/2020 11:15:00 PM -0.04 31.928 0.038 6.99 2.51 14.72
12/18/2020 11:30:00 PM -0.04 31.928 0.038 7 2.44 14.72
12/18/2020 11:45:00 PM -0.04 31.928 0.038 6.84 2.39 14.73
12/19/2020 12:00:00 AM -0.04 31.928 0.038 6.93 2.43 14.73
12/19/2020 12:15:00 AM -0.04 31.928 0.038 6.95 2.38 14.73
12/19/2020 12:30:00 AM -0.04 31.928 0.038 7 2.4 14.73
12/19/2020 12:45:00 AM -0.04 31.928 0.038 6.95 2.42 14.74
12/19/2020 1:00:00 AM -0.04 31.928 0.038 7.01 2.41 14.74
12/19/2020 1:15:00 AM -0.04 31.928 0.038 7.01 2.45 14.74
12/19/2020 1:30:00 AM -0.04 31.928 0.038 7.01 2.44 14.74
12/19/2020 1:45:00 AM -0.04 31.928 0.038 7.01 2.46 14.73
12/19/2020 2:00:00 AM -0.04 31.928 0.038 7.02 2.48 14.73
12/19/2020 2:15:00 AM -0.04 31.928 0.038 7.02 2.48 14.73
12/19/2020 2:30:00 AM -0.04 31.928 0.039 7.02 2.48 14.73
12/19/2020 2:45:00 AM -0.04 31.928 0.039 7.01 2.44 14.73
12/19/2020 3:00:00 AM -0.04 31.928 0.039 6.87 2.43 14.73
12/19/2020 3:15:00 AM -0.04 31.928 0.039 7.02 2.4 14.73
12/19/2020 3:30:00 AM -0.04 31.928 0.039 6.96 2.48 14.72
12/19/2020 3:45:00 AM -0.04 31.928 0.039 7.01 2.4 14.72
12/19/2020 4:00:00 AM -0.04 31.928 0.039 7.03 2.47 14.71
12/19/2020 4:15:00 AM -0.04 31.928 0.039 7 2.47 14.71
12/19/2020 4:30:00 AM -0.04 31.928 0.039 7.02 2.46 14.71
12/19/2020 4:45:00 AM -0.04 31.928 0.039 6.94 2.37 14.7
12/19/2020 5:00:00 AM -0.04 31.928 0.039 7.03 2.36 14.7
12/19/2020 5:15:00 AM -0.03 31.946 0.039 7.03 2.35 14.7
12/19/2020 5:30:00 AM -0.03 31.946 0.039 7.02 2.33 14.69
12/19/2020 5:45:00 AM -0.03 31.946 0.039 7.03 2.36 14.7
12/19/2020 6:00:00 AM -0.03 31.946 0.039 7.03 2.37 14.69
12/19/2020 6:15:00 AM -0.03 31.946 0.039 7.01 2.28 14.69
12/19/2020 6:30:00 AM -0.03 31.946 0.039 7.03 2.31 14.68
12/19/2020 6:45:00 AM -0.03 31.946 0.039 7.03 2.31 14.68
12/19/2020 7:00:00 AM -0.03 31.946 0.039 7.03 2.26 14.68
12/19/2020 7:15:00 AM -0.03 31.946 0.039 7.03 2.31 14.68
12/19/2020 7:30:00 AM -0.03 31.946 0.039 7.03 2.29 14.68
12/19/2020 7:45:00 AM -0.03 31.946 0.039 7.03 2.3 14.68
12/19/2020 8:00:00 AM -0.03 31.946 0.039 7.03 2.23 14.69
12/19/2020 8:15:00 AM -0.03 31.946 0.039 7.03 2.26 14.71
12/19/2020 8:30:00 AM -0.03 31.946 0.039 7.04 2.47 14.73
12/19/2020 8:45:00 AM -0.03 31.946 0.039 7.04 2.33 14.75
12/19/2020 9:00:00 AM -0.03 31.946 0.039 7.05 2.39 14.77
12/19/2020 9:15:00 AM -0.03 31.946 0.039 7.06 2.42 14.79
12/19/2020 9:30:00 AM -0.03 31.946 0.039 7.06 2.43 14.82
12/19/2020 9:45:00 AM -0.03 31.946 0.039 7.02 2.4 14.83
12/19/2020 10:00:00 AM -0.03 31.946 0.039 6.99 2.43 14.85
12/19/2020 10:15:00 AM -0.03 31.946 0.039 7.04 2.41 14.86
12/19/2020 10:30:00 AM -0.03 31.946 0.039 7.08 2.49 14.87
12/19/2020 10:45:00 AM -0.03 31.946 0.039 7.09 2.46 14.87
12/19/2020 11:00:00 AM -0.03 31.946 0.039 7.1 2.46 14.88
12/19/2020 11:15:00 AM -0.03 31.946 0.039 7.1 2.54 14.88
12/19/2020 11:30:00 AM -0.03 31.946 0.039 7.1 2.69 14.89
12/19/2020 11:45:00 AM -0.03 31.946 0.039 7.1 2.62 14.88
12/19/2020 12:00:00 PM -0.02 31.964 0.039 7.09 2.51 14.89
12/19/2020 12:15:00 PM -0.02 31.964 0.039 7.1 2.76 14.88
12/19/2020 12:30:00 PM -0.02 31.964 0.039 7.09 2.69 14.88
12/19/2020 12:45:00 PM -0.02 31.964 0.039 7.11 2.55 14.88
12/19/2020 1:00:00 PM -0.02 31.964 0.039 7.11 2.52 14.87
12/19/2020 1:15:00 PM -0.02 31.964 0.039 6.95 2.62 14.87
12/19/2020 1:30:00 PM -0.01 31.982 0.038 7.1 2.63 14.86
12/19/2020 1:45:00 PM -0.01 31.982 0.038 7.1 2.75 14.86
12/19/2020 2:00:00 PM -0.01 31.982 0.038 7.12 2.61 14.85
12/19/2020 2:15:00 PM -0.01 31.982 0.038 7.12 2.62 14.85
12/19/2020 2:30:00 PM -0.01 31.982 0.038 7.09 2.61 14.83
12/19/2020 2:45:00 PM -0.01 31.982 0.038 7.08 2.63 14.83
12/19/2020 3:00:00 PM -0.01 31.982 0.038 7.08 2.64 14.82
12/19/2020 3:15:00 PM -0.01 31.982 0.038 7.08 2.63 14.81
12/19/2020 3:30:00 PM -0.01 31.982 0.038 7.08 2.65 14.81
12/19/2020 3:45:00 PM -0.01 31.982 0.038 7.07 2.66 14.79
12/19/2020 4:00:00 PM -0.01 31.982 0.038 6.91 2.6 14.78
12/19/2020 4:15:00 PM -0.01 31.982 0.038 7.06 2.58 14.76
12/19/2020 4:30:00 PM -0.01 31.982 0.038 7.05 2.58 14.74
12/19/2020 4:45:00 PM -0.01 31.982 0.038 7.04 2.59 14.72
12/19/2020 5:00:00 PM -0.01 31.982 0.038 7.04 2.55 14.69
12/19/2020 5:15:00 PM -0.01 31.982 0.038 7.03 2.53 14.67
12/19/2020 5:30:00 PM -0.01 31.982 0.038 7.02 2.51 14.66
12/19/2020 5:45:00 PM -0.01 31.982 0.038 6.84 2.63 14.64
12/19/2020 6:00:00 PM -0.01 31.982 0.038 7.02 2.61 14.63
12/19/2020 6:15:00 PM -0.02 31.964 0.038 7.01 2.62 14.62
12/19/2020 6:30:00 PM -0.02 31.964 0.038 7.01 2.53 14.61
12/19/2020 6:45:00 PM -0.01 31.982 0.038 7.01 2.58 14.61
12/19/2020 7:00:00 PM -0.01 31.982 0.038 6.99 2.47 14.6
12/19/2020 7:15:00 PM -0.01 31.982 0.038 7.01 2.52 14.6
12/19/2020 7:30:00 PM -0.01 31.982 0.038 7 2.54 14.59
12/19/2020 7:45:00 PM -0.01 31.982 0.038 7 2.49 14.59
12/19/2020 8:00:00 PM -0.01 31.982 0.038 7.01 2.52 14.59
12/19/2020 8:15:00 PM -0.01 31.982 0.038 7.01 2.5 14.58
12/19/2020 8:30:00 PM -0.01 31.982 0.038 7 2.47 14.58
12/19/2020 8:45:00 PM -0.01 31.982 0.038 7 2.5 14.58
12/19/2020 9:00:00 PM -0.01 31.982 0.038 6.99 2.45 14.58
12/19/2020 9:15:00 PM -0.01 31.982 0.038 7 2.52 14.58
12/19/2020 9:30:00 PM -0.01 31.982 0.038 7 2.48 14.57
12/19/2020 9:45:00 PM -0.01 31.982 0.038 7 2.48 14.57
12/19/2020 10:00:00 PM -0.01 31.982 0.038 6.9 2.45 14.57
12/19/2020 10:15:00 PM -0.01 31.982 0.038 7 2.59 14.57
12/19/2020 10:30:00 PM -0.01 31.982 0.038 7.01 2.5 14.56
12/19/2020 10:45:00 PM -0.01 31.982 0.038 7.01 2.45 14.57
12/19/2020 11:00:00 PM -0.01 31.982 0.038 7.01 2.46 14.57
12/19/2020 11:15:00 PM -0.02 31.964 0.038 7.01 2.45 14.56
12/19/2020 11:30:00 PM -0.01 31.982 0.038 7.01 2.44 14.56
12/19/2020 11:45:00 PM -0.01 31.982 0.038 7 2.51 14.57
12/20/2020 12:00:00 AM -0.01 31.982 0.038 7 2.52 14.56
12/20/2020 12:15:00 AM -0.01 31.982 0.038 7 2.46 14.56
12/20/2020 12:30:00 AM -0.01 31.982 0.038 7.01 2.49 14.56
12/20/2020 12:45:00 AM -0.01 31.982 0.038 7.01 2.44 14.56
12/20/2020 1:00:00 AM -0.02 31.964 0.038 7 2.48 14.56
12/20/2020 1:15:00 AM -0.02 31.964 0.038 7.01 2.49 14.55
12/20/2020 1:30:00 AM -0.02 31.964 0.038 7.01 2.42 14.55
12/20/2020 1:45:00 AM -0.02 31.964 0.038 7.01 2.45 14.56
12/20/2020 2:00:00 AM -0.02 31.964 0.038 7.01 2.44 14.56
12/20/2020 2:15:00 AM -0.01 31.982 0.038 6.84 2.51 14.56
12/20/2020 2:30:00 AM -0.01 31.982 0.038 7.01 2.47 14.56
12/20/2020 2:45:00 AM -0.01 31.982 0.038 7.01 2.44 14.56
12/20/2020 3:00:00 AM -0.01 31.982 0.038 7.01 2.46 14.56
12/20/2020 3:15:00 AM -0.01 31.982 0.038 7.01 2.42 14.55
12/20/2020 3:30:00 AM -0.01 31.982 0.038 7.01 2.5 14.55
12/20/2020 3:45:00 AM -0.01 31.982 0.038 7.01 2.48 14.55
12/20/2020 4:00:00 AM -0.01 31.982 0.038 7.01 2.44 14.55
12/20/2020 4:15:00 AM -0.01 31.982 0.038 7.01 2.44 14.55
12/20/2020 4:30:00 AM -0.01 31.982 0.038 7.01 2.47 14.55
12/20/2020 4:45:00 AM -0.01 31.982 0.038 7.01 2.46 14.55
12/20/2020 5:00:00 AM -0.01 31.982 0.038 7.01 2.44 14.54
12/20/2020 5:15:00 AM -0.01 31.982 0.038 7.01 2.49 14.54
12/20/2020 5:30:00 AM -0.01 31.982 0.038 7.02 2.5 14.54
12/20/2020 5:45:00 AM -0.01 31.982 0.038 7.01 2.45 14.54
12/20/2020 6:00:00 AM -0.01 31.982 0.039 7.01 2.47 14.53
12/20/2020 6:15:00 AM -0.01 31.982 0.039 7.01 2.47 14.54
12/20/2020 6:30:00 AM -0.01 31.982 0.039 7.01 2.46 14.54
12/20/2020 6:45:00 AM -0.01 31.982 0.039 7.01 2.5 14.53
12/20/2020 7:00:00 AM -0.01 31.982 0.039 7.01 2.51 14.53
12/20/2020 7:15:00 AM -0.02 31.964 0.039 7.02 2.59 14.53
12/20/2020 7:30:00 AM -0.03 31.946 0.039 7 2.55 14.53
12/20/2020 7:45:00 AM -0.03 31.946 0.039 7.01 2.45 14.54
12/20/2020 8:00:00 AM -0.02 31.964 0.039 7.02 2.46 14.54
12/20/2020 8:15:00 AM -0.01 31.982 0.039 7.02 2.53 14.54
12/20/2020 8:30:00 AM -0.01 31.982 0.039 7.03 2.49 14.56
12/20/2020 8:45:00 AM -0.01 31.982 0.039 7.04 2.48 14.56
12/20/2020 9:00:00 AM -0.01 31.982 0.039 7.04 2.49 14.57
12/20/2020 9:15:00 AM -0.02 31.964 0.038 7.04 2.52 14.58
12/20/2020 9:30:00 AM -0.02 31.964 0.038 7.04 2.61 14.59
12/20/2020 9:45:00 AM -0.02 31.964 0.038 7.05 2.5 14.6
12/20/2020 10:00:00 AM 0 32 0.038 7.05 2.46 14.62
12/20/2020 10:15:00 AM 0.01 32.018 0.038 7.06 2.46 14.64
12/20/2020 10:30:00 AM 0.01 32.018 0.038 7.06 2.43 14.65
12/20/2020 10:45:00 AM 0.01 32.018 0.038 7.06 2.47 14.66
12/20/2020 11:00:00 AM 0.02 32.036 0.038 7.07 2.79 14.66
12/20/2020 11:15:00 AM 0.02 32.036 0.038 7.08 2.53 14.67
12/20/2020 11:30:00 AM 0.03 32.054 0.038 7.08 2.44 14.68
12/20/2020 11:45:00 AM 0.03 32.054 0.038 7.09 2.49 14.67
12/20/2020 12:00:00 PM 0.02 32.036 0.038 7.07 2.56 14.67
12/20/2020 12:15:00 PM 0.03 32.054 0.038 7.08 2.49 14.65
12/20/2020 12:30:00 PM 0.03 32.054 0.038 7.08 2.51 14.66
12/20/2020 12:45:00 PM 0.03 32.054 0.038 7.08 2.6 14.65
12/20/2020 1:00:00 PM 0.03 32.054 0.038 7.08 2.49 14.64
12/20/2020 1:15:00 PM 0.02 32.036 0.038 7.02 2.51 14.64
12/20/2020 1:30:00 PM 0.03 32.054 0.038 7.08 2.46 14.64
12/20/2020 1:45:00 PM 0.04 32.072 0.038 7.08 2.51 14.65
12/20/2020 2:00:00 PM 0.04 32.072 0.038 7.08 2.49 14.64
12/20/2020 2:15:00 PM 0.04 32.072 0.038 7.07 2.48 14.63
12/20/2020 2:30:00 PM 0.04 32.072 0.038 7.07 2.53 14.63
12/20/2020 2:45:00 PM 0.04 32.072 0.038 7.07 2.62 14.61
12/20/2020 3:00:00 PM 0.04 32.072 0.038 7.07 2.62 14.61
12/20/2020 3:15:00 PM 0.04 32.072 0.038 7.06 2.54 14.6
12/20/2020 3:30:00 PM 0.03 32.054 0.038 7.07 2.57 14.59
12/20/2020 3:45:00 PM 0.03 32.054 0.038 7.06 2.61 14.58
12/20/2020 4:00:00 PM 0.03 32.054 0.038 7.05 2.54 14.56
12/20/2020 4:15:00 PM 0.03 32.054 0.038 7.04 2.57 14.54
12/20/2020 4:30:00 PM 0.03 32.054 0.038 7.04 2.59 14.53
12/20/2020 4:45:00 PM 0.03 32.054 0.038 7.03 2.55 14.51
12/20/2020 5:00:00 PM 0.03 32.054 0.038 7.03 2.61 14.5
12/20/2020 5:15:00 PM 0.03 32.054 0.038 7.04 2.56 14.49
12/20/2020 5:30:00 PM 0.03 32.054 0.038 7.02 2.58 14.48
12/20/2020 5:45:00 PM 0.03 32.054 0.038 7.02 2.54 14.48
12/20/2020 6:00:00 PM 0.03 32.054 0.038 7.02 2.54 14.47
12/20/2020 6:15:00 PM 0.03 32.054 0.038 6.95 2.58 14.47
12/20/2020 6:30:00 PM 0.03 32.054 0.038 7.02 2.56 14.46
12/20/2020 6:45:00 PM 0.03 32.054 0.038 7.02 2.57 14.45
12/20/2020 7:00:00 PM 0.03 32.054 0.038 7.01 2.61 14.46
12/20/2020 7:15:00 PM 0.03 32.054 0.038 7.02 2.52 14.45
12/20/2020 7:30:00 PM 0.04 32.072 0.038 7.02 2.46 14.45
12/20/2020 7:45:00 PM 0.04 32.072 0.038 6.86 2.52 14.45
12/20/2020 8:00:00 PM 0.04 32.072 0.038 7.02 2.5 14.44
12/20/2020 8:15:00 PM 0.04 32.072 0.038 7 2.51 14.44
12/20/2020 8:30:00 PM 0.03 32.054 0.038 6.99 2.47 14.44
12/20/2020 8:45:00 PM 0.04 32.072 0.038 7 2.53 14.45
12/20/2020 9:00:00 PM 0.04 32.072 0.038 7 2.49 14.44
12/20/2020 9:15:00 PM 0.04 32.072 0.038 7.01 2.54 14.44
12/20/2020 9:30:00 PM 0.02 32.036 0.038 7.01 2.52 14.44
12/20/2020 9:45:00 PM 0.03 32.054 0.038 7 2.54 14.44
12/20/2020 10:00:00 PM 0.04 32.072 0.038 7 2.51 14.44
12/20/2020 10:15:00 PM 0.04 32.072 0.038 7.01 2.53 14.44
12/20/2020 10:30:00 PM 0.03 32.054 0.038 7 2.5 14.44
12/20/2020 10:45:00 PM 0.04 32.072 0.038 7 2.5 14.44
12/20/2020 11:00:00 PM 0.04 32.072 0.038 7 2.48 14.43
12/20/2020 11:15:00 PM 0.04 32.072 0.038 7 2.51 14.43
12/20/2020 11:30:00 PM 0.04 32.072 0.038 7.01 2.63 14.43
12/20/2020 11:45:00 PM 0.04 32.072 0.038 6.95 2.52 14.43
12/21/2020 12:00:00 AM 0.04 32.072 0.038 7.01 2.54 14.44
12/21/2020 12:15:00 AM 0.04 32.072 0.038 7 2.5 14.43
12/21/2020 12:30:00 AM 0.04 32.072 0.038 7 2.6 14.42
12/21/2020 12:45:00 AM 0.04 32.072 0.038 7.01 2.49 14.43
12/21/2020 1:00:00 AM 0.04 32.072 0.038 7 2.54 14.43
12/21/2020 1:15:00 AM 0.04 32.072 0.038 7.01 2.5 14.42
12/21/2020 1:30:00 AM 0.04 32.072 0.038 7.01 2.57 14.42
12/21/2020 1:45:00 AM 0.04 32.072 0.038 7.01 2.5 14.42
12/21/2020 2:00:00 AM 0.04 32.072 0.038 7.02 2.59 14.42
12/21/2020 2:15:00 AM 0.05 32.09 0.038 7.02 2.54 14.42
12/21/2020 2:30:00 AM 0.05 32.09 0.038 7 2.56 14.42
12/21/2020 2:45:00 AM 0.05 32.09 0.038 7.01 2.55 14.42
12/21/2020 3:00:00 AM 0.05 32.09 0.038 7.01 2.52 14.42
12/21/2020 3:15:00 AM 0.04 32.072 0.038 7.01 2.54 14.42
12/21/2020 3:30:00 AM 0.04 32.072 0.038 7.01 2.5 14.41
12/21/2020 3:45:00 AM 0.04 32.072 0.038 7.01 2.5 14.42
12/21/2020 4:00:00 AM 0.03 32.054 0.038 7.01 2.58 14.41
12/21/2020 4:15:00 AM 0.03 32.054 0.038 7.01 2.58 14.41
12/21/2020 4:30:00 AM 0.03 32.054 0.038 7.02 2.58 14.41
12/21/2020 4:45:00 AM 0.03 32.054 0.038 7.01 2.55 14.41
12/21/2020 5:00:00 AM 0.02 32.036 0.038 7.02 2.55 14.4
12/21/2020 5:15:00 AM 0.02 32.036 0.038 7.01 2.54 14.4
12/21/2020 5:30:00 AM 0.03 32.054 0.038 6.97 2.5 14.41
12/21/2020 5:45:00 AM 0.03 32.054 0.038 7.02 2.53 14.41
12/21/2020 6:00:00 AM 0.04 32.072 0.038 6.91 2.49 14.41
12/21/2020 6:15:00 AM 0.04 32.072 0.038 7.01 2.58 14.4
12/21/2020 6:30:00 AM 0.04 32.072 0.038 7.01 2.55 14.4
12/21/2020 6:45:00 AM 0.04 32.072 0.038 7.02 2.57 14.4
12/21/2020 7:00:00 AM 0.04 32.072 0.038 7.03 2.5 14.4
12/21/2020 7:15:00 AM 0.03 32.054 0.038 7.02 2.56 14.39
12/21/2020 7:30:00 AM 0.03 32.054 0.038 7.02 2.64 14.39
12/21/2020 7:45:00 AM 0.03 32.054 0.038 7.02 2.55 14.4
12/21/2020 8:00:00 AM 0.03 32.054 0.038 6.88 2.52 14.41
12/21/2020 8:15:00 AM 0.04 32.072 0.038 7.03 2.53 14.43
12/21/2020 8:30:00 AM 0.04 32.072 0.038 7.04 2.53 14.44
12/21/2020 8:45:00 AM 0.05 32.09 0.038 7.03 2.5 14.47
12/21/2020 9:00:00 AM 0.05 32.09 0.038 7.04 2.57 14.48
12/21/2020 9:15:00 AM 0.06 32.108 0.038 7.05 2.54 14.5
12/21/2020 9:30:00 AM 0.07 32.126 0.038 7.06 2.53 14.51
12/21/2020 9:45:00 AM 0.09 32.162 0.038 7.07 2.53 14.52
12/21/2020 10:00:00 AM 0.09 32.162 0.038 7.07 2.53 14.52
12/21/2020 10:15:00 AM 0.1 32.18 0.038 7.08 2.53 14.52
12/21/2020 10:30:00 AM 0.1 32.18 0.038 7.08 2.47 14.52
12/21/2020 10:45:00 AM 0.11 32.198 0.038 7.09 2.56 14.53
12/21/2020 11:00:00 AM 0.12 32.216 0.038 7.1 2.53 14.53
12/21/2020 11:15:00 AM 0.14 32.252 0.038 7.11 2.55 14.53
12/21/2020 11:30:00 AM 0.14 32.252 0.038 7.11 2.6 14.51
12/21/2020 11:45:00 AM 0.15 32.27 0.038 6.95 2.66 14.5
12/21/2020 12:00:00 PM 0.17 32.306 0.038 7.1 2.55 14.49
12/21/2020 12:15:00 PM 0.17 32.306 0.038 7.1 2.52 14.48
12/21/2020 12:30:00 PM 0.18 32.324 0.038 7.1 2.54 14.47
12/21/2020 12:45:00 PM 0.19 32.342 0.038 7.1 2.42 14.46
12/21/2020 1:00:00 PM 0.2 32.36 0.037 7.09 2.5 14.45
12/21/2020 1:15:00 PM 0.22 32.396 0.037 7.1 2.46 14.44
12/21/2020 1:30:00 PM 0.23 32.414 0.037 7.1 2.47 14.42
12/21/2020 1:45:00 PM 0.24 32.432 0.037 7.1 2.5 14.4
12/21/2020 2:00:00 PM 0.27 32.486 0.037 7.1 2.48 14.38
12/21/2020 2:15:00 PM 0.29 32.522 0.037 7.11 2.48 14.36
12/21/2020 2:30:00 PM 0.31 32.558 0.037 7.1 2.49 14.34
12/21/2020 2:45:00 PM 0.34 32.612 0.037 7.1 2.56 14.32
12/21/2020 3:00:00 PM 0.37 32.666 0.037 7.1 2.53 14.29
12/21/2020 3:15:00 PM 0.4 32.72 0.037 7.1 2.48 14.26
12/21/2020 3:30:00 PM 0.43 32.774 0.037 7.1 2.5 14.23
12/21/2020 3:45:00 PM 0.47 32.846 0.037 7.1 2.46 14.18
12/21/2020 4:00:00 PM 0.51 32.918 0.037 7.09 2.55 14.16
12/21/2020 4:15:00 PM 0.56 33.008 0.037 6.92 2.47 14.11
12/21/2020 4:30:00 PM 0.6 33.08 0.037 7.08 2.46 14.08
12/21/2020 4:45:00 PM 0.64 33.152 0.037 7.07 2.52 14.04
12/21/2020 5:00:00 PM 0.68 33.224 0.037 7.06 2.45 14
12/21/2020 5:15:00 PM 0.73 33.314 0.037 7.06 2.45 13.97
12/21/2020 5:30:00 PM 0.77 33.386 0.037 7.06 2.5 13.94
12/21/2020 5:45:00 PM 0.81 33.458 0.037 6.96 2.5 13.92
12/21/2020 6:00:00 PM 0.88 33.584 0.037 7.06 2.56 13.9
12/21/2020 6:15:00 PM 0.93 33.674 0.038 6.96 2.46 13.88
12/21/2020 6:30:00 PM 0.97 33.746 0.038 7.05 2.49 13.86
12/21/2020 6:45:00 PM 1.01 33.818 0.038 7.05 2.58 13.84
12/21/2020 7:00:00 PM 1.05 33.89 0.038 7.05 2.45 13.83
12/21/2020 7:15:00 PM 1.09 33.962 0.038 7.05 2.51 13.81
12/21/2020 7:30:00 PM 1.14 34.052 0.038 7.05 2.46 13.8
12/21/2020 7:45:00 PM 1.16 34.088 0.038 7.05 2.48 13.79
12/21/2020 8:00:00 PM 1.22 34.196 0.038 7.05 2.49 13.77
12/21/2020 8:15:00 PM 1.25 34.25 0.038 7.05 2.47 13.76
12/21/2020 8:30:00 PM 1.27 34.286 0.038 7.05 2.44 13.74
12/21/2020 8:45:00 PM 1.31 34.358 0.038 7.05 2.46 13.74
12/21/2020 9:00:00 PM 1.32 34.376 0.038 7.05 2.45 13.73
12/21/2020 9:15:00 PM 1.37 34.466 0.038 7.04 2.47 13.72
12/21/2020 9:30:00 PM 1.4 34.52 0.038 7.05 2.48 13.71
12/21/2020 9:45:00 PM 1.42 34.556 0.038 7.06 2.47 13.71
12/21/2020 10:00:00 PM 1.44 34.592 0.038 7.06 2.43 13.7
12/21/2020 10:15:00 PM 1.48 34.664 0.038 7.05 2.5 13.69
12/21/2020 10:30:00 PM 1.49 34.682 0.038 7.06 2.43 13.67
12/21/2020 10:45:00 PM 1.51 34.718 0.038 6.9 2.42 13.68
12/21/2020 11:00:00 PM 1.52 34.736 0.038 7.06 2.46 13.67
12/21/2020 11:15:00 PM 1.56 34.808 0.038 7.06 2.43 13.66
12/21/2020 11:30:00 PM 1.57 34.826 0.038 7.06 2.42 13.65
12/21/2020 11:45:00 PM 1.61 34.898 0.038 7.06 2.45 13.64
12/22/2020 12:00:00 AM 1.62 34.916 0.038 7.05 2.42 13.64
12/22/2020 12:15:00 AM 1.64 34.952 0.038 7.05 2.43 13.63
12/22/2020 12:30:00 AM 1.65 34.97 0.038 7.06 2.41 13.62
12/22/2020 12:45:00 AM 1.68 35.024 0.038 6.96 2.4 13.62
12/22/2020 1:00:00 AM 1.67 35.006 0.038 7.06 2.43 13.62
12/22/2020 1:15:00 AM 1.7 35.06 0.038 7.07 2.37 13.61
12/22/2020 1:30:00 AM 1.71 35.078 0.038 7.07 2.39 13.6
12/22/2020 1:45:00 AM 1.73 35.114 0.038 7.06 2.43 13.6
12/22/2020 2:00:00 AM 1.74 35.132 0.038 7.06 2.46 13.6
12/22/2020 2:15:00 AM 1.74 35.132 0.038 7.06 2.45 13.59
12/22/2020 2:30:00 AM 1.75 35.15 0.038 7.06 2.4 13.6
12/22/2020 2:45:00 AM 1.75 35.15 0.038 7.05 2.44 13.59
12/22/2020 3:00:00 AM 1.76 35.168 0.038 7.05 2.45 13.59
12/22/2020 3:15:00 AM 1.77 35.186 0.038 7.05 2.46 13.59
12/22/2020 3:30:00 AM 1.78 35.204 0.038 7.05 2.41 13.59
12/22/2020 3:45:00 AM 1.79 35.222 0.038 7.06 2.41 13.59
12/22/2020 4:00:00 AM 1.81 35.258 0.038 7.05 2.42 13.58
12/22/2020 4:15:00 AM 1.81 35.258 0.038 7.06 2.43 13.58
12/22/2020 4:30:00 AM 1.82 35.276 0.038 7.05 2.43 13.58
12/22/2020 4:45:00 AM 1.83 35.294 0.038 7.04 2.49 13.58
12/22/2020 5:00:00 AM 1.83 35.294 0.038 7.05 2.38 13.58
12/22/2020 5:15:00 AM 1.85 35.33 0.039 7.05 2.38 13.58
12/22/2020 5:30:00 AM 1.85 35.33 0.039 7.05 2.43 13.58
12/22/2020 5:45:00 AM 1.86 35.348 0.039 7.05 2.48 13.58
12/22/2020 6:00:00 AM 1.86 35.348 0.039 7.05 2.43 13.58
12/22/2020 6:15:00 AM 1.87 35.366 0.039 7.05 2.41 13.58
12/22/2020 6:30:00 AM 1.87 35.366 0.039 7.06 2.43 13.59
12/22/2020 6:45:00 AM 1.88 35.384 0.039 7.06 2.38 13.59
12/22/2020 7:00:00 AM 1.88 35.384 0.039 7.06 2.4 13.59
12/22/2020 7:15:00 AM 1.89 35.402 0.039 7.06 2.37 13.59
12/22/2020 7:30:00 AM 1.9 35.42 0.039 7.05 2.42 13.59
12/22/2020 7:45:00 AM 1.9 35.42 0.039 7.04 2.38 13.6
12/22/2020 8:00:00 AM 1.92 35.456 0.039 7.06 2.35 13.61
12/22/2020 8:15:00 AM 1.93 35.474 0.039 7.05 2.43 13.62
12/22/2020 8:30:00 AM 1.94 35.492 0.039 7.06 2.41 13.65
12/22/2020 8:45:00 AM 1.96 35.528 0.038 7.07 2.47 13.68
12/22/2020 9:00:00 AM 1.98 35.564 0.038 7.07 2.42 13.71
12/22/2020 9:15:00 AM 1.99 35.582 0.038 7.09 2.4 13.71
12/22/2020 9:30:00 AM 2 35.6 0.038 7.09 2.41 13.72
12/22/2020 9:45:00 AM 2.02 35.636 0.038 7.1 2.39 13.73
12/22/2020 10:00:00 AM 1.96 35.528 0.038 7.09 2.4 13.76
12/22/2020 10:15:00 AM 2.03 35.654 0.038 7.1 2.44 13.77
12/22/2020 10:30:00 AM 2.09 35.762 0.038 7.11 2.38 13.77
12/22/2020 10:45:00 AM 2.14 35.852 0.038 7.11 2.45 13.79
12/22/2020 11:00:00 AM 2.17 35.906 0.038 7.12 2.41 13.78
12/22/2020 11:15:00 AM 2.22 35.996 0.038 7.14 2.36 13.79
12/22/2020 11:30:00 AM 2.25 36.05 0.038 7.14 2.37 13.79
12/22/2020 11:45:00 AM 2.26 36.068 0.038 7.14 2.39 13.77
12/22/2020 12:00:00 PM 2.28 36.104 0.038 7.06 2.39 13.77
12/22/2020 12:15:00 PM 0 32 0 0 0 0
12/22/2020 12:30:00 PM 2.27 36.086 0.037 7.25 2.66 13.58
12/22/2020 12:45:00 PM 2.31 36.158 0.036 7.24 2.44 13.59
12/22/2020 1:00:00 PM 2.33 36.194 0.036 7.22 2.41 13.58
12/22/2020 1:15:00 PM 2.35 36.23 0.036 7.21 2.49 13.58
12/22/2020 1:30:00 PM 2.37 36.266 0.036 7.2 2.52 13.59
12/22/2020 1:45:00 PM 2.4 36.32 0.036 7.19 2.39 13.58
12/22/2020 2:00:00 PM 2.44 36.392 0.036 7.2 2.4 13.57
12/22/2020 2:15:00 PM 2.47 36.446 0.036 7.19 2.47 13.55
12/22/2020 2:30:00 PM 2.49 36.482 0.036 7.18 2.63 13.52
12/22/2020 2:45:00 PM 2.5 36.5 0.036 7.17 2.44 13.49
12/22/2020 3:00:00 PM 2.51 36.518 0.036 7.17 2.44 13.48
12/22/2020 3:15:00 PM 2.53 36.554 0.036 7.18 2.44 13.47
12/22/2020 3:30:00 PM 2.54 36.572 0.036 7.17 2.42 13.47
12/22/2020 3:45:00 PM 2.55 36.59 0.036 7.18 2.36 13.45
12/22/2020 4:00:00 PM 2.55 36.59 0.036 7.17 2.57 13.44
12/22/2020 4:15:00 PM 2.55 36.59 0.036 7.17 2.33 13.43
12/22/2020 4:30:00 PM 2.55 36.59 0.036 7.16 2.31 13.42
12/22/2020 4:45:00 PM 2.54 36.572 0.036 7.15 2.45 13.38
12/22/2020 5:00:00 PM 2.54 36.572 0.036 7.14 2.5 13.37
12/22/2020 5:15:00 PM 2.54 36.572 0.036 7.13 2.46 13.35
12/22/2020 5:30:00 PM 2.54 36.572 0.036 7.12 2.41 13.33
12/22/2020 5:45:00 PM 2.53 36.554 0.036 7.12 2.46 13.33
12/22/2020 6:00:00 PM 2.54 36.572 0.036 7.12 2.36 13.33
12/22/2020 6:15:00 PM 2.53 36.554 0.036 7.12 2.43 13.32
12/22/2020 6:30:00 PM 2.53 36.554 0.036 7.13 2.52 13.32
12/22/2020 6:45:00 PM 2.54 36.572 0.036 7.12 2.4 13.32
12/22/2020 7:00:00 PM 2.53 36.554 0.036 7.12 2.44 13.33
12/22/2020 7:15:00 PM 2.54 36.572 0.036 7.12 2.45 13.32
12/22/2020 7:30:00 PM 2.54 36.572 0.036 7.11 2.48 13.32
12/22/2020 7:45:00 PM 2.54 36.572 0.036 7.12 2.4 13.33
12/22/2020 8:00:00 PM 2.54 36.572 0.036 7.11 2.35 13.33
12/22/2020 8:15:00 PM 2.54 36.572 0.036 7.1 2.45 13.33
12/22/2020 8:30:00 PM 2.54 36.572 0.036 7.11 2.38 13.33
12/22/2020 8:45:00 PM 2.54 36.572 0.036 7.11 2.35 13.34
12/22/2020 9:00:00 PM 2.55 36.59 0.036 7.11 2.35 13.34
12/22/2020 9:15:00 PM 2.55 36.59 0.036 7.12 2.44 13.33
12/22/2020 9:30:00 PM 2.55 36.59 0.036 7.11 2.52 13.34
12/22/2020 9:45:00 PM 2.54 36.572 0.036 7.11 2.47 13.34
12/22/2020 10:00:00 PM 2.54 36.572 0.036 7.11 2.5 13.35
12/22/2020 10:15:00 PM 2.54 36.572 0.036 7.11 2.46 13.35
12/22/2020 10:30:00 PM 2.53 36.554 0.037 7.11 2.34 13.35
12/22/2020 10:45:00 PM 2.52 36.536 0.036 7.11 2.33 13.36
12/22/2020 11:00:00 PM 2.5 36.5 0.036 7.12 2.37 13.36
12/22/2020 11:15:00 PM 2.48 36.464 0.036 7.11 2.35 13.37
12/22/2020 11:30:00 PM 2.45 36.41 0.037 7.12 2.39 13.38
12/22/2020 11:45:00 PM 2.42 36.356 0.037 7.12 2.32 13.39
12/23/2020 12:00:00 AM 2.4 36.32 0.037 7.12 2.41 13.39
12/23/2020 12:15:00 AM 2.37 36.266 0.037 7.12 2.32 13.42
12/23/2020 12:30:00 AM 2.35 36.23 0.037 7.12 2.37 13.42
12/23/2020 12:45:00 AM 2.34 36.212 0.037 7.12 2.44 13.43
12/23/2020 1:00:00 AM 2.33 36.194 0.037 7.12 2.38 13.44
12/23/2020 1:15:00 AM 2.32 36.176 0.037 7.11 2.4 13.44
12/23/2020 1:30:00 AM 2.31 36.158 0.037 7.12 2.34 13.47
12/23/2020 1:45:00 AM 2.29 36.122 0.037 7.12 2.37 13.46
12/23/2020 2:00:00 AM 2.28 36.104 0.037 7.11 2.33 13.48
12/23/2020 2:15:00 AM 2.26 36.068 0.037 7.12 2.23 13.48
12/23/2020 2:30:00 AM 2.23 36.014 0.037 7.12 2.42 13.5
12/23/2020 2:45:00 AM 2.2 35.96 0.037 7.12 2.39 13.51
12/23/2020 3:00:00 AM 2.19 35.942 0.037 7.12 2.38 13.51
12/23/2020 3:15:00 AM 2.18 35.924 0.037 7.12 2.3 13.52
12/23/2020 3:30:00 AM 2.17 35.906 0.037 7.12 2.36 13.52
12/23/2020 3:45:00 AM 2.17 35.906 0.037 7.12 2.35 13.53
12/23/2020 4:00:00 AM 2.14 35.852 0.037 7.12 2.37 13.53
12/23/2020 4:15:00 AM 2.11 35.798 0.037 7.11 2.4 13.54
12/23/2020 4:30:00 AM 2.08 35.744 0.037 7.12 2.42 13.54
12/23/2020 4:45:00 AM 2.05 35.69 0.037 7.12 2.24 13.56
12/23/2020 5:00:00 AM 2.02 35.636 0.037 7.12 2.29 13.57
12/23/2020 5:15:00 AM 1.99 35.582 0.037 7.11 2.31 13.59
12/23/2020 5:30:00 AM 1.96 35.528 0.037 7.12 2.41 13.61
12/23/2020 5:45:00 AM 1.93 35.474 0.037 7.11 2.33 13.61
12/23/2020 6:00:00 AM 1.9 35.42 0.037 7.13 2.41 13.63
12/23/2020 6:15:00 AM 1.87 35.366 0.037 7.13 2.34 13.63
12/23/2020 6:30:00 AM 1.82 35.276 0.037 7.12 2.33 13.65
12/23/2020 6:45:00 AM 1.81 35.258 0.037 7.11 2.41 13.66
12/23/2020 7:00:00 AM 1.78 35.204 0.037 7.12 2.32 13.68
12/23/2020 7:15:00 AM 1.75 35.15 0.037 7.13 2.36 13.7
12/23/2020 7:30:00 AM 1.72 35.096 0.037 7.13 2.35 13.72
12/23/2020 7:45:00 AM 1.69 35.042 0.037 7.12 2.28 13.74
12/23/2020 8:00:00 AM 1.66 34.988 0.037 7.13 2.26 13.78
12/23/2020 8:15:00 AM 1.63 34.934 0.037 7.13 2.3 13.82
12/23/2020 8:30:00 AM 1.62 34.916 0.037 7.15 2.28 13.86
12/23/2020 8:45:00 AM 1.6 34.88 0.037 7.16 2.38 13.89
12/23/2020 9:00:00 AM 1.59 34.862 0.037 7.16 2.31 13.92
12/23/2020 9:15:00 AM 1.58 34.844 0.037 7.17 2.34 13.95
12/23/2020 9:30:00 AM 1.59 34.862 0.037 7.18 2.28 13.97
12/23/2020 9:45:00 AM 1.59 34.862 0.037 7.18 2.34 13.99
12/23/2020 10:00:00 AM 1.6 34.88 0.037 7.18 2.43 14.01
12/23/2020 10:15:00 AM 1.63 34.934 0.037 7.19 2.3 14.02
12/23/2020 10:30:00 AM 1.66 34.988 0.037 7.2 2.32 14.01
12/23/2020 10:45:00 AM 1.7 35.06 0.037 7.2 2.28 14.02
12/23/2020 11:00:00 AM 1.74 35.132 0.037 7.19 2.45 14.01
12/23/2020 11:15:00 AM 1.8 35.24 0.037 7.2 2.23 13.99
12/23/2020 11:30:00 AM 1.88 35.384 0.037 7.2 2.3 13.97
12/23/2020 11:45:00 AM 1.97 35.546 0.037 7.21 2.27 13.93
12/23/2020 12:00:00 PM 2.04 35.672 0.037 7.21 2.29 13.91
12/23/2020 12:15:00 PM 2.09 35.762 0.037 7.21 2.33 13.89
12/23/2020 12:30:00 PM 2.15 35.87 0.037 7.21 2.21 13.88
12/23/2020 12:45:00 PM 2.22 35.996 0.037 7.21 2.26 13.85
12/23/2020 1:00:00 PM 2.27 36.086 0.037 7.21 2.2 13.82
12/23/2020 1:15:00 PM 2.29 36.122 0.037 7.21 2.24 13.81
12/23/2020 1:30:00 PM 2.34 36.212 0.037 7.21 2.24 13.78
12/23/2020 1:45:00 PM 2.38 36.284 0.037 7.22 2.21 13.74
12/23/2020 2:00:00 PM 2.43 36.374 0.036 7.22 2.3 13.71
12/23/2020 2:15:00 PM 2.47 36.446 0.036 7.22 2.3 13.69
12/23/2020 2:30:00 PM 2.5 36.5 0.036 7.22 2.2 13.65
12/23/2020 2:45:00 PM 2.54 36.572 0.036 7.22 2.3 13.63
12/23/2020 3:00:00 PM 2.57 36.626 0.036 7.22 2.32 13.61
12/23/2020 3:15:00 PM 2.58 36.644 0.036 7.21 2.33 13.58
12/23/2020 3:30:00 PM 2.58 36.644 0.036 7.2 2.27 13.55
12/23/2020 3:45:00 PM 2.57 36.626 0.036 7.2 2.27 13.52
12/23/2020 4:00:00 PM 2.56 36.608 0.036 7.18 2.36 13.51
12/23/2020 4:15:00 PM 2.54 36.572 0.036 7.18 2.34 13.49
12/23/2020 4:30:00 PM 2.52 36.536 0.036 7.17 2.51 13.47
12/23/2020 4:45:00 PM 2.5 36.5 0.036 7.16 2.35 13.44
12/23/2020 5:00:00 PM 2.48 36.464 0.036 7.15 2.3 13.42
12/23/2020 5:15:00 PM 2.46 36.428 0.037 7.14 2.24 13.42
12/23/2020 5:30:00 PM 2.44 36.392 0.037 7.14 2.28 13.4
12/23/2020 5:45:00 PM 2.43 36.374 0.037 7.14 2.25 13.39
12/23/2020 6:00:00 PM 2.41 36.338 0.037 7.13 2.31 13.4
12/23/2020 6:15:00 PM 2.39 36.302 0.037 7.12 2.34 13.4
12/23/2020 6:30:00 PM 2.37 36.266 0.037 7.13 2.38 13.4
12/23/2020 6:45:00 PM 2.36 36.248 0.037 7.13 2.29 13.4
12/23/2020 7:00:00 PM 2.35 36.23 0.037 7.12 2.35 13.41
12/23/2020 7:15:00 PM 2.33 36.194 0.037 7.12 2.39 13.4
12/23/2020 7:30:00 PM 2.32 36.176 0.037 7.12 2.43 13.41
12/23/2020 7:45:00 PM 2.31 36.158 0.037 7.12 2.33 13.41
12/23/2020 8:00:00 PM 2.3 36.14 0.037 7.12 2.31 13.41
12/23/2020 8:15:00 PM 2.29 36.122 0.037 7.12 2.31 13.41
12/23/2020 8:30:00 PM 2.28 36.104 0.037 7.12 2.26 13.41
12/23/2020 8:45:00 PM 2.27 36.086 0.037 7.12 2.32 13.42
12/23/2020 9:00:00 PM 2.25 36.05 0.037 7.13 2.31 13.42
12/23/2020 9:15:00 PM 2.25 36.05 0.037 7.12 2.31 13.42
12/23/2020 9:30:00 PM 2.23 36.014 0.037 7.12 2.33 13.42
12/23/2020 9:45:00 PM 2.23 36.014 0.037 7.12 2.35 13.42
12/23/2020 10:00:00 PM 2.22 35.996 0.037 7.12 2.24 13.42
12/23/2020 10:15:00 PM 2.22 35.996 0.037 7.12 2.34 13.43
12/23/2020 10:30:00 PM 2.21 35.978 0.037 7.12 2.29 13.43
12/23/2020 10:45:00 PM 2.2 35.96 0.037 7.13 2.42 13.44
12/23/2020 11:00:00 PM 2.18 35.924 0.037 7.12 2.36 13.44
12/23/2020 11:15:00 PM 2.17 35.906 0.037 7.12 2.33 13.44
12/23/2020 11:30:00 PM 2.16 35.888 0.037 7.13 2.35 13.44
12/23/2020 11:45:00 PM 2.15 35.87 0.037 7.13 2.4 13.45
12/24/2020 12:00:00 AM 2.13 35.834 0.037 7.13 2.3 13.45
12/24/2020 12:15:00 AM 2.11 35.798 0.037 7.13 2.33 13.46
12/24/2020 12:30:00 AM 2.09 35.762 0.037 7.13 2.29 13.46
12/24/2020 12:45:00 AM 2.06 35.708 0.037 7.13 2.39 13.47
12/24/2020 1:00:00 AM 2.04 35.672 0.037 7.13 2.33 13.47
12/24/2020 1:15:00 AM 2.04 35.672 0.037 7.13 2.47 13.47
12/24/2020 1:30:00 AM 2.03 35.654 0.037 7.13 2.4 13.48
12/24/2020 1:45:00 AM 2.01 35.618 0.038 7.13 2.25 13.48
12/24/2020 2:00:00 AM 1.99 35.582 0.037 7.13 2.34 13.48
12/24/2020 2:15:00 AM 1.98 35.564 0.037 7.13 2.4 13.5
12/24/2020 2:30:00 AM 1.96 35.528 0.037 7.13 2.3 13.48
12/24/2020 2:45:00 AM 1.94 35.492 0.037 7.13 2.33 13.49
12/24/2020 3:00:00 AM 1.91 35.438 0.038 7.13 2.4 13.51
12/24/2020 3:15:00 AM 1.89 35.402 0.037 7.13 2.37 13.52
12/24/2020 3:30:00 AM 1.87 35.366 0.038 7.13 2.31 13.52
12/24/2020 3:45:00 AM 1.85 35.33 0.038 7.13 2.32 13.53
12/24/2020 4:00:00 AM 1.83 35.294 0.038 7.13 2.32 13.54
12/24/2020 4:15:00 AM 1.81 35.258 0.038 7.13 2.31 13.54
12/24/2020 4:30:00 AM 1.8 35.24 0.038 7.12 2.42 13.55
12/24/2020 4:45:00 AM 1.8 35.24 0.038 7.13 2.28 13.55
12/24/2020 5:00:00 AM 1.8 35.24 0.038 7.13 2.29 13.56
12/24/2020 5:15:00 AM 1.8 35.24 0.038 7.13 2.3 13.56
12/24/2020 5:30:00 AM 1.81 35.258 0.038 7.14 2.36 13.56
12/24/2020 5:45:00 AM 1.81 35.258 0.038 7.13 2.46 13.56
12/24/2020 6:00:00 AM 1.81 35.258 0.038 7.13 2.29 13.55
12/24/2020 6:15:00 AM 1.82 35.276 0.038 7.14 2.29 13.54
12/24/2020 6:30:00 AM 1.83 35.294 0.038 7.13 2.26 13.54
12/24/2020 6:45:00 AM 1.83 35.294 0.038 7.13 2.33 13.54
12/24/2020 7:00:00 AM 1.84 35.312 0.038 7.13 2.36 13.52
12/24/2020 7:15:00 AM 1.85 35.33 0.038 7.13 2.3 13.52
12/24/2020 7:30:00 AM 1.87 35.366 0.038 7.14 2.34 13.52
12/24/2020 7:45:00 AM 1.88 35.384 0.038 7.13 2.28 13.52
12/24/2020 8:00:00 AM 1.89 35.402 0.037 7.13 2.35 13.51
12/24/2020 8:15:00 AM 1.9 35.42 0.037 7.13 2.37 13.52
12/24/2020 8:30:00 AM 1.92 35.456 0.037 7.13 2.44 13.52
12/24/2020 8:45:00 AM 1.93 35.474 0.037 7.14 2.34 13.52
12/24/2020 9:00:00 AM 1.94 35.492 0.037 7.14 2.42 13.53
12/24/2020 9:15:00 AM 1.96 35.528 0.037 7.14 2.44 13.53
12/24/2020 9:30:00 AM 1.97 35.546 0.037 7.14 2.52 13.54
12/24/2020 9:45:00 AM 1.98 35.564 0.037 7.14 2.42 13.54
12/24/2020 10:00:00 AM 2 35.6 0.037 7.14 2.43 13.53
12/24/2020 10:15:00 AM 2.02 35.636 0.037 7.14 2.59 13.55
12/24/2020 10:30:00 AM 2.04 35.672 0.037 7.14 2.45 13.54
12/24/2020 10:45:00 AM 2.06 35.708 0.037 7.14 2.51 13.54
12/24/2020 11:00:00 AM 2.07 35.726 0.037 7.13 2.53 13.54
12/24/2020 11:15:00 AM 2.09 35.762 0.036 7.14 2.51 13.53
12/24/2020 11:30:00 AM 2.1 35.78 0.036 7.13 2.61 13.53
12/24/2020 11:45:00 AM 2.11 35.798 0.036 7.13 2.75 13.52
12/24/2020 12:00:00 PM 2.13 35.834 0.036 7.13 2.89 13.51
12/24/2020 12:15:00 PM 2.16 35.888 0.036 7.12 2.84 13.5
12/24/2020 12:30:00 PM 2.17 35.906 0.036 7.13 3.21 13.48
12/24/2020 12:45:00 PM 2.18 35.924 0.037 7.12 3.12 13.46
12/24/2020 1:00:00 PM 2.19 35.942 0.036 7.12 3.52 13.46
12/24/2020 1:15:00 PM 2.19 35.942 0.036 7.12 3.51 13.44
12/24/2020 1:30:00 PM 2.19 35.942 0.036 7.11 4.29 13.4
12/24/2020 1:45:00 PM 2.18 35.924 0.036 7.11 4.48 13.39
12/24/2020 2:00:00 PM 2.16 35.888 0.036 7.09 5.12 13.37
12/24/2020 2:15:00 PM 2.14 35.852 0.036 7.09 6.04 13.36
12/24/2020 2:30:00 PM 2.09 35.762 0.036 7.08 6.38 13.34
12/24/2020 2:45:00 PM 2.03 35.654 0.036 7.07 8.31 13.34
12/24/2020 3:00:00 PM 1.98 35.564 0.035 7.06 8.61 13.33
12/24/2020 3:15:00 PM 1.93 35.474 0.035 7.05 10.63 13.32
12/24/2020 3:30:00 PM 1.87 35.366 0.034 7.04 11.27 13.32
12/24/2020 3:45:00 PM 1.82 35.276 0.034 7.03 14.44 13.33
12/24/2020 4:00:00 PM 1.76 35.168 0.033 7.02 24.89 13.35
12/24/2020 4:15:00 PM 1.68 35.024 0.032 6.99 16.36 13.38
12/24/2020 4:30:00 PM 1.62 34.916 0.032 6.99 17.06 13.42
12/24/2020 4:45:00 PM 1.62 34.916 0.032 6.99 22.17 13.44
12/24/2020 5:00:00 PM 1.65 34.97 0.031 6.97 23.75 13.43
12/24/2020 5:15:00 PM 1.72 35.096 0.031 6.96 26.33 13.41
12/24/2020 5:30:00 PM 1.8 35.24 0.031 6.95 23.1 13.38
12/24/2020 5:45:00 PM 1.88 35.384 0.031 6.96 30.54 13.35
12/24/2020 6:00:00 PM 1.94 35.492 0.03 6.95 38.88 13.34
12/24/2020 6:15:00 PM 1.99 35.582 0.03 6.92 36.16 13.32
12/24/2020 6:30:00 PM 2.06 35.708 0.03 6.91 40.61 13.3
12/24/2020 6:45:00 PM 2.16 35.888 0.029 6.91 50.01 13.27
12/24/2020 7:00:00 PM 2.24 36.032 0.029 6.89 45.99 13.25
12/24/2020 7:15:00 PM 2.33 36.194 0.029 6.87 75.09 13.21
12/24/2020 7:30:00 PM 2.38 36.284 0.028 6.86 66.52 13.18
12/24/2020 7:45:00 PM 2.46 36.428 0.028 6.84 69.85 13.15
12/24/2020 8:00:00 PM 2.52 36.536 0.028 6.84 57.92 13.12
12/24/2020 8:15:00 PM 2.61 36.698 0.028 6.81 60.61 13.09
12/24/2020 8:30:00 PM 2.67 36.806 0.028 6.79 66.92 13.05
12/24/2020 8:45:00 PM 2.82 37.076 0.028 6.81 71.59 13.02
12/24/2020 9:00:00 PM 2.92 37.256 0.028 6.8 70.18 12.98
12/24/2020 9:15:00 PM 2.99 37.382 0.028 6.79 68.25 12.94
12/24/2020 9:30:00 PM 3.06 37.508 0.028 6.78 94.88 12.9
12/24/2020 9:45:00 PM 3.18 37.724 0.028 6.79 75.76 12.87
12/24/2020 10:00:00 PM 3.28 37.904 0.028 6.79 65.19 12.84
12/24/2020 10:15:00 PM 3.39 38.102 0.028 6.79 64.89 12.8
12/24/2020 10:30:00 PM 3.52 38.336 0.027 6.78 56.7 12.76
12/24/2020 10:45:00 PM 3.62 38.516 0.027 6.78 55.53 12.73
12/24/2020 11:00:00 PM 3.7 38.66 0.027 6.76 68.51 12.7
12/24/2020 11:15:00 PM 3.76 38.768 0.028 6.76 80.1 12.69
12/24/2020 11:30:00 PM 3.83 38.894 0.027 6.75 66.69 12.64
12/24/2020 11:45:00 PM 3.88 38.984 0.028 6.76 62.23 12.62
12/25/2020 12:00:00 AM 3.94 39.092 0.027 6.7 80.04 12.59
12/25/2020 12:15:00 AM 3.98 39.164 0.027 6.72 77.87 12.57
12/25/2020 12:30:00 AM 4.04 39.272 0.027 6.71 92.06 12.55
12/25/2020 12:45:00 AM 4.1 39.38 0.027 6.71 81.47 12.53
12/25/2020 1:00:00 AM 4.14 39.452 0.027 6.71 75.5 12.51
12/25/2020 1:15:00 AM 4.17 39.506 0.027 6.74 81 12.51
12/25/2020 1:30:00 AM 4.17 39.506 0.02 6.71 88.1 12.5
12/25/2020 1:45:00 AM 4.15 39.47 0.027 6.7 102.97 12.51
12/25/2020 2:00:00 AM 4.14 39.452 0.027 6.71 113.09 12.53
12/25/2020 2:15:00 AM 4.13 39.434 0.026 6.68 119.04 12.52
12/25/2020 2:30:00 AM 4.09 39.362 0.026 6.64 179.35 12.53
12/25/2020 2:45:00 AM 4.12 39.416 0.026 6.65 140.44 12.53
12/25/2020 3:00:00 AM 4.16 39.488 0.026 6.64 148.53 12.53
12/25/2020 3:15:00 AM 4.13 39.434 0.027 6.59 147.11 12.54
12/25/2020 3:30:00 AM 4.12 39.416 0.026 6.62 186.98 12.54
12/25/2020 3:45:00 AM 4.17 39.506 0.026 6.62 135.91 12.53
12/25/2020 4:00:00 AM 4.21 39.578 0.026 6.62 138.17 12.53
12/25/2020 4:15:00 AM 4.26 39.668 0.026 6.59 151.67 12.51
12/25/2020 4:30:00 AM 4.3 39.74 0.026 6.6 132.59 12.51
12/25/2020 4:45:00 AM 4.34 39.812 0.026 6.59 146.8 12.49
12/25/2020 5:00:00 AM 4.39 39.902 0.026 6.6 88 12.48
12/25/2020 5:15:00 AM 4.44 39.992 0.026 6.53 120.19 12.46
12/25/2020 5:30:00 AM 4.5 40.1 0.026 6.61 147.79 12.45
12/25/2020 5:45:00 AM 4.57 40.226 0.026 6.64 109.54 12.43
12/25/2020 6:00:00 AM 4.64 40.352 0.026 6.61 97.19 12.4
12/25/2020 6:15:00 AM 4.68 40.424 0.025 6.65 90.44 12.4
12/25/2020 6:30:00 AM 4.71 40.478 0.025 6.64 103.58 12.39
12/25/2020 6:45:00 AM 4.75 40.55 0.024 6.6 77.74 12.38
12/25/2020 7:00:00 AM 4.79 40.622 0.024 6.63 77.78 12.38
12/25/2020 7:15:00 AM 4.83 40.694 0.023 6.63 78.2 12.37
12/25/2020 7:30:00 AM 4.86 40.748 0.023 6.64 59.73 12.36
12/25/2020 7:45:00 AM 4.88 40.784 0.022 6.59 70.65 12.36
12/25/2020 8:00:00 AM 4.9 40.82 0.022 6.65 63.01 12.36
12/25/2020 8:15:00 AM 4.92 40.856 0.022 6.63 62.49 12.35
12/25/2020 8:30:00 AM 4.93 40.874 0.021 6.62 766.7 12.35
12/25/2020 8:45:00 AM 4.95 40.91 0.021 6.64 67.55 12.34
12/25/2020 9:00:00 AM 4.96 40.928 0.021 6.66 46.96 12.34
12/25/2020 9:15:00 AM 4.97 40.946 0.02 6.63 48.91 12.34
12/25/2020 9:30:00 AM 4.99 40.982 0.02 6.67 44.42 12.34
12/25/2020 9:45:00 AM 5 41 0.02 6.68 44.99 12.34
12/25/2020 10:00:00 AM 5.02 41.036 0.019 6.68 58.13 12.33
12/25/2020 10:15:00 AM 5.03 41.054 0.019 6.66 111.28 12.33
12/25/2020 10:30:00 AM 5.04 41.072 0.019 6.69 39.46 12.32
12/25/2020 10:45:00 AM 5.05 41.09 0.019 6.69 37.25 12.32
12/25/2020 11:00:00 AM 5.06 41.108 0.018 6.67 38.73 12.32
12/25/2020 11:15:00 AM 5.07 41.126 0.018 6.66 37.37 12.31
12/25/2020 11:30:00 AM 5.09 41.162 0.018 6.66 37 12.31
12/25/2020 11:45:00 AM 5.1 41.18 0.018 6.72 27.04 12.3
12/25/2020 12:00:00 PM 5.11 41.198 0.018 6.71 30.97 12.3
12/25/2020 12:15:00 PM 5.12 41.216 0.017 6.71 31.91 12.29
12/25/2020 12:30:00 PM 5.13 41.234 0.017 6.71 33.87 12.29
12/25/2020 12:45:00 PM 5.14 41.252 0.017 6.71 27.72 12.28
12/25/2020 1:00:00 PM 5.15 41.27 0.017 6.72 28.17 12.28
12/25/2020 1:15:00 PM 5.15 41.27 0.016 6.68 28.04 12.28
12/25/2020 1:30:00 PM 5.15 41.27 0.016 6.72 21.56 12.28
12/25/2020 1:45:00 PM 5.15 41.27 0.016 6.72 24.33 12.28
12/25/2020 2:00:00 PM 5.15 41.27 0.016 6.74 30.27 12.28
12/25/2020 2:15:00 PM 5.15 41.27 0.015 6.72 20.74 12.28
12/25/2020 2:30:00 PM 5.15 41.27 0.015 6.72 25.29 12.28
12/25/2020 2:45:00 PM 5.15 41.27 0.015 6.7 19.67 12.28
12/25/2020 3:00:00 PM 5.14 41.252 0.014 6.75 27.25 12.28
12/25/2020 3:15:00 PM 5.14 41.252 0.014 6.73 20.32 12.29
12/25/2020 3:30:00 PM 5.13 41.234 0.013 6.72 28.05 12.29
12/25/2020 3:45:00 PM 5.12 41.216 0.013 6.72 22.84 12.29
12/25/2020 4:00:00 PM 5.1 41.18 0.012 6.74 19.9 12.29
12/25/2020 4:15:00 PM 5.09 41.162 0.012 6.74 20.17 12.3
12/25/2020 4:30:00 PM 5.08 41.144 0.012 6.74 24.03 12.31
12/25/2020 4:45:00 PM 5.05 41.09 0.013 6.7 17.11 12.32
12/25/2020 5:00:00 PM 5.03 41.054 0.014 6.73 23.91 12.33
12/25/2020 5:15:00 PM 5 41 0.027 6.7 192.44 12.34
12/25/2020 5:30:00 PM 4.98 40.964 0.028 6.7 55.12 12.35
12/25/2020 5:45:00 PM 4.95 40.91 0.028 6.71 14.75 12.36
12/25/2020 6:00:00 PM 4.93 40.874 0.028 6.72 31.34 12.37
12/25/2020 6:15:00 PM 4.91 40.838 0.028 6.69 40.02 12.39
12/25/2020 6:30:00 PM 4.88 40.784 0.028 6.75 56.39 12.39
12/25/2020 6:45:00 PM 4.85 40.73 0.028 6.77 60.38 12.4
12/25/2020 7:00:00 PM 4.82 40.676 0.028 6.75 40.02 12.42
12/25/2020 7:15:00 PM 4.8 40.64 0.028 6.7 33.38 12.44
12/25/2020 7:30:00 PM 4.77 40.586 0.027 6.69 15.66 12.44
12/25/2020 7:45:00 PM 4.75 40.55 0.027 6.7 14.96 12.45
12/25/2020 8:00:00 PM 4.72 40.496 0.027 6.74 18.72 12.46
12/25/2020 8:15:00 PM 4.7 40.46 0.027 6.74 13.99 12.47
12/25/2020 8:30:00 PM 4.67 40.406 0.027 6.72 14 12.48
12/25/2020 8:45:00 PM 4.65 40.37 0.027 6.73 15.74 12.48
12/25/2020 9:00:00 PM 4.62 40.316 0.027 6.73 15.47 12.49
12/25/2020 9:15:00 PM 4.6 40.28 0.027 6.72 12.84 12.5
12/25/2020 9:30:00 PM 4.58 40.244 0.027 6.73 13.73 12.51
12/25/2020 9:45:00 PM 4.55 40.19 0.027 6.75 13.77 12.52
12/25/2020 10:00:00 PM 4.53 40.154 0.028 6.74 14.85 12.52
12/25/2020 10:15:00 PM 4.5 40.1 0.027 6.75 11.39 12.53
12/25/2020 10:30:00 PM 4.47 40.046 0.027 6.77 14.69 12.54
12/25/2020 10:45:00 PM 4.45 40.01 0.027 6.74 13.23 12.56
12/25/2020 11:00:00 PM 4.42 39.956 0.027 6.74 13.66 12.56
12/25/2020 11:15:00 PM 4.4 39.92 0.027 6.76 12.35 12.57
12/25/2020 11:30:00 PM 4.38 39.884 0.027 6.77 13.46 12.58
12/25/2020 11:45:00 PM 4.35 39.83 0.027 6.77 13.14 12.59
12/26/2020 12:00:00 AM 4.34 39.812 0.027 6.76 13.89 12.6
12/26/2020 12:15:00 AM 4.31 39.758 0.028 6.75 13.34 12.61
12/26/2020 12:30:00 AM 4.29 39.722 0.027 6.74 13.59 12.61
12/26/2020 12:45:00 AM 4.27 39.686 0.028 6.78 12.45 12.61
12/26/2020 1:00:00 AM 4.25 39.65 0.028 6.76 13.39 12.63
12/26/2020 1:15:00 AM 4.23 39.614 0.028 6.76 12.24 12.64
12/26/2020 1:30:00 AM 4.21 39.578 0.028 6.78 12.86 12.64
12/26/2020 1:45:00 AM 4.18 39.524 0.028 6.78 11.71 12.65
12/26/2020 2:00:00 AM 4.15 39.47 0.028 6.74 13.57 12.65
12/26/2020 2:15:00 AM 4.12 39.416 0.028 6.77 11.81 12.66
12/26/2020 2:30:00 AM 4.1 39.38 0.028 6.75 12.37 12.68
12/26/2020 2:45:00 AM 4.06 39.308 0.028 6.77 11.41 12.69
12/26/2020 3:00:00 AM 4.05 39.29 0.028 6.78 12.74 12.69
12/26/2020 3:15:00 AM 4.03 39.254 0.027 6.79 11.47 12.7
12/26/2020 3:30:00 AM 4.02 39.236 0.028 6.79 12.35 12.7
12/26/2020 3:45:00 AM 4 39.2 0.028 6.78 10.57 12.71
12/26/2020 4:00:00 AM 3.99 39.182 0.028 6.77 12 12.72
12/26/2020 4:15:00 AM 3.98 39.164 0.028 6.78 10.81 12.72
12/26/2020 4:30:00 AM 3.97 39.146 0.028 6.79 10.53 12.73
12/26/2020 4:45:00 AM 3.95 39.11 0.028 6.79 10.49 12.73
12/26/2020 5:00:00 AM 3.94 39.092 0.028 6.79 11.41 12.74
12/26/2020 5:15:00 AM 3.92 39.056 0.028 6.79 10.46 12.74
12/26/2020 5:30:00 AM 3.91 39.038 0.028 6.76 11.83 12.74
12/26/2020 5:45:00 AM 3.89 39.002 0.028 6.79 11.56 12.76
12/26/2020 6:00:00 AM 3.87 38.966 0.028 6.76 11.78 12.76
12/26/2020 6:15:00 AM 3.86 38.948 0.028 6.78 11.11 12.76
12/26/2020 6:30:00 AM 3.85 38.93 0.028 6.79 10.11 12.77
12/26/2020 6:45:00 AM 3.83 38.894 0.028 6.79 11.29 12.78
12/26/2020 7:00:00 AM 3.82 38.876 0.028 6.79 10.7 12.79
12/26/2020 7:15:00 AM 3.81 38.858 0.028 6.79 10.67 12.79
12/26/2020 7:30:00 AM 3.79 38.822 0.028 6.77 10.08 12.8
12/26/2020 7:45:00 AM 3.78 38.804 0.028 6.8 10.72 12.81
12/26/2020 8:00:00 AM 3.77 38.786 0.028 6.77 10.62 12.82
12/26/2020 8:15:00 AM 3.77 38.786 0.028 6.78 10.15 12.83
12/26/2020 8:30:00 AM 3.76 38.768 0.028 6.81 9.37 12.84
12/26/2020 8:45:00 AM 3.76 38.768 0.028 6.79 9.7 12.84
12/26/2020 9:00:00 AM 3.76 38.768 0.028 6.8 10.74 12.84
12/26/2020 9:15:00 AM 3.76 38.768 0.028 6.79 9.93 12.85
12/26/2020 9:30:00 AM 3.76 38.768 0.028 6.82 9.64 12.86
12/26/2020 9:45:00 AM 3.76 38.768 0.028 6.8 9.99 12.86
12/26/2020 10:00:00 AM 3.76 38.768 0.028 6.81 10.46 12.86
12/26/2020 10:15:00 AM 3.78 38.804 0.028 6.8 9.53 12.86
12/26/2020 10:30:00 AM 3.78 38.804 0.028 6.82 9.68 12.86
12/26/2020 10:45:00 AM 3.8 38.84 0.028 6.8 10.08 12.86
12/26/2020 11:00:00 AM 3.81 38.858 0.028 6.8 10.04 12.86
12/26/2020 11:15:00 AM 3.83 38.894 0.028 6.83 9.36 12.87
12/26/2020 11:30:00 AM 3.85 38.93 0.029 6.82 8.96 12.87
12/26/2020 11:45:00 AM 3.88 38.984 0.028 6.83 9.08 12.85
12/26/2020 12:00:00 PM 3.91 39.038 0.028 6.82 8.81 12.85
12/26/2020 12:15:00 PM 3.93 39.074 0.028 6.83 8.58 12.84
12/26/2020 12:30:00 PM 3.95 39.11 0.028 6.83 8.59 12.83
12/26/2020 12:45:00 PM 3.98 39.164 0.028 6.83 8.74 12.81
12/26/2020 1:00:00 PM 4 39.2 0.028 6.83 8.69 12.81
12/26/2020 1:15:00 PM 4.02 39.236 0.028 6.82 8.53 12.8
12/26/2020 1:30:00 PM 4.05 39.29 0.028 6.82 8.47 12.79
12/26/2020 1:45:00 PM 4.06 39.308 0.028 6.81 8.24 12.78
12/26/2020 2:00:00 PM 4.07 39.326 0.028 6.82 9.08 12.77
12/26/2020 2:15:00 PM 4.09 39.362 0.028 6.82 8.85 12.77
12/26/2020 2:30:00 PM 4.1 39.38 0.028 6.82 9.44 12.76
12/26/2020 2:45:00 PM 4.11 39.398 0.028 6.81 8.98 12.75
12/26/2020 3:00:00 PM 4.11 39.398 0.028 6.83 8.64 12.75
12/26/2020 3:15:00 PM 4.11 39.398 0.028 6.83 8.78 12.75
12/26/2020 3:30:00 PM 4.1 39.38 0.028 6.84 9.04 12.75
12/26/2020 3:45:00 PM 4.09 39.362 0.028 6.82 9.78 12.75
12/26/2020 4:00:00 PM 4.08 39.344 0.028 6.83 8.9 12.76
12/26/2020 4:15:00 PM 4.07 39.326 0.028 6.83 9.3 12.75
12/26/2020 4:30:00 PM 4.06 39.308 0.028 6.85 9.02 12.75
12/26/2020 4:45:00 PM 4.04 39.272 0.028 6.82 8.31 12.75
12/26/2020 5:00:00 PM 4.02 39.236 0.028 6.82 9.25 12.76
12/26/2020 5:15:00 PM 4.01 39.218 0.028 6.82 8.93 12.76
12/26/2020 5:30:00 PM 3.99 39.182 0.028 6.83 9.16 12.77
12/26/2020 5:45:00 PM 3.97 39.146 0.028 6.82 8.96 12.77
12/26/2020 6:00:00 PM 3.96 39.128 0.028 6.8 8.76 12.78
12/26/2020 6:15:00 PM 3.94 39.092 0.028 6.82 8.14 12.79
12/26/2020 6:30:00 PM 3.93 39.074 0.028 6.81 8.41 12.79
12/26/2020 6:45:00 PM 3.91 39.038 0.028 6.79 8.29 12.8
12/26/2020 7:00:00 PM 3.9 39.02 0.028 6.81 8.23 12.81
12/26/2020 7:15:00 PM 3.88 38.984 0.028 6.81 7.94 12.82
12/26/2020 7:30:00 PM 3.87 38.966 0.028 6.84 9.12 12.83
12/26/2020 7:45:00 PM 3.86 38.948 0.028 6.82 8.46 12.83
12/26/2020 8:00:00 PM 3.85 38.93 0.028 6.83 8.23 12.84
12/26/2020 8:15:00 PM 3.83 38.894 0.028 6.82 7.92 12.85
12/26/2020 8:30:00 PM 3.82 38.876 0.028 6.82 7.8 12.85
12/26/2020 8:45:00 PM 3.81 38.858 0.028 6.81 8.46 12.85
12/26/2020 9:00:00 PM 3.8 38.84 0.028 6.84 8.36 12.86
12/26/2020 9:15:00 PM 3.8 38.84 0.028 6.84 7.89 12.86
12/26/2020 9:30:00 PM 3.79 38.822 0.028 6.84 8.08 12.87
12/26/2020 9:45:00 PM 3.79 38.822 0.028 6.86 8.38 12.87
12/26/2020 10:00:00 PM 3.78 38.804 0.028 6.83 7.61 12.88
12/26/2020 10:15:00 PM 3.77 38.786 0.028 6.83 8.42 12.88
12/26/2020 10:30:00 PM 3.76 38.768 0.028 6.84 7.55 12.89
12/26/2020 10:45:00 PM 3.76 38.768 0.028 6.84 7.74 12.89
12/26/2020 11:00:00 PM 3.76 38.768 0.028 6.82 7.31 12.89
12/26/2020 11:15:00 PM 3.75 38.75 0.028 6.83 7.42 12.89
12/26/2020 11:30:00 PM 3.75 38.75 0.028 6.8 7.59 12.89
12/26/2020 11:45:00 PM 3.74 38.732 0.028 6.82 7.49 12.91
12/27/2020 12:00:00 AM 3.74 38.732 0.028 6.84 7.64 12.9
12/27/2020 12:15:00 AM 3.74 38.732 0.028 6.83 6.89 12.9
12/27/2020 12:30:00 AM 3.74 38.732 0.028 6.86 6.93 12.91
12/27/2020 12:45:00 AM 3.73 38.714 0.028 6.84 7.32 12.91
12/27/2020 1:00:00 AM 3.73 38.714 0.028 6.84 7.14 12.92
12/27/2020 1:15:00 AM 3.73 38.714 0.028 6.84 7.44 12.91
12/27/2020 1:30:00 AM 3.73 38.714 0.028 6.83 7.1 12.92
12/27/2020 1:45:00 AM 3.73 38.714 0.028 6.86 7.35 12.91
12/27/2020 2:00:00 AM 3.74 38.732 0.028 6.84 6.79 12.91
12/27/2020 2:15:00 AM 3.74 38.732 0.028 6.82 7.5 12.92
12/27/2020 2:30:00 AM 3.74 38.732 0.028 6.84 6.91 12.92
12/27/2020 2:45:00 AM 3.74 38.732 0.028 6.85 7.32 12.92
12/27/2020 3:00:00 AM 3.74 38.732 0.028 6.86 7.46 12.93
12/27/2020 3:15:00 AM 3.74 38.732 0.028 6.84 7.26 12.93
12/27/2020 3:30:00 AM 3.74 38.732 0.028 6.82 6.83 12.92
12/27/2020 3:45:00 AM 3.74 38.732 0.028 6.85 7.03 12.93
12/27/2020 4:00:00 AM 3.75 38.75 0.028 6.85 7.56 12.93
12/27/2020 4:15:00 AM 3.75 38.75 0.028 6.84 7.02 12.93
12/27/2020 4:30:00 AM 3.75 38.75 0.028 6.84 7.14 12.94
12/27/2020 4:45:00 AM 3.76 38.768 0.028 6.86 7.2 12.94
12/27/2020 5:00:00 AM 3.75 38.75 0.028 6.85 7 12.93
12/27/2020 5:15:00 AM 3.76 38.768 0.028 6.83 6.66 12.93
12/27/2020 5:30:00 AM 3.77 38.786 0.028 6.84 6.59 12.93
12/27/2020 5:45:00 AM 3.77 38.786 0.028 6.84 6.42 12.94
12/27/2020 6:00:00 AM 3.77 38.786 0.028 6.84 6.58 12.93
12/27/2020 6:15:00 AM 3.77 38.786 0.028 6.85 6.94 12.94
12/27/2020 6:30:00 AM 3.77 38.786 0.028 6.84 6.56 12.95
12/27/2020 6:45:00 AM 3.78 38.804 0.028 6.83 6.78 12.95
12/27/2020 7:00:00 AM 3.78 38.804 0.028 6.86 6.41 12.95
12/27/2020 7:15:00 AM 3.78 38.804 0.028 6.86 7.3 12.95
12/27/2020 7:30:00 AM 3.79 38.822 0.028 6.85 6.52 12.94
12/27/2020 7:45:00 AM 3.79 38.822 0.028 6.86 7.04 12.94
12/27/2020 8:00:00 AM 3.8 38.84 0.028 6.83 6.66 12.95
12/27/2020 8:15:00 AM 3.8 38.84 0.028 6.85 6.47 12.95
12/27/2020 8:30:00 AM 3.81 38.858 0.028 6.85 6.13 12.96
12/27/2020 8:45:00 AM 3.81 38.858 0.028 6.84 6.42 12.96
12/27/2020 9:00:00 AM 3.81 38.858 0.028 6.87 6.97 12.97
12/27/2020 9:15:00 AM 3.81 38.858 0.028 6.85 6.53 12.97
12/27/2020 9:30:00 AM 3.82 38.876 0.028 6.86 6.54 12.98
12/27/2020 9:45:00 AM 3.83 38.894 0.028 6.86 6.23 12.98
12/27/2020 10:00:00 AM 3.84 38.912 0.028 6.85 6.11 12.98
12/27/2020 10:15:00 AM 3.86 38.948 0.029 6.87 5.69 12.98
12/27/2020 10:30:00 AM 3.89 39.002 0.028 6.87 5.94 12.98
12/27/2020 10:45:00 AM 3.92 39.056 0.028 6.87 5.81 12.98
12/27/2020 11:00:00 AM 3.97 39.146 0.028 6.89 5.84 12.97
12/27/2020 11:15:00 AM 4.02 39.236 0.028 6.89 5.52 12.95
12/27/2020 11:30:00 AM 4.06 39.308 0.028 6.88 6.02 12.94
12/27/2020 11:45:00 AM 4.11 39.398 0.028 6.9 6.09 12.93
12/27/2020 12:00:00 PM 4.16 39.488 0.028 6.9 5.82 12.91
12/27/2020 12:15:00 PM 4.21 39.578 0.028 6.88 5.76 12.89
12/27/2020 12:30:00 PM 4.27 39.686 0.028 6.89 5.72 12.87
12/27/2020 12:45:00 PM 4.34 39.812 0.028 6.88 5.7 12.85
12/27/2020 1:00:00 PM 4.39 39.902 0.028 6.89 5.66 12.83
12/27/2020 1:15:00 PM 4.42 39.956 0.028 6.9 5.49 12.81
12/27/2020 1:30:00 PM 4.46 40.028 0.028 6.9 5.98 12.79
12/27/2020 1:45:00 PM 4.5 40.1 0.029 6.91 5.36 12.77
12/27/2020 2:00:00 PM 4.52 40.136 0.028 6.89 5.58 12.75
12/27/2020 2:15:00 PM 4.54 40.172 0.028 6.89 5.3 12.75
12/27/2020 2:30:00 PM 4.57 40.226 0.028 6.9 5.39 12.73
12/27/2020 2:45:00 PM 4.58 40.244 0.028 6.91 5.39 12.72
12/27/2020 3:00:00 PM 4.61 40.298 0.028 6.88 5.37 12.72
12/27/2020 3:15:00 PM 4.63 40.334 0.029 6.89 5.22 12.71
12/27/2020 3:30:00 PM 4.64 40.352 0.028 6.89 5.6 12.7
12/27/2020 3:45:00 PM 4.66 40.388 0.028 6.89 5.17 12.69
12/27/2020 4:00:00 PM 4.66 40.388 0.028 6.9 5.26 12.68
12/27/2020 4:15:00 PM 4.66 40.388 0.028 6.9 5.43 12.67
12/27/2020 4:30:00 PM 4.65 40.37 0.028 6.88 5.34 12.67
12/27/2020 4:45:00 PM 4.64 40.352 0.028 6.87 5.65 12.66
12/27/2020 5:00:00 PM 4.62 40.316 0.028 6.88 5.4 12.66
12/27/2020 5:15:00 PM 4.6 40.28 0.028 6.86 5.42 12.66
12/27/2020 5:30:00 PM 4.58 40.244 0.029 6.87 5.29 12.66
12/27/2020 5:45:00 PM 4.55 40.19 0.029 6.87 5.16 12.67
12/27/2020 6:00:00 PM 4.52 40.136 0.028 6.87 5.35 12.67
12/27/2020 6:15:00 PM 4.49 40.082 0.029 6.88 5.45 12.68
12/27/2020 6:30:00 PM 4.47 40.046 0.029 6.88 5.39 12.69
12/27/2020 6:45:00 PM 4.45 40.01 0.029 6.88 5.21 12.7
12/27/2020 7:00:00 PM 4.42 39.956 0.029 6.88 5.34 12.71
12/27/2020 7:15:00 PM 4.39 39.902 0.029 6.87 5.1 12.73
12/27/2020 7:30:00 PM 4.37 39.866 0.029 6.85 5.4 12.73
12/27/2020 7:45:00 PM 4.34 39.812 0.029 6.86 5.41 12.74
12/27/2020 8:00:00 PM 4.31 39.758 0.029 6.87 5.18 12.75
12/27/2020 8:15:00 PM 4.28 39.704 0.029 6.89 5.34 12.76
12/27/2020 8:30:00 PM 4.26 39.668 0.029 6.87 5.01 12.77
12/27/2020 8:45:00 PM 4.23 39.614 0.029 6.86 5.01 12.78
12/27/2020 9:00:00 PM 4.21 39.578 0.029 6.86 5.13 12.78
12/27/2020 9:15:00 PM 4.19 39.542 0.029 6.89 5.1 12.8
12/27/2020 9:30:00 PM 4.16 39.488 0.029 6.86 5.27 12.79
12/27/2020 9:45:00 PM 4.14 39.452 0.029 6.85 5.21 12.81
12/27/2020 10:00:00 PM 4.12 39.416 0.029 6.88 4.99 12.81
12/27/2020 10:15:00 PM 4.11 39.398 0.029 6.89 5 12.82
12/27/2020 10:30:00 PM 4.09 39.362 0.029 6.87 5.16 12.82
12/27/2020 10:45:00 PM 4.08 39.344 0.029 6.87 5.14 12.83
12/27/2020 11:00:00 PM 4.07 39.326 0.029 6.87 7.17 12.82
12/27/2020 11:15:00 PM 4.05 39.29 0.029 6.87 7.44 12.83
12/27/2020 11:30:00 PM 4.04 39.272 0.029 6.87 5.09 12.84
12/27/2020 11:45:00 PM 4.02 39.236 0.029 6.87 4.9 12.84
12/28/2020 12:00:00 AM 4.01 39.218 0.029 6.87 4.81 12.83
12/28/2020 12:15:00 AM 4 39.2 0.029 6.87 5.05 12.84
12/28/2020 12:30:00 AM 3.99 39.182 0.029 6.86 5.05 12.84
12/28/2020 12:45:00 AM 3.98 39.164 0.029 6.85 4.91 12.84
12/28/2020 1:00:00 AM 3.98 39.164 0.029 6.88 4.8 12.83
12/28/2020 1:15:00 AM 3.97 39.146 0.029 6.87 5.09 12.83
12/28/2020 1:30:00 AM 3.97 39.146 0.029 6.86 5.12 12.83
12/28/2020 1:45:00 AM 3.96 39.128 0.029 6.86 4.71 12.83
12/28/2020 2:00:00 AM 3.96 39.128 0.029 6.86 4.75 12.83
12/28/2020 2:15:00 AM 3.95 39.11 0.029 6.86 4.92 12.83
12/28/2020 2:30:00 AM 3.96 39.128 0.029 6.88 4.96 12.82
12/28/2020 2:45:00 AM 3.96 39.128 0.029 6.85 4.94 12.83
12/28/2020 3:00:00 AM 3.96 39.128 0.029 6.85 5.14 12.82
12/28/2020 3:15:00 AM 3.97 39.146 0.029 6.86 4.61 12.83
12/28/2020 3:30:00 AM 3.98 39.164 0.029 6.87 4.74 12.82
12/28/2020 3:45:00 AM 3.99 39.182 0.029 6.87 4.86 12.81
12/28/2020 4:00:00 AM 4 39.2 0.029 6.87 4.73 12.81
12/28/2020 4:15:00 AM 4.01 39.218 0.029 6.89 4.6 12.81
12/28/2020 4:30:00 AM 4.02 39.236 0.029 6.87 4.41 12.8
12/28/2020 4:45:00 AM 4.04 39.272 0.029 6.88 4.7 12.8
12/28/2020 5:00:00 AM 4.03 39.254 0.029 6.88 4.5 12.79
12/28/2020 5:15:00 AM 4.02 39.236 0.029 6.89 4.71 12.79
12/28/2020 5:30:00 AM 4.03 39.254 0.029 6.88 4.8 12.78
12/28/2020 5:45:00 AM 4.04 39.272 0.029 6.88 4.38 12.79
12/28/2020 6:00:00 AM 4.06 39.308 0.029 6.88 4.48 12.78
12/28/2020 6:15:00 AM 4.08 39.344 0.029 6.88 4.71 12.78
12/28/2020 6:30:00 AM 4.1 39.38 0.029 6.88 4.55 12.77
12/28/2020 6:45:00 AM 4.12 39.416 0.029 6.87 4.78 12.77
12/28/2020 7:00:00 AM 4.14 39.452 0.029 6.87 4.54 12.76
12/28/2020 7:15:00 AM 4.15 39.47 0.029 6.86 4.71 12.76
12/28/2020 7:30:00 AM 4.17 39.506 0.029 6.88 4.56 12.75
12/28/2020 7:45:00 AM 4.19 39.542 0.029 6.89 4.51 12.74
12/28/2020 8:00:00 AM 4.21 39.578 0.029 6.87 4.37 12.74
12/28/2020 8:15:00 AM 4.23 39.614 0.029 6.89 4.37 12.73
12/28/2020 8:30:00 AM 4.25 39.65 0.029 6.89 4.54 12.73
12/28/2020 8:45:00 AM 4.28 39.704 0.029 6.91 4.37 12.74
12/28/2020 9:00:00 AM 4.31 39.758 0.029 6.89